<?xml version="1.0" encoding="UTF-8" standalone="no" ?>
<gpx xmlns="http://www.topografix.com/GPX/1/1" xmlns:xsi="http://www.w3.org/2001/XMLSchema-instance" xsi:schemaLocation="http://www.topografix.com/GPX/1/1 http://www.topografix.com/GPX/1/1/gpx.xsd" version="1.1" creator="VisuGPX - https://www.visugpx.com">
  <metadata>
    <name>Découverte du cap de la Hague (variante)</name>
    <desc><![CDATA[Découverte du cap de la Hague avec quelques variantes par rapport au circuit fléché]]></desc>
  </metadata>
  <trk>
    <name><![CDATA[cap de la hague2]]></name>
    <desc><![CDATA[À partir de la Piste Active]]></desc>
    <trkseg>
      <trkpt lat="49.66337" lon="-1.83797">
        <ele>163.421875</ele>
        <time>2016-09-07T08:55:56Z</time>
      </trkpt>
      <trkpt lat="49.6633" lon="-1.83789">
        <ele>177.097656</ele>
        <time>2016-09-07T09:04:33Z</time>
      </trkpt>
      <trkpt lat="49.66319" lon="-1.83784">
        <ele>178</ele>
        <time>2016-09-07T09:04:59Z</time>
      </trkpt>
      <trkpt lat="49.66311" lon="-1.83779">
        <ele>177.398438</ele>
        <time>2016-09-07T09:05:06Z</time>
      </trkpt>
      <trkpt lat="49.66304" lon="-1.83789">
        <ele>177.097656</ele>
        <time>2016-09-07T09:05:15Z</time>
      </trkpt>
      <trkpt lat="49.66299" lon="-1.83805">
        <ele>176.699219</ele>
        <time>2016-09-07T09:05:19Z</time>
      </trkpt>
      <trkpt lat="49.66274" lon="-1.83879">
        <ele>173.296875</ele>
        <time>2016-09-07T09:05:34Z</time>
      </trkpt>
      <trkpt lat="49.66272" lon="-1.83894">
        <ele>173.199219</ele>
        <time>2016-09-07T09:05:37Z</time>
      </trkpt>
      <trkpt lat="49.66275" lon="-1.83908">
        <ele>172.898438</ele>
        <time>2016-09-07T09:05:40Z</time>
      </trkpt>
      <trkpt lat="49.6628" lon="-1.83923">
        <ele>172.597656</ele>
        <time>2016-09-07T09:05:43Z</time>
      </trkpt>
      <trkpt lat="49.66309" lon="-1.84009">
        <ele>171.199219</ele>
        <time>2016-09-07T09:05:58Z</time>
      </trkpt>
      <trkpt lat="49.66314" lon="-1.84028">
        <ele>171.097656</ele>
        <time>2016-09-07T09:06:01Z</time>
      </trkpt>
      <trkpt lat="49.66334" lon="-1.8412">
        <ele>171.199219</ele>
        <time>2016-09-07T09:06:16Z</time>
      </trkpt>
      <trkpt lat="49.66349" lon="-1.8419">
        <ele>170.898438</ele>
        <time>2016-09-07T09:06:27Z</time>
      </trkpt>
      <trkpt lat="49.66374" lon="-1.84293">
        <ele>170</ele>
        <time>2016-09-07T09:06:43Z</time>
      </trkpt>
      <trkpt lat="49.6638" lon="-1.8431">
        <ele>169.597656</ele>
        <time>2016-09-07T09:06:46Z</time>
      </trkpt>
      <trkpt lat="49.66395" lon="-1.8436">
        <ele>169.097656</ele>
        <time>2016-09-07T09:06:54Z</time>
      </trkpt>
      <trkpt lat="49.66405" lon="-1.84398">
        <ele>168.398438</ele>
        <time>2016-09-07T09:07:00Z</time>
      </trkpt>
      <trkpt lat="49.6642" lon="-1.84454">
        <ele>168.699219</ele>
        <time>2016-09-07T09:07:09Z</time>
      </trkpt>
      <trkpt lat="49.66424" lon="-1.84473">
        <ele>168.796875</ele>
        <time>2016-09-07T09:07:12Z</time>
      </trkpt>
      <trkpt lat="49.66429" lon="-1.84509">
        <ele>169.398438</ele>
        <time>2016-09-07T09:07:18Z</time>
      </trkpt>
      <trkpt lat="49.6643" lon="-1.84528">
        <ele>169.898438</ele>
        <time>2016-09-07T09:07:21Z</time>
      </trkpt>
      <trkpt lat="49.66432" lon="-1.84564">
        <ele>171</ele>
        <time>2016-09-07T09:07:27Z</time>
      </trkpt>
      <trkpt lat="49.66432" lon="-1.84628">
        <ele>172.699219</ele>
        <time>2016-09-07T09:07:39Z</time>
      </trkpt>
      <trkpt lat="49.66433" lon="-1.84734">
        <ele>176</ele>
        <time>2016-09-07T09:07:57Z</time>
      </trkpt>
      <trkpt lat="49.66435" lon="-1.84766">
        <ele>175.898438</ele>
        <time>2016-09-07T09:08:03Z</time>
      </trkpt>
      <trkpt lat="49.66437" lon="-1.84781">
        <ele>172.296875</ele>
        <time>2016-09-07T09:08:07Z</time>
      </trkpt>
      <trkpt lat="49.66443" lon="-1.84791">
        <ele>172.097656</ele>
        <time>2016-09-07T09:09:00Z</time>
      </trkpt>
      <trkpt lat="49.66448" lon="-1.84807">
        <ele>171.898438</ele>
        <time>2016-09-07T09:09:04Z</time>
      </trkpt>
      <trkpt lat="49.66452" lon="-1.84822">
        <ele>171.699219</ele>
        <time>2016-09-07T09:09:07Z</time>
      </trkpt>
      <trkpt lat="49.66456" lon="-1.84842">
        <ele>171.699219</ele>
        <time>2016-09-07T09:09:10Z</time>
      </trkpt>
      <trkpt lat="49.66458" lon="-1.84856">
        <ele>171.796875</ele>
        <time>2016-09-07T09:09:12Z</time>
      </trkpt>
      <trkpt lat="49.66457" lon="-1.84871">
        <ele>171.796875</ele>
        <time>2016-09-07T09:09:14Z</time>
      </trkpt>
      <trkpt lat="49.66453" lon="-1.84885">
        <ele>172.097656</ele>
        <time>2016-09-07T09:09:16Z</time>
      </trkpt>
      <trkpt lat="49.66445" lon="-1.84911">
        <ele>171.898438</ele>
        <time>2016-09-07T09:09:20Z</time>
      </trkpt>
      <trkpt lat="49.66439" lon="-1.84921">
        <ele>172.796875</ele>
        <time>2016-09-07T09:09:23Z</time>
      </trkpt>
      <trkpt lat="49.66427" lon="-1.84917">
        <ele>173.398438</ele>
        <time>2016-09-07T09:09:27Z</time>
      </trkpt>
      <trkpt lat="49.66418" lon="-1.84916">
        <ele>174.199219</ele>
        <time>2016-09-07T09:09:30Z</time>
      </trkpt>
      <trkpt lat="49.66407" lon="-1.84916">
        <ele>174.796875</ele>
        <time>2016-09-07T09:09:33Z</time>
      </trkpt>
      <trkpt lat="49.66397" lon="-1.8492">
        <ele>175.398438</ele>
        <time>2016-09-07T09:09:36Z</time>
      </trkpt>
      <trkpt lat="49.66387" lon="-1.84927">
        <ele>175.796875</ele>
        <time>2016-09-07T09:09:39Z</time>
      </trkpt>
      <trkpt lat="49.66376" lon="-1.8493">
        <ele>176.398438</ele>
        <time>2016-09-07T09:09:42Z</time>
      </trkpt>
      <trkpt lat="49.66366" lon="-1.84926">
        <ele>177.097656</ele>
        <time>2016-09-07T09:09:45Z</time>
      </trkpt>
      <trkpt lat="49.66356" lon="-1.84926">
        <ele>177.597656</ele>
        <time>2016-09-07T09:09:48Z</time>
      </trkpt>
      <trkpt lat="49.66348" lon="-1.84936">
        <ele>178</ele>
        <time>2016-09-07T09:09:51Z</time>
      </trkpt>
      <trkpt lat="49.66321" lon="-1.8497">
        <ele>178.597656</ele>
        <time>2016-09-07T09:10:00Z</time>
      </trkpt>
      <trkpt lat="49.66232" lon="-1.85086">
        <ele>174.5</ele>
        <time>2016-09-07T09:10:23Z</time>
      </trkpt>
      <trkpt lat="49.66223" lon="-1.85101">
        <ele>174.398438</ele>
        <time>2016-09-07T09:10:25Z</time>
      </trkpt>
      <trkpt lat="49.66215" lon="-1.85117">
        <ele>174.597656</ele>
        <time>2016-09-07T09:10:27Z</time>
      </trkpt>
      <trkpt lat="49.662" lon="-1.85151">
        <ele>174.199219</ele>
        <time>2016-09-07T09:10:31Z</time>
      </trkpt>
      <trkpt lat="49.66194" lon="-1.85168">
        <ele>174.097656</ele>
        <time>2016-09-07T09:10:33Z</time>
      </trkpt>
      <trkpt lat="49.66188" lon="-1.85185">
        <ele>174.199219</ele>
        <time>2016-09-07T09:10:35Z</time>
      </trkpt>
      <trkpt lat="49.66178" lon="-1.85218">
        <ele>174.097656</ele>
        <time>2016-09-07T09:10:39Z</time>
      </trkpt>
      <trkpt lat="49.661" lon="-1.85584">
        <ele>173.398438</ele>
        <time>2016-09-07T09:11:25Z</time>
      </trkpt>
      <trkpt lat="49.66099" lon="-1.85599">
        <ele>172.796875</ele>
        <time>2016-09-07T09:11:27Z</time>
      </trkpt>
      <trkpt lat="49.66103" lon="-1.85611">
        <ele>172</ele>
        <time>2016-09-07T09:11:29Z</time>
      </trkpt>
      <trkpt lat="49.66112" lon="-1.85617">
        <ele>171.398438</ele>
        <time>2016-09-07T09:11:31Z</time>
      </trkpt>
      <trkpt lat="49.66123" lon="-1.85621">
        <ele>170.796875</ele>
        <time>2016-09-07T09:11:33Z</time>
      </trkpt>
      <trkpt lat="49.66259" lon="-1.85651">
        <ele>160.097656</ele>
        <time>2016-09-07T09:11:51Z</time>
      </trkpt>
      <trkpt lat="49.66304" lon="-1.8566">
        <ele>155.5</ele>
        <time>2016-09-07T09:11:56Z</time>
      </trkpt>
      <trkpt lat="49.66331" lon="-1.8567">
        <ele>153.398438</ele>
        <time>2016-09-07T09:11:59Z</time>
      </trkpt>
      <trkpt lat="49.66347" lon="-1.85679">
        <ele>153.296875</ele>
        <time>2016-09-07T09:12:01Z</time>
      </trkpt>
      <trkpt lat="49.66361" lon="-1.85689">
        <ele>152.796875</ele>
        <time>2016-09-07T09:12:03Z</time>
      </trkpt>
      <trkpt lat="49.66366" lon="-1.85704">
        <ele>153</ele>
        <time>2016-09-07T09:12:05Z</time>
      </trkpt>
      <trkpt lat="49.66362" lon="-1.8572">
        <ele>153.097656</ele>
        <time>2016-09-07T09:12:07Z</time>
      </trkpt>
      <trkpt lat="49.66356" lon="-1.85737">
        <ele>153.097656</ele>
        <time>2016-09-07T09:12:09Z</time>
      </trkpt>
      <trkpt lat="49.66342" lon="-1.85772">
        <ele>152</ele>
        <time>2016-09-07T09:12:13Z</time>
      </trkpt>
      <trkpt lat="49.66332" lon="-1.85788">
        <ele>151.898438</ele>
        <time>2016-09-07T09:12:15Z</time>
      </trkpt>
      <trkpt lat="49.66321" lon="-1.85801">
        <ele>151.898438</ele>
        <time>2016-09-07T09:12:17Z</time>
      </trkpt>
      <trkpt lat="49.66309" lon="-1.85813">
        <ele>151.699219</ele>
        <time>2016-09-07T09:12:19Z</time>
      </trkpt>
      <trkpt lat="49.66299" lon="-1.85828">
        <ele>151.597656</ele>
        <time>2016-09-07T09:12:21Z</time>
      </trkpt>
      <trkpt lat="49.66292" lon="-1.85847">
        <ele>151.597656</ele>
        <time>2016-09-07T09:12:23Z</time>
      </trkpt>
      <trkpt lat="49.66287" lon="-1.85868">
        <ele>151.699219</ele>
        <time>2016-09-07T09:12:25Z</time>
      </trkpt>
      <trkpt lat="49.66279" lon="-1.8591">
        <ele>152</ele>
        <time>2016-09-07T09:12:29Z</time>
      </trkpt>
      <trkpt lat="49.6627" lon="-1.85971">
        <ele>152.097656</ele>
        <time>2016-09-07T09:12:35Z</time>
      </trkpt>
      <trkpt lat="49.66268" lon="-1.85991">
        <ele>151.796875</ele>
        <time>2016-09-07T09:12:37Z</time>
      </trkpt>
      <trkpt lat="49.66259" lon="-1.86166">
        <ele>147.898438</ele>
        <time>2016-09-07T09:12:53Z</time>
      </trkpt>
      <trkpt lat="49.66258" lon="-1.86188">
        <ele>147.199219</ele>
        <time>2016-09-07T09:12:55Z</time>
      </trkpt>
      <trkpt lat="49.6626" lon="-1.8621">
        <ele>146.5</ele>
        <time>2016-09-07T09:12:57Z</time>
      </trkpt>
      <trkpt lat="49.66261" lon="-1.86227">
        <ele>145.296875</ele>
        <time>2016-09-07T09:12:59Z</time>
      </trkpt>
      <trkpt lat="49.66263" lon="-1.86242">
        <ele>143.097656</ele>
        <time>2016-09-07T09:13:01Z</time>
      </trkpt>
      <trkpt lat="49.66268" lon="-1.8626">
        <ele>140.699219</ele>
        <time>2016-09-07T09:13:03Z</time>
      </trkpt>
      <trkpt lat="49.66285" lon="-1.8632">
        <ele>135.699219</ele>
        <time>2016-09-07T09:13:08Z</time>
      </trkpt>
      <trkpt lat="49.66287" lon="-1.86335">
        <ele>134.597656</ele>
        <time>2016-09-07T09:13:09Z</time>
      </trkpt>
      <trkpt lat="49.66289" lon="-1.86352">
        <ele>133.597656</ele>
        <time>2016-09-07T09:13:10Z</time>
      </trkpt>
      <trkpt lat="49.66289" lon="-1.86368">
        <ele>132.597656</ele>
        <time>2016-09-07T09:13:11Z</time>
      </trkpt>
      <trkpt lat="49.66289" lon="-1.86385">
        <ele>131.5</ele>
        <time>2016-09-07T09:13:12Z</time>
      </trkpt>
      <trkpt lat="49.66287" lon="-1.86401">
        <ele>130.296875</ele>
        <time>2016-09-07T09:13:13Z</time>
      </trkpt>
      <trkpt lat="49.66284" lon="-1.86417">
        <ele>129</ele>
        <time>2016-09-07T09:13:14Z</time>
      </trkpt>
      <trkpt lat="49.66271" lon="-1.86484">
        <ele>124.199219</ele>
        <time>2016-09-07T09:13:18Z</time>
      </trkpt>
      <trkpt lat="49.66269" lon="-1.86502">
        <ele>122.898438</ele>
        <time>2016-09-07T09:13:19Z</time>
      </trkpt>
      <trkpt lat="49.66266" lon="-1.86536">
        <ele>120.699219</ele>
        <time>2016-09-07T09:13:21Z</time>
      </trkpt>
      <trkpt lat="49.66263" lon="-1.86552">
        <ele>119.597656</ele>
        <time>2016-09-07T09:13:22Z</time>
      </trkpt>
      <trkpt lat="49.66258" lon="-1.86567">
        <ele>118.5</ele>
        <time>2016-09-07T09:13:23Z</time>
      </trkpt>
      <trkpt lat="49.66247" lon="-1.86595">
        <ele>116.199219</ele>
        <time>2016-09-07T09:13:25Z</time>
      </trkpt>
      <trkpt lat="49.66244" lon="-1.86608">
        <ele>115</ele>
        <time>2016-09-07T09:13:26Z</time>
      </trkpt>
      <trkpt lat="49.66242" lon="-1.86623">
        <ele>113.699219</ele>
        <time>2016-09-07T09:13:27Z</time>
      </trkpt>
      <trkpt lat="49.66242" lon="-1.86639">
        <ele>112.296875</ele>
        <time>2016-09-07T09:13:28Z</time>
      </trkpt>
      <trkpt lat="49.66248" lon="-1.86723">
        <ele>105.296875</ele>
        <time>2016-09-07T09:13:33Z</time>
      </trkpt>
      <trkpt lat="49.66246" lon="-1.86739">
        <ele>104</ele>
        <time>2016-09-07T09:13:34Z</time>
      </trkpt>
      <trkpt lat="49.66242" lon="-1.86754">
        <ele>102.597656</ele>
        <time>2016-09-07T09:13:35Z</time>
      </trkpt>
      <trkpt lat="49.66237" lon="-1.86769">
        <ele>100.898438</ele>
        <time>2016-09-07T09:13:36Z</time>
      </trkpt>
      <trkpt lat="49.66231" lon="-1.86785">
        <ele>99.097656</ele>
        <time>2016-09-07T09:13:37Z</time>
      </trkpt>
      <trkpt lat="49.66224" lon="-1.868">
        <ele>97.296875</ele>
        <time>2016-09-07T09:13:38Z</time>
      </trkpt>
      <trkpt lat="49.66215" lon="-1.86814">
        <ele>95.398438</ele>
        <time>2016-09-07T09:13:39Z</time>
      </trkpt>
      <trkpt lat="49.66198" lon="-1.86839">
        <ele>92</ele>
        <time>2016-09-07T09:13:41Z</time>
      </trkpt>
      <trkpt lat="49.66193" lon="-1.86851">
        <ele>89.097656</ele>
        <time>2016-09-07T09:13:42Z</time>
      </trkpt>
      <trkpt lat="49.66192" lon="-1.86878">
        <ele>87.898438</ele>
        <time>2016-09-07T09:13:44Z</time>
      </trkpt>
      <trkpt lat="49.66195" lon="-1.86892">
        <ele>86.796875</ele>
        <time>2016-09-07T09:13:45Z</time>
      </trkpt>
      <trkpt lat="49.66202" lon="-1.86921">
        <ele>84.796875</ele>
        <time>2016-09-07T09:13:47Z</time>
      </trkpt>
      <trkpt lat="49.66206" lon="-1.86933">
        <ele>83.199219</ele>
        <time>2016-09-07T09:13:48Z</time>
      </trkpt>
      <trkpt lat="49.66219" lon="-1.86952">
        <ele>82.296875</ele>
        <time>2016-09-07T09:13:50Z</time>
      </trkpt>
      <trkpt lat="49.66228" lon="-1.86958">
        <ele>81.097656</ele>
        <time>2016-09-07T09:13:51Z</time>
      </trkpt>
      <trkpt lat="49.66249" lon="-1.86972">
        <ele>76.097656</ele>
        <time>2016-09-07T09:13:54Z</time>
      </trkpt>
      <trkpt lat="49.66248" lon="-1.86992">
        <ele>73.796875</ele>
        <time>2016-09-07T09:13:57Z</time>
      </trkpt>
      <trkpt lat="49.66236" lon="-1.87006">
        <ele>70.898438</ele>
        <time>2016-09-07T09:13:59Z</time>
      </trkpt>
      <trkpt lat="49.66206" lon="-1.87046">
        <ele>66.097656</ele>
        <time>2016-09-07T09:14:03Z</time>
      </trkpt>
      <trkpt lat="49.66162" lon="-1.87109">
        <ele>59.898438</ele>
        <time>2016-09-07T09:14:08Z</time>
      </trkpt>
      <trkpt lat="49.66151" lon="-1.87119">
        <ele>59.199219</ele>
        <time>2016-09-07T09:14:09Z</time>
      </trkpt>
      <trkpt lat="49.66141" lon="-1.87125">
        <ele>58.5</ele>
        <time>2016-09-07T09:14:10Z</time>
      </trkpt>
      <trkpt lat="49.66131" lon="-1.87127">
        <ele>57.699219</ele>
        <time>2016-09-07T09:14:11Z</time>
      </trkpt>
      <trkpt lat="49.6612" lon="-1.87124">
        <ele>56.796875</ele>
        <time>2016-09-07T09:14:12Z</time>
      </trkpt>
      <trkpt lat="49.66057" lon="-1.87112">
        <ele>52.296875</ele>
        <time>2016-09-07T09:14:18Z</time>
      </trkpt>
      <trkpt lat="49.66035" lon="-1.87113">
        <ele>50.898438</ele>
        <time>2016-09-07T09:14:20Z</time>
      </trkpt>
      <trkpt lat="49.65995" lon="-1.87119">
        <ele>48.796875</ele>
        <time>2016-09-07T09:14:24Z</time>
      </trkpt>
      <trkpt lat="49.65986" lon="-1.87122">
        <ele>48.296875</ele>
        <time>2016-09-07T09:14:25Z</time>
      </trkpt>
      <trkpt lat="49.65977" lon="-1.87125">
        <ele>47.898438</ele>
        <time>2016-09-07T09:14:26Z</time>
      </trkpt>
      <trkpt lat="49.65968" lon="-1.8713">
        <ele>47.398438</ele>
        <time>2016-09-07T09:14:27Z</time>
      </trkpt>
      <trkpt lat="49.65959" lon="-1.87136">
        <ele>46.699219</ele>
        <time>2016-09-07T09:14:28Z</time>
      </trkpt>
      <trkpt lat="49.65942" lon="-1.8715">
        <ele>45.199219</ele>
        <time>2016-09-07T09:14:30Z</time>
      </trkpt>
      <trkpt lat="49.65859" lon="-1.8722">
        <ele>36.097656</ele>
        <time>2016-09-07T09:14:40Z</time>
      </trkpt>
      <trkpt lat="49.65852" lon="-1.8723">
        <ele>35.699219</ele>
        <time>2016-09-07T09:14:41Z</time>
      </trkpt>
      <trkpt lat="49.65846" lon="-1.87241">
        <ele>35.699219</ele>
        <time>2016-09-07T09:14:42Z</time>
      </trkpt>
      <trkpt lat="49.65841" lon="-1.87254">
        <ele>36</ele>
        <time>2016-09-07T09:14:43Z</time>
      </trkpt>
      <trkpt lat="49.65837" lon="-1.87267">
        <ele>36.796875</ele>
        <time>2016-09-07T09:14:44Z</time>
      </trkpt>
      <trkpt lat="49.65833" lon="-1.87291">
        <ele>37.699219</ele>
        <time>2016-09-07T09:14:46Z</time>
      </trkpt>
      <trkpt lat="49.65831" lon="-1.87313">
        <ele>38.699219</ele>
        <time>2016-09-07T09:14:48Z</time>
      </trkpt>
      <trkpt lat="49.6583" lon="-1.87332">
        <ele>39.796875</ele>
        <time>2016-09-07T09:14:50Z</time>
      </trkpt>
      <trkpt lat="49.65832" lon="-1.87347">
        <ele>41</ele>
        <time>2016-09-07T09:14:52Z</time>
      </trkpt>
      <trkpt lat="49.65837" lon="-1.87362">
        <ele>42.597656</ele>
        <time>2016-09-07T09:14:55Z</time>
      </trkpt>
      <trkpt lat="49.65842" lon="-1.87376">
        <ele>44.296875</ele>
        <time>2016-09-07T09:14:59Z</time>
      </trkpt>
      <trkpt lat="49.65849" lon="-1.87386">
        <ele>43.699219</ele>
        <time>2016-09-07T09:15:04Z</time>
      </trkpt>
      <trkpt lat="49.65842" lon="-1.87375">
        <ele>42.398438</ele>
        <time>2016-09-07T09:15:29Z</time>
      </trkpt>
      <trkpt lat="49.65836" lon="-1.87364">
        <ele>41.097656</ele>
        <time>2016-09-07T09:15:32Z</time>
      </trkpt>
      <trkpt lat="49.65831" lon="-1.87351">
        <ele>41.898438</ele>
        <time>2016-09-07T09:15:35Z</time>
      </trkpt>
      <trkpt lat="49.65838" lon="-1.87362">
        <ele>43.398438</ele>
        <time>2016-09-07T09:15:50Z</time>
      </trkpt>
      <trkpt lat="49.65843" lon="-1.87375">
        <ele>44.898438</ele>
        <time>2016-09-07T09:15:54Z</time>
      </trkpt>
      <trkpt lat="49.65849" lon="-1.87386">
        <ele>45.898438</ele>
        <time>2016-09-07T09:15:58Z</time>
      </trkpt>
      <trkpt lat="49.65855" lon="-1.87397">
        <ele>48</ele>
        <time>2016-09-07T09:16:02Z</time>
      </trkpt>
      <trkpt lat="49.65863" lon="-1.87407">
        <ele>50.199219</ele>
        <time>2016-09-07T09:16:07Z</time>
      </trkpt>
      <trkpt lat="49.65872" lon="-1.87417">
        <ele>52.296875</ele>
        <time>2016-09-07T09:16:12Z</time>
      </trkpt>
      <trkpt lat="49.6588" lon="-1.87428">
        <ele>54.199219</ele>
        <time>2016-09-07T09:16:17Z</time>
      </trkpt>
      <trkpt lat="49.65886" lon="-1.87441">
        <ele>56.199219</ele>
        <time>2016-09-07T09:16:22Z</time>
      </trkpt>
      <trkpt lat="49.65904" lon="-1.87478">
        <ele>60.5</ele>
        <time>2016-09-07T09:16:35Z</time>
      </trkpt>
      <trkpt lat="49.6592" lon="-1.87518">
        <ele>62.898438</ele>
        <time>2016-09-07T09:16:46Z</time>
      </trkpt>
      <trkpt lat="49.6593" lon="-1.87548">
        <ele>63.296875</ele>
        <time>2016-09-07T09:16:52Z</time>
      </trkpt>
      <trkpt lat="49.65953" lon="-1.87627">
        <ele>64.296875</ele>
        <time>2016-09-07T09:17:07Z</time>
      </trkpt>
      <trkpt lat="49.65958" lon="-1.8764">
        <ele>65.5</ele>
        <time>2016-09-07T09:17:10Z</time>
      </trkpt>
      <trkpt lat="49.66004" lon="-1.87742">
        <ele>73.898438</ele>
        <time>2016-09-07T09:17:38Z</time>
      </trkpt>
      <trkpt lat="49.66008" lon="-1.87754">
        <ele>75.097656</ele>
        <time>2016-09-07T09:17:41Z</time>
      </trkpt>
      <trkpt lat="49.66012" lon="-1.87772">
        <ele>76.5</ele>
        <time>2016-09-07T09:17:45Z</time>
      </trkpt>
      <trkpt lat="49.66015" lon="-1.87789">
        <ele>78.296875</ele>
        <time>2016-09-07T09:17:49Z</time>
      </trkpt>
      <trkpt lat="49.66019" lon="-1.87824">
        <ele>81.5</ele>
        <time>2016-09-07T09:17:57Z</time>
      </trkpt>
      <trkpt lat="49.66023" lon="-1.8784">
        <ele>82.898438</ele>
        <time>2016-09-07T09:18:01Z</time>
      </trkpt>
      <trkpt lat="49.66033" lon="-1.87884">
        <ele>86.699219</ele>
        <time>2016-09-07T09:18:13Z</time>
      </trkpt>
      <trkpt lat="49.66038" lon="-1.87914">
        <ele>88.699219</ele>
        <time>2016-09-07T09:18:21Z</time>
      </trkpt>
      <trkpt lat="49.6604" lon="-1.8793">
        <ele>89.5</ele>
        <time>2016-09-07T09:18:25Z</time>
      </trkpt>
      <trkpt lat="49.66043" lon="-1.87981">
        <ele>92.5</ele>
        <time>2016-09-07T09:18:37Z</time>
      </trkpt>
      <trkpt lat="49.66042" lon="-1.8803">
        <ele>96.097656</ele>
        <time>2016-09-07T09:18:49Z</time>
      </trkpt>
      <trkpt lat="49.66044" lon="-1.88045">
        <ele>97.199219</ele>
        <time>2016-09-07T09:18:53Z</time>
      </trkpt>
      <trkpt lat="49.66047" lon="-1.88061">
        <ele>98.398438</ele>
        <time>2016-09-07T09:18:57Z</time>
      </trkpt>
      <trkpt lat="49.66056" lon="-1.88106">
        <ele>102.398438</ele>
        <time>2016-09-07T09:19:09Z</time>
      </trkpt>
      <trkpt lat="49.66058" lon="-1.88121">
        <ele>103.5</ele>
        <time>2016-09-07T09:19:13Z</time>
      </trkpt>
      <trkpt lat="49.66064" lon="-1.88151">
        <ele>105.097656</ele>
        <time>2016-09-07T09:19:21Z</time>
      </trkpt>
      <trkpt lat="49.66083" lon="-1.88252">
        <ele>113.699219</ele>
        <time>2016-09-07T09:19:50Z</time>
      </trkpt>
      <trkpt lat="49.6609" lon="-1.88242">
        <ele>115.398438</ele>
        <time>2016-09-07T09:23:27Z</time>
      </trkpt>
      <trkpt lat="49.66147" lon="-1.88162">
        <ele>123.898438</ele>
        <time>2016-09-07T09:24:07Z</time>
      </trkpt>
      <trkpt lat="49.66154" lon="-1.8815">
        <ele>124.898438</ele>
        <time>2016-09-07T09:24:11Z</time>
      </trkpt>
      <trkpt lat="49.6616" lon="-1.8814">
        <ele>125.796875</ele>
        <time>2016-09-07T09:24:15Z</time>
      </trkpt>
      <trkpt lat="49.66169" lon="-1.88133">
        <ele>127</ele>
        <time>2016-09-07T09:24:19Z</time>
      </trkpt>
      <trkpt lat="49.66179" lon="-1.88127">
        <ele>127.898438</ele>
        <time>2016-09-07T09:24:23Z</time>
      </trkpt>
      <trkpt lat="49.66188" lon="-1.88122">
        <ele>128.199219</ele>
        <time>2016-09-07T09:24:27Z</time>
      </trkpt>
      <trkpt lat="49.66198" lon="-1.88115">
        <ele>128.5</ele>
        <time>2016-09-07T09:24:31Z</time>
      </trkpt>
      <trkpt lat="49.66218" lon="-1.88099">
        <ele>129.097656</ele>
        <time>2016-09-07T09:24:40Z</time>
      </trkpt>
      <trkpt lat="49.66229" lon="-1.88092">
        <ele>129.5</ele>
        <time>2016-09-07T09:24:44Z</time>
      </trkpt>
      <trkpt lat="49.66247" lon="-1.88083">
        <ele>130.796875</ele>
        <time>2016-09-07T09:24:50Z</time>
      </trkpt>
      <trkpt lat="49.66281" lon="-1.8807">
        <ele>134.5</ele>
        <time>2016-09-07T09:25:02Z</time>
      </trkpt>
      <trkpt lat="49.66303" lon="-1.88064">
        <ele>136.796875</ele>
        <time>2016-09-07T09:25:10Z</time>
      </trkpt>
      <trkpt lat="49.66357" lon="-1.88048">
        <ele>139.898438</ele>
        <time>2016-09-07T09:25:30Z</time>
      </trkpt>
      <trkpt lat="49.66377" lon="-1.88039">
        <ele>139.898438</ele>
        <time>2016-09-07T09:25:38Z</time>
      </trkpt>
      <trkpt lat="49.66467" lon="-1.87997">
        <ele>143.398438</ele>
        <time>2016-09-07T09:26:14Z</time>
      </trkpt>
      <trkpt lat="49.66574" lon="-1.87935">
        <ele>146.597656</ele>
        <time>2016-09-07T09:26:48Z</time>
      </trkpt>
      <trkpt lat="49.66584" lon="-1.87933">
        <ele>147.296875</ele>
        <time>2016-09-07T09:26:51Z</time>
      </trkpt>
      <trkpt lat="49.66593" lon="-1.87932">
        <ele>148</ele>
        <time>2016-09-07T09:26:54Z</time>
      </trkpt>
      <trkpt lat="49.66612" lon="-1.87931">
        <ele>150</ele>
        <time>2016-09-07T09:27:00Z</time>
      </trkpt>
      <trkpt lat="49.66624" lon="-1.87927">
        <ele>151</ele>
        <time>2016-09-07T09:27:04Z</time>
      </trkpt>
      <trkpt lat="49.66635" lon="-1.8792">
        <ele>152.296875</ele>
        <time>2016-09-07T09:27:08Z</time>
      </trkpt>
      <trkpt lat="49.66644" lon="-1.87911">
        <ele>153.398438</ele>
        <time>2016-09-07T09:27:12Z</time>
      </trkpt>
      <trkpt lat="49.66652" lon="-1.87898">
        <ele>154.199219</ele>
        <time>2016-09-07T09:27:16Z</time>
      </trkpt>
      <trkpt lat="49.66666" lon="-1.87872">
        <ele>155</ele>
        <time>2016-09-07T09:27:23Z</time>
      </trkpt>
      <trkpt lat="49.66674" lon="-1.87863">
        <ele>155.296875</ele>
        <time>2016-09-07T09:27:26Z</time>
      </trkpt>
      <trkpt lat="49.66682" lon="-1.87855">
        <ele>156.097656</ele>
        <time>2016-09-07T09:27:29Z</time>
      </trkpt>
      <trkpt lat="49.6669" lon="-1.87849">
        <ele>156.898438</ele>
        <time>2016-09-07T09:27:32Z</time>
      </trkpt>
      <trkpt lat="49.667" lon="-1.87848">
        <ele>157.199219</ele>
        <time>2016-09-07T09:27:35Z</time>
      </trkpt>
      <trkpt lat="49.66711" lon="-1.8785">
        <ele>157.5</ele>
        <time>2016-09-07T09:27:39Z</time>
      </trkpt>
      <trkpt lat="49.66721" lon="-1.87851">
        <ele>158</ele>
        <time>2016-09-07T09:27:43Z</time>
      </trkpt>
      <trkpt lat="49.66731" lon="-1.87853">
        <ele>158.097656</ele>
        <time>2016-09-07T09:27:47Z</time>
      </trkpt>
      <trkpt lat="49.66751" lon="-1.87857">
        <ele>156.898438</ele>
        <time>2016-09-07T09:27:57Z</time>
      </trkpt>
      <trkpt lat="49.66763" lon="-1.87862">
        <ele>156.398438</ele>
        <time>2016-09-07T09:28:01Z</time>
      </trkpt>
      <trkpt lat="49.66773" lon="-1.87869">
        <ele>155.898438</ele>
        <time>2016-09-07T09:28:04Z</time>
      </trkpt>
      <trkpt lat="49.66784" lon="-1.87878">
        <ele>155.199219</ele>
        <time>2016-09-07T09:28:07Z</time>
      </trkpt>
      <trkpt lat="49.66794" lon="-1.87881">
        <ele>154.296875</ele>
        <time>2016-09-07T09:28:09Z</time>
      </trkpt>
      <trkpt lat="49.66806" lon="-1.87879">
        <ele>153.796875</ele>
        <time>2016-09-07T09:28:11Z</time>
      </trkpt>
      <trkpt lat="49.66817" lon="-1.87873">
        <ele>153.398438</ele>
        <time>2016-09-07T09:28:13Z</time>
      </trkpt>
      <trkpt lat="49.66829" lon="-1.87869">
        <ele>153.199219</ele>
        <time>2016-09-07T09:28:15Z</time>
      </trkpt>
      <trkpt lat="49.66841" lon="-1.87868">
        <ele>153</ele>
        <time>2016-09-07T09:28:17Z</time>
      </trkpt>
      <trkpt lat="49.66851" lon="-1.87869">
        <ele>152.898438</ele>
        <time>2016-09-07T09:28:19Z</time>
      </trkpt>
      <trkpt lat="49.66859" lon="-1.87879">
        <ele>153.5</ele>
        <time>2016-09-07T09:28:22Z</time>
      </trkpt>
      <trkpt lat="49.66864" lon="-1.87892">
        <ele>154.699219</ele>
        <time>2016-09-07T09:28:25Z</time>
      </trkpt>
      <trkpt lat="49.66869" lon="-1.87909">
        <ele>156</ele>
        <time>2016-09-07T09:28:29Z</time>
      </trkpt>
      <trkpt lat="49.66873" lon="-1.87924">
        <ele>157.5</ele>
        <time>2016-09-07T09:28:33Z</time>
      </trkpt>
      <trkpt lat="49.66878" lon="-1.87936">
        <ele>158.898438</ele>
        <time>2016-09-07T09:28:37Z</time>
      </trkpt>
      <trkpt lat="49.66888" lon="-1.87934">
        <ele>160.199219</ele>
        <time>2016-09-07T09:28:41Z</time>
      </trkpt>
      <trkpt lat="49.66898" lon="-1.87932">
        <ele>161.5</ele>
        <time>2016-09-07T09:28:45Z</time>
      </trkpt>
      <trkpt lat="49.66909" lon="-1.87935">
        <ele>162.5</ele>
        <time>2016-09-07T09:28:49Z</time>
      </trkpt>
      <trkpt lat="49.66918" lon="-1.87944">
        <ele>163.699219</ele>
        <time>2016-09-07T09:28:53Z</time>
      </trkpt>
      <trkpt lat="49.66926" lon="-1.87958">
        <ele>164.699219</ele>
        <time>2016-09-07T09:28:57Z</time>
      </trkpt>
      <trkpt lat="49.66941" lon="-1.87983">
        <ele>166.398438</ele>
        <time>2016-09-07T09:29:05Z</time>
      </trkpt>
      <trkpt lat="49.6695" lon="-1.87994">
        <ele>167</ele>
        <time>2016-09-07T09:29:09Z</time>
      </trkpt>
      <trkpt lat="49.66978" lon="-1.88026">
        <ele>170.398438</ele>
        <time>2016-09-07T09:29:21Z</time>
      </trkpt>
      <trkpt lat="49.66988" lon="-1.88035">
        <ele>172.199219</ele>
        <time>2016-09-07T09:29:25Z</time>
      </trkpt>
      <trkpt lat="49.66999" lon="-1.88041">
        <ele>173.296875</ele>
        <time>2016-09-07T09:29:29Z</time>
      </trkpt>
      <trkpt lat="49.67059" lon="-1.88071">
        <ele>173.699219</ele>
        <time>2016-09-07T09:29:48Z</time>
      </trkpt>
      <trkpt lat="49.67069" lon="-1.88081">
        <ele>173.199219</ele>
        <time>2016-09-07T09:29:51Z</time>
      </trkpt>
      <trkpt lat="49.67079" lon="-1.8809">
        <ele>172.796875</ele>
        <time>2016-09-07T09:29:54Z</time>
      </trkpt>
      <trkpt lat="49.67091" lon="-1.88096">
        <ele>172.199219</ele>
        <time>2016-09-07T09:29:57Z</time>
      </trkpt>
      <trkpt lat="49.67245" lon="-1.88171">
        <ele>165.597656</ele>
        <time>2016-09-07T09:30:24Z</time>
      </trkpt>
      <trkpt lat="49.67258" lon="-1.88174">
        <ele>165.199219</ele>
        <time>2016-09-07T09:30:26Z</time>
      </trkpt>
      <trkpt lat="49.67279" lon="-1.88179">
        <ele>164.597656</ele>
        <time>2016-09-07T09:30:30Z</time>
      </trkpt>
      <trkpt lat="49.67289" lon="-1.88189">
        <ele>163.796875</ele>
        <time>2016-09-07T09:30:33Z</time>
      </trkpt>
      <trkpt lat="49.673" lon="-1.88202">
        <ele>163.199219</ele>
        <time>2016-09-07T09:30:36Z</time>
      </trkpt>
      <trkpt lat="49.67309" lon="-1.8821">
        <ele>162.5</ele>
        <time>2016-09-07T09:30:38Z</time>
      </trkpt>
      <trkpt lat="49.67353" lon="-1.88244">
        <ele>157.898438</ele>
        <time>2016-09-07T09:30:46Z</time>
      </trkpt>
      <trkpt lat="49.67374" lon="-1.88259">
        <ele>155.296875</ele>
        <time>2016-09-07T09:30:50Z</time>
      </trkpt>
      <trkpt lat="49.67382" lon="-1.88274">
        <ele>155.898438</ele>
        <time>2016-09-07T09:30:52Z</time>
      </trkpt>
      <trkpt lat="49.67388" lon="-1.88289">
        <ele>157.699219</ele>
        <time>2016-09-07T09:30:54Z</time>
      </trkpt>
      <trkpt lat="49.67392" lon="-1.88303">
        <ele>159.097656</ele>
        <time>2016-09-07T09:30:57Z</time>
      </trkpt>
      <trkpt lat="49.67395" lon="-1.8832">
        <ele>159.5</ele>
        <time>2016-09-07T09:31:01Z</time>
      </trkpt>
      <trkpt lat="49.6745" lon="-1.88696">
        <ele>162.597656</ele>
        <time>2016-09-07T09:31:57Z</time>
      </trkpt>
      <trkpt lat="49.67451" lon="-1.88712">
        <ele>163.5</ele>
        <time>2016-09-07T09:32:01Z</time>
      </trkpt>
      <trkpt lat="49.67444" lon="-1.88723">
        <ele>164.296875</ele>
        <time>2016-09-07T09:32:07Z</time>
      </trkpt>
      <trkpt lat="49.67435" lon="-1.88724">
        <ele>164.199219</ele>
        <time>2016-09-07T09:33:57Z</time>
      </trkpt>
      <trkpt lat="49.67406" lon="-1.88726">
        <ele>163.898438</ele>
        <time>2016-09-07T09:34:09Z</time>
      </trkpt>
      <trkpt lat="49.67396" lon="-1.88732">
        <ele>163.699219</ele>
        <time>2016-09-07T09:34:12Z</time>
      </trkpt>
      <trkpt lat="49.67386" lon="-1.88741">
        <ele>163.296875</ele>
        <time>2016-09-07T09:34:15Z</time>
      </trkpt>
      <trkpt lat="49.67296" lon="-1.88829">
        <ele>157.199219</ele>
        <time>2016-09-07T09:34:35Z</time>
      </trkpt>
      <trkpt lat="49.67284" lon="-1.88843">
        <ele>155.898438</ele>
        <time>2016-09-07T09:34:37Z</time>
      </trkpt>
      <trkpt lat="49.67274" lon="-1.88863">
        <ele>154.5</ele>
        <time>2016-09-07T09:34:39Z</time>
      </trkpt>
      <trkpt lat="49.67268" lon="-1.88888">
        <ele>153.199219</ele>
        <time>2016-09-07T09:34:41Z</time>
      </trkpt>
      <trkpt lat="49.67255" lon="-1.88969">
        <ele>151.097656</ele>
        <time>2016-09-07T09:34:47Z</time>
      </trkpt>
      <trkpt lat="49.67248" lon="-1.88993">
        <ele>150.597656</ele>
        <time>2016-09-07T09:34:49Z</time>
      </trkpt>
      <trkpt lat="49.67235" lon="-1.89039">
        <ele>149.796875</ele>
        <time>2016-09-07T09:34:53Z</time>
      </trkpt>
      <trkpt lat="49.67234" lon="-1.89061">
        <ele>150</ele>
        <time>2016-09-07T09:34:55Z</time>
      </trkpt>
      <trkpt lat="49.67243" lon="-1.89075">
        <ele>149.597656</ele>
        <time>2016-09-07T09:34:57Z</time>
      </trkpt>
      <trkpt lat="49.67283" lon="-1.89144">
        <ele>147.699219</ele>
        <time>2016-09-07T09:35:07Z</time>
      </trkpt>
      <trkpt lat="49.6729" lon="-1.8916">
        <ele>147.5</ele>
        <time>2016-09-07T09:35:09Z</time>
      </trkpt>
      <trkpt lat="49.67312" lon="-1.89214">
        <ele>146.097656</ele>
        <time>2016-09-07T09:35:15Z</time>
      </trkpt>
      <trkpt lat="49.67342" lon="-1.89298">
        <ele>144.097656</ele>
        <time>2016-09-07T09:35:23Z</time>
      </trkpt>
      <trkpt lat="49.67347" lon="-1.89319">
        <ele>144.296875</ele>
        <time>2016-09-07T09:35:25Z</time>
      </trkpt>
      <trkpt lat="49.67349" lon="-1.89339">
        <ele>144.5</ele>
        <time>2016-09-07T09:35:27Z</time>
      </trkpt>
      <trkpt lat="49.6735" lon="-1.8936">
        <ele>144.097656</ele>
        <time>2016-09-07T09:35:29Z</time>
      </trkpt>
      <trkpt lat="49.67353" lon="-1.89397">
        <ele>140.296875</ele>
        <time>2016-09-07T09:35:33Z</time>
      </trkpt>
      <trkpt lat="49.6736" lon="-1.89464">
        <ele>138.398438</ele>
        <time>2016-09-07T09:35:41Z</time>
      </trkpt>
      <trkpt lat="49.67364" lon="-1.89478">
        <ele>139</ele>
        <time>2016-09-07T09:35:43Z</time>
      </trkpt>
      <trkpt lat="49.67372" lon="-1.89488">
        <ele>140.097656</ele>
        <time>2016-09-07T09:35:45Z</time>
      </trkpt>
      <trkpt lat="49.67384" lon="-1.89494">
        <ele>141.296875</ele>
        <time>2016-09-07T09:35:48Z</time>
      </trkpt>
      <trkpt lat="49.67395" lon="-1.89498">
        <ele>142.398438</ele>
        <time>2016-09-07T09:35:51Z</time>
      </trkpt>
      <trkpt lat="49.67607" lon="-1.89568">
        <ele>155</ele>
        <time>2016-09-07T09:36:51Z</time>
      </trkpt>
      <trkpt lat="49.67666" lon="-1.8958">
        <ele>160</ele>
        <time>2016-09-07T09:37:09Z</time>
      </trkpt>
      <trkpt lat="49.67675" lon="-1.89584">
        <ele>160.5</ele>
        <time>2016-09-07T09:37:12Z</time>
      </trkpt>
      <trkpt lat="49.67682" lon="-1.89592">
        <ele>160.597656</ele>
        <time>2016-09-07T09:37:15Z</time>
      </trkpt>
      <trkpt lat="49.67687" lon="-1.89607">
        <ele>160.597656</ele>
        <time>2016-09-07T09:37:18Z</time>
      </trkpt>
      <trkpt lat="49.6769" lon="-1.89623">
        <ele>160.398438</ele>
        <time>2016-09-07T09:37:21Z</time>
      </trkpt>
      <trkpt lat="49.67721" lon="-1.89808">
        <ele>161</ele>
        <time>2016-09-07T09:37:46Z</time>
      </trkpt>
      <trkpt lat="49.67734" lon="-1.89854">
        <ele>161.296875</ele>
        <time>2016-09-07T09:37:54Z</time>
      </trkpt>
      <trkpt lat="49.67735" lon="-1.89873">
        <ele>161.398438</ele>
        <time>2016-09-07T09:37:58Z</time>
      </trkpt>
      <trkpt lat="49.67736" lon="-1.89887">
        <ele>161.199219</ele>
        <time>2016-09-07T09:38:01Z</time>
      </trkpt>
      <trkpt lat="49.67736" lon="-1.89903">
        <ele>161.398438</ele>
        <time>2016-09-07T09:38:04Z</time>
      </trkpt>
      <trkpt lat="49.67736" lon="-1.8992">
        <ele>162</ele>
        <time>2016-09-07T09:38:07Z</time>
      </trkpt>
      <trkpt lat="49.67739" lon="-1.89934">
        <ele>163</ele>
        <time>2016-09-07T09:38:10Z</time>
      </trkpt>
      <trkpt lat="49.67745" lon="-1.89949">
        <ele>163.5</ele>
        <time>2016-09-07T09:38:14Z</time>
      </trkpt>
      <trkpt lat="49.67776" lon="-1.90032">
        <ele>164.898438</ele>
        <time>2016-09-07T09:38:33Z</time>
      </trkpt>
      <trkpt lat="49.6779" lon="-1.90076">
        <ele>165.796875</ele>
        <time>2016-09-07T09:38:42Z</time>
      </trkpt>
      <trkpt lat="49.67821" lon="-1.90186">
        <ele>166.296875</ele>
        <time>2016-09-07T09:39:03Z</time>
      </trkpt>
      <trkpt lat="49.67825" lon="-1.90202">
        <ele>166.699219</ele>
        <time>2016-09-07T09:39:06Z</time>
      </trkpt>
      <trkpt lat="49.67827" lon="-1.9022">
        <ele>167</ele>
        <time>2016-09-07T09:39:09Z</time>
      </trkpt>
      <trkpt lat="49.67828" lon="-1.90238">
        <ele>167.398438</ele>
        <time>2016-09-07T09:39:12Z</time>
      </trkpt>
      <trkpt lat="49.67828" lon="-1.90257">
        <ele>167.5</ele>
        <time>2016-09-07T09:39:15Z</time>
      </trkpt>
      <trkpt lat="49.67826" lon="-1.90277">
        <ele>167.199219</ele>
        <time>2016-09-07T09:39:18Z</time>
      </trkpt>
      <trkpt lat="49.67817" lon="-1.90353">
        <ele>167</ele>
        <time>2016-09-07T09:39:29Z</time>
      </trkpt>
      <trkpt lat="49.67816" lon="-1.90399">
        <ele>165.898438</ele>
        <time>2016-09-07T09:39:35Z</time>
      </trkpt>
      <trkpt lat="49.6782" lon="-1.90477">
        <ele>165.796875</ele>
        <time>2016-09-07T09:39:46Z</time>
      </trkpt>
      <trkpt lat="49.6782" lon="-1.9051">
        <ele>166.296875</ele>
        <time>2016-09-07T09:39:53Z</time>
      </trkpt>
      <trkpt lat="49.67823" lon="-1.90524">
        <ele>166.5</ele>
        <time>2016-09-07T09:39:59Z</time>
      </trkpt>
      <trkpt lat="49.67833" lon="-1.90528">
        <ele>166.5</ele>
        <time>2016-09-07T09:40:04Z</time>
      </trkpt>
      <trkpt lat="49.67843" lon="-1.90527">
        <ele>166.5</ele>
        <time>2016-09-07T09:40:08Z</time>
      </trkpt>
      <trkpt lat="49.67853" lon="-1.90525">
        <ele>166.597656</ele>
        <time>2016-09-07T09:40:11Z</time>
      </trkpt>
      <trkpt lat="49.6813" lon="-1.90467">
        <ele>170.898438</ele>
        <time>2016-09-07T09:41:27Z</time>
      </trkpt>
      <trkpt lat="49.68245" lon="-1.90443">
        <ele>173.199219</ele>
        <time>2016-09-07T09:42:01Z</time>
      </trkpt>
      <trkpt lat="49.68291" lon="-1.90435">
        <ele>174.398438</ele>
        <time>2016-09-07T09:42:13Z</time>
      </trkpt>
      <trkpt lat="49.68302" lon="-1.90431">
        <ele>174.597656</ele>
        <time>2016-09-07T09:42:17Z</time>
      </trkpt>
      <trkpt lat="49.68311" lon="-1.90434">
        <ele>174.796875</ele>
        <time>2016-09-07T09:42:24Z</time>
      </trkpt>
      <trkpt lat="49.68321" lon="-1.90442">
        <ele>175.199219</ele>
        <time>2016-09-07T09:42:28Z</time>
      </trkpt>
      <trkpt lat="49.68327" lon="-1.90454">
        <ele>175.5</ele>
        <time>2016-09-07T09:42:31Z</time>
      </trkpt>
      <trkpt lat="49.68348" lon="-1.90493">
        <ele>175.699219</ele>
        <time>2016-09-07T09:42:40Z</time>
      </trkpt>
      <trkpt lat="49.6837" lon="-1.90525">
        <ele>175.699219</ele>
        <time>2016-09-07T09:42:51Z</time>
      </trkpt>
      <trkpt lat="49.68377" lon="-1.90532">
        <ele>175.597656</ele>
        <time>2016-09-07T09:42:55Z</time>
      </trkpt>
      <trkpt lat="49.68384" lon="-1.90543">
        <ele>175.597656</ele>
        <time>2016-09-07T09:42:59Z</time>
      </trkpt>
      <trkpt lat="49.68392" lon="-1.90557">
        <ele>175.699219</ele>
        <time>2016-09-07T09:43:03Z</time>
      </trkpt>
      <trkpt lat="49.684" lon="-1.90568">
        <ele>175.796875</ele>
        <time>2016-09-07T09:43:06Z</time>
      </trkpt>
      <trkpt lat="49.68448" lon="-1.90638">
        <ele>175.5</ele>
        <time>2016-09-07T09:43:25Z</time>
      </trkpt>
      <trkpt lat="49.6844" lon="-1.90632">
        <ele>175.898438</ele>
        <time>2016-09-07T09:44:39Z</time>
      </trkpt>
      <trkpt lat="49.68432" lon="-1.90619">
        <ele>175.5</ele>
        <time>2016-09-07T09:44:42Z</time>
      </trkpt>
      <trkpt lat="49.68408" lon="-1.90585">
        <ele>176</ele>
        <time>2016-09-07T09:44:51Z</time>
      </trkpt>
      <trkpt lat="49.68365" lon="-1.90524">
        <ele>175.296875</ele>
        <time>2016-09-07T09:45:06Z</time>
      </trkpt>
      <trkpt lat="49.68354" lon="-1.90529">
        <ele>174.597656</ele>
        <time>2016-09-07T09:45:10Z</time>
      </trkpt>
      <trkpt lat="49.68348" lon="-1.90543">
        <ele>173.898438</ele>
        <time>2016-09-07T09:45:13Z</time>
      </trkpt>
      <trkpt lat="49.68252" lon="-1.90755">
        <ele>163.699219</ele>
        <time>2016-09-07T09:45:37Z</time>
      </trkpt>
      <trkpt lat="49.68204" lon="-1.90841">
        <ele>156.699219</ele>
        <time>2016-09-07T09:45:44Z</time>
      </trkpt>
      <trkpt lat="49.68179" lon="-1.90877">
        <ele>155.199219</ele>
        <time>2016-09-07T09:45:47Z</time>
      </trkpt>
      <trkpt lat="49.68054" lon="-1.91063">
        <ele>150.398438</ele>
        <time>2016-09-07T09:46:04Z</time>
      </trkpt>
      <trkpt lat="49.68046" lon="-1.91077">
        <ele>150.296875</ele>
        <time>2016-09-07T09:46:06Z</time>
      </trkpt>
      <trkpt lat="49.68039" lon="-1.91091">
        <ele>150.898438</ele>
        <time>2016-09-07T09:46:08Z</time>
      </trkpt>
      <trkpt lat="49.67995" lon="-1.91192">
        <ele>151.898438</ele>
        <time>2016-09-07T09:46:24Z</time>
      </trkpt>
      <trkpt lat="49.67989" lon="-1.91207">
        <ele>150.796875</ele>
        <time>2016-09-07T09:46:26Z</time>
      </trkpt>
      <trkpt lat="49.6795" lon="-1.91343">
        <ele>143.398438</ele>
        <time>2016-09-07T09:46:38Z</time>
      </trkpt>
      <trkpt lat="49.67925" lon="-1.9145">
        <ele>138.296875</ele>
        <time>2016-09-07T09:46:46Z</time>
      </trkpt>
      <trkpt lat="49.67911" lon="-1.91531">
        <ele>136.296875</ele>
        <time>2016-09-07T09:46:54Z</time>
      </trkpt>
      <trkpt lat="49.67906" lon="-1.91548">
        <ele>135.398438</ele>
        <time>2016-09-07T09:46:58Z</time>
      </trkpt>
      <trkpt lat="49.67904" lon="-1.91563">
        <ele>134.296875</ele>
        <time>2016-09-07T09:47:01Z</time>
      </trkpt>
      <trkpt lat="49.67903" lon="-1.91579">
        <ele>133.097656</ele>
        <time>2016-09-07T09:47:03Z</time>
      </trkpt>
      <trkpt lat="49.67904" lon="-1.91742">
        <ele>124.097656</ele>
        <time>2016-09-07T09:47:17Z</time>
      </trkpt>
      <trkpt lat="49.6791" lon="-1.91756">
        <ele>124.199219</ele>
        <time>2016-09-07T09:47:20Z</time>
      </trkpt>
      <trkpt lat="49.6792" lon="-1.91749">
        <ele>124.5</ele>
        <time>2016-09-07T09:47:24Z</time>
      </trkpt>
      <trkpt lat="49.67926" lon="-1.91738">
        <ele>124.898438</ele>
        <time>2016-09-07T09:47:27Z</time>
      </trkpt>
      <trkpt lat="49.67932" lon="-1.91725">
        <ele>125.296875</ele>
        <time>2016-09-07T09:47:30Z</time>
      </trkpt>
      <trkpt lat="49.67939" lon="-1.91714">
        <ele>125.699219</ele>
        <time>2016-09-07T09:47:33Z</time>
      </trkpt>
      <trkpt lat="49.67946" lon="-1.91704">
        <ele>126.097656</ele>
        <time>2016-09-07T09:47:36Z</time>
      </trkpt>
      <trkpt lat="49.6799" lon="-1.91652">
        <ele>124.898438</ele>
        <time>2016-09-07T09:47:50Z</time>
      </trkpt>
      <trkpt lat="49.67999" lon="-1.91645">
        <ele>124.597656</ele>
        <time>2016-09-07T09:47:52Z</time>
      </trkpt>
      <trkpt lat="49.68007" lon="-1.91639">
        <ele>124.296875</ele>
        <time>2016-09-07T09:47:54Z</time>
      </trkpt>
      <trkpt lat="49.68022" lon="-1.91623">
        <ele>123.597656</ele>
        <time>2016-09-07T09:47:58Z</time>
      </trkpt>
      <trkpt lat="49.68039" lon="-1.91606">
        <ele>122.097656</ele>
        <time>2016-09-07T09:48:02Z</time>
      </trkpt>
      <trkpt lat="49.68057" lon="-1.91583">
        <ele>121.398438</ele>
        <time>2016-09-07T09:48:06Z</time>
      </trkpt>
      <trkpt lat="49.68069" lon="-1.91574">
        <ele>121.296875</ele>
        <time>2016-09-07T09:48:08Z</time>
      </trkpt>
      <trkpt lat="49.68119" lon="-1.9154">
        <ele>122.199219</ele>
        <time>2016-09-07T09:48:18Z</time>
      </trkpt>
      <trkpt lat="49.68128" lon="-1.91536">
        <ele>122.199219</ele>
        <time>2016-09-07T09:48:20Z</time>
      </trkpt>
      <trkpt lat="49.68139" lon="-1.91534">
        <ele>121.898438</ele>
        <time>2016-09-07T09:48:22Z</time>
      </trkpt>
      <trkpt lat="49.68183" lon="-1.91527">
        <ele>120.5</ele>
        <time>2016-09-07T09:48:30Z</time>
      </trkpt>
      <trkpt lat="49.68196" lon="-1.91526">
        <ele>119.699219</ele>
        <time>2016-09-07T09:48:32Z</time>
      </trkpt>
      <trkpt lat="49.68209" lon="-1.9153">
        <ele>118.699219</ele>
        <time>2016-09-07T09:48:34Z</time>
      </trkpt>
      <trkpt lat="49.6824" lon="-1.91539">
        <ele>117.296875</ele>
        <time>2016-09-07T09:48:38Z</time>
      </trkpt>
      <trkpt lat="49.68254" lon="-1.91546">
        <ele>116.199219</ele>
        <time>2016-09-07T09:48:40Z</time>
      </trkpt>
      <trkpt lat="49.68265" lon="-1.91561">
        <ele>116.296875</ele>
        <time>2016-09-07T09:48:42Z</time>
      </trkpt>
      <trkpt lat="49.68272" lon="-1.9158">
        <ele>116.5</ele>
        <time>2016-09-07T09:48:44Z</time>
      </trkpt>
      <trkpt lat="49.68283" lon="-1.91615">
        <ele>116.597656</ele>
        <time>2016-09-07T09:48:48Z</time>
      </trkpt>
      <trkpt lat="49.6829" lon="-1.9163">
        <ele>116.796875</ele>
        <time>2016-09-07T09:48:50Z</time>
      </trkpt>
      <trkpt lat="49.68299" lon="-1.91641">
        <ele>117.097656</ele>
        <time>2016-09-07T09:48:52Z</time>
      </trkpt>
      <trkpt lat="49.68309" lon="-1.91649">
        <ele>117.597656</ele>
        <time>2016-09-07T09:48:54Z</time>
      </trkpt>
      <trkpt lat="49.68328" lon="-1.91663">
        <ele>118.199219</ele>
        <time>2016-09-07T09:48:58Z</time>
      </trkpt>
      <trkpt lat="49.68488" lon="-1.91761">
        <ele>120.699219</ele>
        <time>2016-09-07T09:49:42Z</time>
      </trkpt>
      <trkpt lat="49.68507" lon="-1.91768">
        <ele>121.5</ele>
        <time>2016-09-07T09:49:48Z</time>
      </trkpt>
      <trkpt lat="49.68518" lon="-1.91769">
        <ele>121.898438</ele>
        <time>2016-09-07T09:49:51Z</time>
      </trkpt>
      <trkpt lat="49.68527" lon="-1.9177">
        <ele>122.398438</ele>
        <time>2016-09-07T09:49:54Z</time>
      </trkpt>
      <trkpt lat="49.68566" lon="-1.9177">
        <ele>122.5</ele>
        <time>2016-09-07T09:50:11Z</time>
      </trkpt>
      <trkpt lat="49.68575" lon="-1.91776">
        <ele>121.597656</ele>
        <time>2016-09-07T09:50:39Z</time>
      </trkpt>
      <trkpt lat="49.68583" lon="-1.91782">
        <ele>121.296875</ele>
        <time>2016-09-07T09:50:46Z</time>
      </trkpt>
      <trkpt lat="49.68593" lon="-1.91791">
        <ele>120.699219</ele>
        <time>2016-09-07T09:50:51Z</time>
      </trkpt>
      <trkpt lat="49.68603" lon="-1.91802">
        <ele>119.796875</ele>
        <time>2016-09-07T09:50:55Z</time>
      </trkpt>
      <trkpt lat="49.6861" lon="-1.9181">
        <ele>118.796875</ele>
        <time>2016-09-07T09:50:58Z</time>
      </trkpt>
      <trkpt lat="49.68616" lon="-1.9182">
        <ele>117.398438</ele>
        <time>2016-09-07T09:51:01Z</time>
      </trkpt>
      <trkpt lat="49.68625" lon="-1.91835">
        <ele>116.296875</ele>
        <time>2016-09-07T09:51:04Z</time>
      </trkpt>
      <trkpt lat="49.6863" lon="-1.91847">
        <ele>115.097656</ele>
        <time>2016-09-07T09:51:06Z</time>
      </trkpt>
      <trkpt lat="49.68642" lon="-1.91875">
        <ele>112.296875</ele>
        <time>2016-09-07T09:51:10Z</time>
      </trkpt>
      <trkpt lat="49.68649" lon="-1.91887">
        <ele>110.296875</ele>
        <time>2016-09-07T09:51:12Z</time>
      </trkpt>
      <trkpt lat="49.6866" lon="-1.91895">
        <ele>108.398438</ele>
        <time>2016-09-07T09:51:15Z</time>
      </trkpt>
      <trkpt lat="49.68673" lon="-1.91899">
        <ele>106.699219</ele>
        <time>2016-09-07T09:51:18Z</time>
      </trkpt>
      <trkpt lat="49.68685" lon="-1.91905">
        <ele>105.597656</ele>
        <time>2016-09-07T09:51:21Z</time>
      </trkpt>
      <trkpt lat="49.68695" lon="-1.9191">
        <ele>104.398438</ele>
        <time>2016-09-07T09:51:23Z</time>
      </trkpt>
      <trkpt lat="49.68708" lon="-1.91913">
        <ele>103.5</ele>
        <time>2016-09-07T09:51:25Z</time>
      </trkpt>
      <trkpt lat="49.68723" lon="-1.91913">
        <ele>102.898438</ele>
        <time>2016-09-07T09:51:27Z</time>
      </trkpt>
      <trkpt lat="49.68738" lon="-1.91911">
        <ele>102.5</ele>
        <time>2016-09-07T09:51:29Z</time>
      </trkpt>
      <trkpt lat="49.68753" lon="-1.91905">
        <ele>102.699219</ele>
        <time>2016-09-07T09:51:31Z</time>
      </trkpt>
      <trkpt lat="49.68766" lon="-1.91897">
        <ele>103</ele>
        <time>2016-09-07T09:51:33Z</time>
      </trkpt>
      <trkpt lat="49.68777" lon="-1.91889">
        <ele>104</ele>
        <time>2016-09-07T09:51:35Z</time>
      </trkpt>
      <trkpt lat="49.68787" lon="-1.91886">
        <ele>104.699219</ele>
        <time>2016-09-07T09:51:37Z</time>
      </trkpt>
      <trkpt lat="49.68968" lon="-1.92067">
        <ele>97.5</ele>
        <time>2016-09-07T09:52:31Z</time>
      </trkpt>
      <trkpt lat="49.68988" lon="-1.92082">
        <ele>95.398438</ele>
        <time>2016-09-07T09:52:37Z</time>
      </trkpt>
      <trkpt lat="49.6901" lon="-1.92101">
        <ele>94.097656</ele>
        <time>2016-09-07T09:52:43Z</time>
      </trkpt>
      <trkpt lat="49.6902" lon="-1.92112">
        <ele>93.796875</ele>
        <time>2016-09-07T09:52:46Z</time>
      </trkpt>
      <trkpt lat="49.69029" lon="-1.92125">
        <ele>93.699219</ele>
        <time>2016-09-07T09:52:49Z</time>
      </trkpt>
      <trkpt lat="49.69038" lon="-1.9214">
        <ele>93.796875</ele>
        <time>2016-09-07T09:52:52Z</time>
      </trkpt>
      <trkpt lat="49.69045" lon="-1.92155">
        <ele>94</ele>
        <time>2016-09-07T09:52:55Z</time>
      </trkpt>
      <trkpt lat="49.69051" lon="-1.9217">
        <ele>94.296875</ele>
        <time>2016-09-07T09:52:58Z</time>
      </trkpt>
      <trkpt lat="49.6907" lon="-1.92228">
        <ele>97.597656</ele>
        <time>2016-09-07T09:53:10Z</time>
      </trkpt>
      <trkpt lat="49.69076" lon="-1.92241">
        <ele>98.398438</ele>
        <time>2016-09-07T09:53:13Z</time>
      </trkpt>
      <trkpt lat="49.69083" lon="-1.92252">
        <ele>98.898438</ele>
        <time>2016-09-07T09:53:16Z</time>
      </trkpt>
      <trkpt lat="49.69091" lon="-1.9226">
        <ele>99.199219</ele>
        <time>2016-09-07T09:53:19Z</time>
      </trkpt>
      <trkpt lat="49.69097" lon="-1.92271">
        <ele>99.199219</ele>
        <time>2016-09-07T09:53:22Z</time>
      </trkpt>
      <trkpt lat="49.69099" lon="-1.92285">
        <ele>99.597656</ele>
        <time>2016-09-07T09:53:25Z</time>
      </trkpt>
      <trkpt lat="49.69105" lon="-1.92334">
        <ele>99.796875</ele>
        <time>2016-09-07T09:53:34Z</time>
      </trkpt>
      <trkpt lat="49.69109" lon="-1.92368">
        <ele>100.296875</ele>
        <time>2016-09-07T09:53:40Z</time>
      </trkpt>
      <trkpt lat="49.69112" lon="-1.92385">
        <ele>101.398438</ele>
        <time>2016-09-07T09:53:43Z</time>
      </trkpt>
      <trkpt lat="49.69117" lon="-1.92397">
        <ele>103.5</ele>
        <time>2016-09-07T09:53:46Z</time>
      </trkpt>
      <trkpt lat="49.69122" lon="-1.92411">
        <ele>106.199219</ele>
        <time>2016-09-07T09:53:50Z</time>
      </trkpt>
      <trkpt lat="49.69132" lon="-1.92418">
        <ele>109</ele>
        <time>2016-09-07T09:53:55Z</time>
      </trkpt>
      <trkpt lat="49.69142" lon="-1.92416">
        <ele>111.5</ele>
        <time>2016-09-07T09:54:00Z</time>
      </trkpt>
      <trkpt lat="49.69153" lon="-1.92413">
        <ele>113.699219</ele>
        <time>2016-09-07T09:54:05Z</time>
      </trkpt>
      <trkpt lat="49.69163" lon="-1.92409">
        <ele>115.398438</ele>
        <time>2016-09-07T09:54:10Z</time>
      </trkpt>
      <trkpt lat="49.69235" lon="-1.92386">
        <ele>122.097656</ele>
        <time>2016-09-07T09:54:39Z</time>
      </trkpt>
      <trkpt lat="49.69244" lon="-1.92386">
        <ele>122.898438</ele>
        <time>2016-09-07T09:54:43Z</time>
      </trkpt>
      <trkpt lat="49.69264" lon="-1.92387">
        <ele>124.097656</ele>
        <time>2016-09-07T09:54:51Z</time>
      </trkpt>
      <trkpt lat="49.69271" lon="-1.92396">
        <ele>124.097656</ele>
        <time>2016-09-07T09:54:58Z</time>
      </trkpt>
      <trkpt lat="49.6927" lon="-1.92411">
        <ele>124.5</ele>
        <time>2016-09-07T09:55:07Z</time>
      </trkpt>
      <trkpt lat="49.69269" lon="-1.92426">
        <ele>125</ele>
        <time>2016-09-07T09:55:16Z</time>
      </trkpt>
      <trkpt lat="49.69268" lon="-1.92441">
        <ele>125.199219</ele>
        <time>2016-09-07T09:55:24Z</time>
      </trkpt>
      <trkpt lat="49.69267" lon="-1.92472">
        <ele>124.699219</ele>
        <time>2016-09-07T09:56:22Z</time>
      </trkpt>
      <trkpt lat="49.69267" lon="-1.92504">
        <ele>124.398438</ele>
        <time>2016-09-07T09:56:31Z</time>
      </trkpt>
      <trkpt lat="49.69261" lon="-1.92694">
        <ele>119.296875</ele>
        <time>2016-09-07T09:57:09Z</time>
      </trkpt>
      <trkpt lat="49.69261" lon="-1.92708">
        <ele>118.097656</ele>
        <time>2016-09-07T09:57:12Z</time>
      </trkpt>
      <trkpt lat="49.69265" lon="-1.92758">
        <ele>113.699219</ele>
        <time>2016-09-07T09:57:23Z</time>
      </trkpt>
      <trkpt lat="49.69267" lon="-1.92774">
        <ele>112.5</ele>
        <time>2016-09-07T09:57:27Z</time>
      </trkpt>
      <trkpt lat="49.69267" lon="-1.92789">
        <ele>110.5</ele>
        <time>2016-09-07T09:57:31Z</time>
      </trkpt>
      <trkpt lat="49.69267" lon="-1.92804">
        <ele>107.296875</ele>
        <time>2016-09-07T09:57:36Z</time>
      </trkpt>
      <trkpt lat="49.69265" lon="-1.9282">
        <ele>105.898438</ele>
        <time>2016-09-07T09:57:42Z</time>
      </trkpt>
      <trkpt lat="49.69245" lon="-1.92958">
        <ele>100.398438</ele>
        <time>2016-09-07T09:58:30Z</time>
      </trkpt>
      <trkpt lat="49.69241" lon="-1.92972">
        <ele>99</ele>
        <time>2016-09-07T09:58:36Z</time>
      </trkpt>
      <trkpt lat="49.69234" lon="-1.93001">
        <ele>97.097656</ele>
        <time>2016-09-07T09:58:47Z</time>
      </trkpt>
      <trkpt lat="49.69233" lon="-1.93016">
        <ele>97.097656</ele>
        <time>2016-09-07T09:58:51Z</time>
      </trkpt>
      <trkpt lat="49.69234" lon="-1.93033">
        <ele>98.296875</ele>
        <time>2016-09-07T09:58:55Z</time>
      </trkpt>
      <trkpt lat="49.69238" lon="-1.93048">
        <ele>99.699219</ele>
        <time>2016-09-07T09:58:59Z</time>
      </trkpt>
      <trkpt lat="49.69246" lon="-1.9306">
        <ele>100.898438</ele>
        <time>2016-09-07T09:59:04Z</time>
      </trkpt>
      <trkpt lat="49.69254" lon="-1.93073">
        <ele>101.699219</ele>
        <time>2016-09-07T09:59:09Z</time>
      </trkpt>
      <trkpt lat="49.69259" lon="-1.93087">
        <ele>102.5</ele>
        <time>2016-09-07T09:59:13Z</time>
      </trkpt>
      <trkpt lat="49.6927" lon="-1.93117">
        <ele>103.398438</ele>
        <time>2016-09-07T09:59:21Z</time>
      </trkpt>
      <trkpt lat="49.69285" lon="-1.93157">
        <ele>103.296875</ele>
        <time>2016-09-07T09:59:35Z</time>
      </trkpt>
      <trkpt lat="49.69288" lon="-1.93172">
        <ele>103</ele>
        <time>2016-09-07T09:59:41Z</time>
      </trkpt>
      <trkpt lat="49.69291" lon="-1.93187">
        <ele>103</ele>
        <time>2016-09-07T09:59:46Z</time>
      </trkpt>
      <trkpt lat="49.69298" lon="-1.93196">
        <ele>103.398438</ele>
        <time>2016-09-07T09:59:53Z</time>
      </trkpt>
      <trkpt lat="49.69308" lon="-1.93198">
        <ele>104</ele>
        <time>2016-09-07T09:59:58Z</time>
      </trkpt>
      <trkpt lat="49.69326" lon="-1.93202">
        <ele>105.699219</ele>
        <time>2016-09-07T10:00:06Z</time>
      </trkpt>
      <trkpt lat="49.69336" lon="-1.93208">
        <ele>107</ele>
        <time>2016-09-07T10:00:11Z</time>
      </trkpt>
      <trkpt lat="49.69344" lon="-1.93216">
        <ele>108.5</ele>
        <time>2016-09-07T10:00:16Z</time>
      </trkpt>
      <trkpt lat="49.69352" lon="-1.93225">
        <ele>110.199219</ele>
        <time>2016-09-07T10:00:21Z</time>
      </trkpt>
      <trkpt lat="49.6937" lon="-1.93244">
        <ele>112.78125</ele>
        <time>2016-09-07T10:00:30Z</time>
      </trkpt>
      <trkpt lat="49.69376" lon="-1.93253">
        <ele>118.097656</ele>
        <time>2016-09-07T10:01:16Z</time>
      </trkpt>
      <trkpt lat="49.69386" lon="-1.93257">
        <ele>117.296875</ele>
        <time>2016-09-07T10:05:49Z</time>
      </trkpt>
      <trkpt lat="49.69622" lon="-1.93446">
        <ele>96.5</ele>
        <time>2016-09-07T10:06:52Z</time>
      </trkpt>
      <trkpt lat="49.69624" lon="-1.93449">
        <ele>97.097656</ele>
        <time>2016-09-07T10:06:53Z</time>
      </trkpt>
      <trkpt lat="49.69623" lon="-1.93465">
        <ele>105.199219</ele>
        <time>2016-09-07T10:07:39Z</time>
      </trkpt>
      <trkpt lat="49.69632" lon="-1.93475">
        <ele>105.199219</ele>
        <time>2016-09-07T10:07:43Z</time>
      </trkpt>
      <trkpt lat="49.69642" lon="-1.93481">
        <ele>104.796875</ele>
        <time>2016-09-07T10:07:46Z</time>
      </trkpt>
      <trkpt lat="49.69654" lon="-1.93487">
        <ele>104.699219</ele>
        <time>2016-09-07T10:07:49Z</time>
      </trkpt>
      <trkpt lat="49.69664" lon="-1.93489">
        <ele>104.398438</ele>
        <time>2016-09-07T10:07:51Z</time>
      </trkpt>
      <trkpt lat="49.6971" lon="-1.93495">
        <ele>101.199219</ele>
        <time>2016-09-07T10:07:59Z</time>
      </trkpt>
      <trkpt lat="49.69725" lon="-1.935">
        <ele>99.699219</ele>
        <time>2016-09-07T10:08:01Z</time>
      </trkpt>
      <trkpt lat="49.69739" lon="-1.93508">
        <ele>98.296875</ele>
        <time>2016-09-07T10:08:03Z</time>
      </trkpt>
      <trkpt lat="49.69751" lon="-1.93521">
        <ele>96.699219</ele>
        <time>2016-09-07T10:08:05Z</time>
      </trkpt>
      <trkpt lat="49.6976" lon="-1.93538">
        <ele>95.398438</ele>
        <time>2016-09-07T10:08:07Z</time>
      </trkpt>
      <trkpt lat="49.69766" lon="-1.93558">
        <ele>94.296875</ele>
        <time>2016-09-07T10:08:09Z</time>
      </trkpt>
      <trkpt lat="49.69771" lon="-1.93581">
        <ele>93.5</ele>
        <time>2016-09-07T10:08:11Z</time>
      </trkpt>
      <trkpt lat="49.69781" lon="-1.93651">
        <ele>90.699219</ele>
        <time>2016-09-07T10:08:17Z</time>
      </trkpt>
      <trkpt lat="49.69788" lon="-1.93685">
        <ele>88.398438</ele>
        <time>2016-09-07T10:08:21Z</time>
      </trkpt>
      <trkpt lat="49.69795" lon="-1.93732">
        <ele>85.398438</ele>
        <time>2016-09-07T10:08:27Z</time>
      </trkpt>
      <trkpt lat="49.698" lon="-1.93748">
        <ele>84.5</ele>
        <time>2016-09-07T10:08:30Z</time>
      </trkpt>
      <trkpt lat="49.69802" lon="-1.93764">
        <ele>83.699219</ele>
        <time>2016-09-07T10:08:33Z</time>
      </trkpt>
      <trkpt lat="49.69806" lon="-1.93777">
        <ele>82.699219</ele>
        <time>2016-09-07T10:08:36Z</time>
      </trkpt>
      <trkpt lat="49.6981" lon="-1.93795">
        <ele>82</ele>
        <time>2016-09-07T10:08:39Z</time>
      </trkpt>
      <trkpt lat="49.69817" lon="-1.93839">
        <ele>81.296875</ele>
        <time>2016-09-07T10:08:45Z</time>
      </trkpt>
      <trkpt lat="49.69822" lon="-1.93857">
        <ele>81.5</ele>
        <time>2016-09-07T10:08:48Z</time>
      </trkpt>
      <trkpt lat="49.69827" lon="-1.9387">
        <ele>86.199219</ele>
        <time>2016-09-07T10:08:51Z</time>
      </trkpt>
      <trkpt lat="49.69835" lon="-1.9388">
        <ele>86.597656</ele>
        <time>2016-09-07T10:14:19Z</time>
      </trkpt>
      <trkpt lat="49.69841" lon="-1.93893">
        <ele>87.296875</ele>
        <time>2016-09-07T10:14:24Z</time>
      </trkpt>
      <trkpt lat="49.69849" lon="-1.93903">
        <ele>87.699219</ele>
        <time>2016-09-07T10:14:28Z</time>
      </trkpt>
      <trkpt lat="49.69859" lon="-1.93909">
        <ele>87.597656</ele>
        <time>2016-09-07T10:14:32Z</time>
      </trkpt>
      <trkpt lat="49.69869" lon="-1.93911">
        <ele>87.296875</ele>
        <time>2016-09-07T10:14:35Z</time>
      </trkpt>
      <trkpt lat="49.69881" lon="-1.9391">
        <ele>87.199219</ele>
        <time>2016-09-07T10:14:38Z</time>
      </trkpt>
      <trkpt lat="49.69894" lon="-1.93905">
        <ele>87.296875</ele>
        <time>2016-09-07T10:14:41Z</time>
      </trkpt>
      <trkpt lat="49.69926" lon="-1.93892">
        <ele>89.898438</ele>
        <time>2016-09-07T10:14:51Z</time>
      </trkpt>
      <trkpt lat="49.69937" lon="-1.93888">
        <ele>90.199219</ele>
        <time>2016-09-07T10:14:55Z</time>
      </trkpt>
      <trkpt lat="49.69946" lon="-1.9389">
        <ele>90.296875</ele>
        <time>2016-09-07T10:14:58Z</time>
      </trkpt>
      <trkpt lat="49.69956" lon="-1.93895">
        <ele>89.898438</ele>
        <time>2016-09-07T10:15:01Z</time>
      </trkpt>
      <trkpt lat="49.69999" lon="-1.9392">
        <ele>86.097656</ele>
        <time>2016-09-07T10:15:10Z</time>
      </trkpt>
      <trkpt lat="49.70011" lon="-1.93932">
        <ele>85</ele>
        <time>2016-09-07T10:15:12Z</time>
      </trkpt>
      <trkpt lat="49.70023" lon="-1.93946">
        <ele>83.699219</ele>
        <time>2016-09-07T10:15:14Z</time>
      </trkpt>
      <trkpt lat="49.70037" lon="-1.93958">
        <ele>82.5</ele>
        <time>2016-09-07T10:15:16Z</time>
      </trkpt>
      <trkpt lat="49.70054" lon="-1.93966">
        <ele>82.199219</ele>
        <time>2016-09-07T10:15:18Z</time>
      </trkpt>
      <trkpt lat="49.70152" lon="-1.94006">
        <ele>83.699219</ele>
        <time>2016-09-07T10:15:33Z</time>
      </trkpt>
      <trkpt lat="49.70165" lon="-1.94008">
        <ele>83.5</ele>
        <time>2016-09-07T10:15:36Z</time>
      </trkpt>
      <trkpt lat="49.70177" lon="-1.94003">
        <ele>83</ele>
        <time>2016-09-07T10:15:39Z</time>
      </trkpt>
      <trkpt lat="49.70185" lon="-1.93995">
        <ele>82.097656</ele>
        <time>2016-09-07T10:15:41Z</time>
      </trkpt>
      <trkpt lat="49.70195" lon="-1.93991">
        <ele>81.199219</ele>
        <time>2016-09-07T10:15:43Z</time>
      </trkpt>
      <trkpt lat="49.70207" lon="-1.93994">
        <ele>80.398438</ele>
        <time>2016-09-07T10:15:45Z</time>
      </trkpt>
      <trkpt lat="49.7022" lon="-1.94001">
        <ele>79.796875</ele>
        <time>2016-09-07T10:15:47Z</time>
      </trkpt>
      <trkpt lat="49.70322" lon="-1.94056">
        <ele>77.898438</ele>
        <time>2016-09-07T10:16:03Z</time>
      </trkpt>
      <trkpt lat="49.70334" lon="-1.94059">
        <ele>77.699219</ele>
        <time>2016-09-07T10:16:05Z</time>
      </trkpt>
      <trkpt lat="49.70357" lon="-1.94063">
        <ele>77.199219</ele>
        <time>2016-09-07T10:16:09Z</time>
      </trkpt>
      <trkpt lat="49.70368" lon="-1.94064">
        <ele>76.898438</ele>
        <time>2016-09-07T10:16:11Z</time>
      </trkpt>
      <trkpt lat="49.7038" lon="-1.94063">
        <ele>76.5</ele>
        <time>2016-09-07T10:16:13Z</time>
      </trkpt>
      <trkpt lat="49.70391" lon="-1.94059">
        <ele>76</ele>
        <time>2016-09-07T10:16:15Z</time>
      </trkpt>
      <trkpt lat="49.70425" lon="-1.9404">
        <ele>74.898438</ele>
        <time>2016-09-07T10:16:21Z</time>
      </trkpt>
      <trkpt lat="49.70492" lon="-1.94004">
        <ele>71.296875</ele>
        <time>2016-09-07T10:16:33Z</time>
      </trkpt>
      <trkpt lat="49.70504" lon="-1.93996">
        <ele>70.5</ele>
        <time>2016-09-07T10:16:35Z</time>
      </trkpt>
      <trkpt lat="49.70516" lon="-1.9399">
        <ele>69.898438</ele>
        <time>2016-09-07T10:16:37Z</time>
      </trkpt>
      <trkpt lat="49.7053" lon="-1.93988">
        <ele>69.296875</ele>
        <time>2016-09-07T10:16:39Z</time>
      </trkpt>
      <trkpt lat="49.70553" lon="-1.93987">
        <ele>67.296875</ele>
        <time>2016-09-07T10:16:43Z</time>
      </trkpt>
      <trkpt lat="49.70566" lon="-1.93991">
        <ele>66.097656</ele>
        <time>2016-09-07T10:16:45Z</time>
      </trkpt>
      <trkpt lat="49.70578" lon="-1.93996">
        <ele>65.699219</ele>
        <time>2016-09-07T10:16:47Z</time>
      </trkpt>
      <trkpt lat="49.70587" lon="-1.93989">
        <ele>65.097656</ele>
        <time>2016-09-07T10:16:49Z</time>
      </trkpt>
      <trkpt lat="49.70591" lon="-1.93975">
        <ele>63.699219</ele>
        <time>2016-09-07T10:16:51Z</time>
      </trkpt>
      <trkpt lat="49.70596" lon="-1.93958">
        <ele>61.296875</ele>
        <time>2016-09-07T10:16:53Z</time>
      </trkpt>
      <trkpt lat="49.70604" lon="-1.93941">
        <ele>58.5</ele>
        <time>2016-09-07T10:16:55Z</time>
      </trkpt>
      <trkpt lat="49.70616" lon="-1.93928">
        <ele>55.898438</ele>
        <time>2016-09-07T10:16:57Z</time>
      </trkpt>
      <trkpt lat="49.70628" lon="-1.9392">
        <ele>54</ele>
        <time>2016-09-07T10:16:59Z</time>
      </trkpt>
      <trkpt lat="49.70638" lon="-1.93915">
        <ele>52.296875</ele>
        <time>2016-09-07T10:17:01Z</time>
      </trkpt>
      <trkpt lat="49.70647" lon="-1.93907">
        <ele>49.921875</ele>
        <time>2016-09-07T10:17:04Z</time>
      </trkpt>
      <trkpt lat="49.70655" lon="-1.9391">
        <ele>48.597656</ele>
        <time>2016-09-07T10:17:15Z</time>
      </trkpt>
      <trkpt lat="49.7066" lon="-1.93925">
        <ele>47.097656</ele>
        <time>2016-09-07T10:17:19Z</time>
      </trkpt>
      <trkpt lat="49.70669" lon="-1.93941">
        <ele>45.597656</ele>
        <time>2016-09-07T10:17:22Z</time>
      </trkpt>
      <trkpt lat="49.70697" lon="-1.93988">
        <ele>40.796875</ele>
        <time>2016-09-07T10:17:28Z</time>
      </trkpt>
      <trkpt lat="49.70707" lon="-1.9401">
        <ele>40</ele>
        <time>2016-09-07T10:17:30Z</time>
      </trkpt>
      <trkpt lat="49.70711" lon="-1.94034">
        <ele>39.199219</ele>
        <time>2016-09-07T10:17:32Z</time>
      </trkpt>
      <trkpt lat="49.7071" lon="-1.94059">
        <ele>38.699219</ele>
        <time>2016-09-07T10:17:34Z</time>
      </trkpt>
      <trkpt lat="49.70708" lon="-1.94084">
        <ele>37.796875</ele>
        <time>2016-09-07T10:17:36Z</time>
      </trkpt>
      <trkpt lat="49.70705" lon="-1.94112">
        <ele>37.398438</ele>
        <time>2016-09-07T10:17:38Z</time>
      </trkpt>
      <trkpt lat="49.70704" lon="-1.94127">
        <ele>37</ele>
        <time>2016-09-07T10:17:39Z</time>
      </trkpt>
      <trkpt lat="49.70705" lon="-1.94141">
        <ele>36.699219</ele>
        <time>2016-09-07T10:17:40Z</time>
      </trkpt>
      <trkpt lat="49.70713" lon="-1.94162">
        <ele>36.796875</ele>
        <time>2016-09-07T10:17:42Z</time>
      </trkpt>
      <trkpt lat="49.70726" lon="-1.94175">
        <ele>36.898438</ele>
        <time>2016-09-07T10:17:44Z</time>
      </trkpt>
      <trkpt lat="49.7076" lon="-1.94211">
        <ele>35.699219</ele>
        <time>2016-09-07T10:17:50Z</time>
      </trkpt>
      <trkpt lat="49.70771" lon="-1.94228">
        <ele>34.898438</ele>
        <time>2016-09-07T10:17:52Z</time>
      </trkpt>
      <trkpt lat="49.70818" lon="-1.94303">
        <ele>30.796875</ele>
        <time>2016-09-07T10:18:00Z</time>
      </trkpt>
      <trkpt lat="49.70824" lon="-1.94315">
        <ele>30</ele>
        <time>2016-09-07T10:18:01Z</time>
      </trkpt>
      <trkpt lat="49.70839" lon="-1.94353">
        <ele>27.398438</ele>
        <time>2016-09-07T10:18:04Z</time>
      </trkpt>
      <trkpt lat="49.70851" lon="-1.94371">
        <ele>26.597656</ele>
        <time>2016-09-07T10:18:06Z</time>
      </trkpt>
      <trkpt lat="49.70864" lon="-1.94386">
        <ele>26.597656</ele>
        <time>2016-09-07T10:18:08Z</time>
      </trkpt>
      <trkpt lat="49.70877" lon="-1.94397">
        <ele>26.898438</ele>
        <time>2016-09-07T10:18:10Z</time>
      </trkpt>
      <trkpt lat="49.70889" lon="-1.94407">
        <ele>27.199219</ele>
        <time>2016-09-07T10:18:12Z</time>
      </trkpt>
      <trkpt lat="49.709" lon="-1.94409">
        <ele>27.097656</ele>
        <time>2016-09-07T10:18:14Z</time>
      </trkpt>
      <trkpt lat="49.70909" lon="-1.94406">
        <ele>26.398438</ele>
        <time>2016-09-07T10:18:16Z</time>
      </trkpt>
      <trkpt lat="49.70919" lon="-1.94397">
        <ele>26</ele>
        <time>2016-09-07T10:18:19Z</time>
      </trkpt>
      <trkpt lat="49.70925" lon="-1.94382">
        <ele>27.199219</ele>
        <time>2016-09-07T10:18:22Z</time>
      </trkpt>
      <trkpt lat="49.70921" lon="-1.94369">
        <ele>28.398438</ele>
        <time>2016-09-07T10:18:26Z</time>
      </trkpt>
      <trkpt lat="49.70914" lon="-1.94339">
        <ele>29.898438</ele>
        <time>2016-09-07T10:18:34Z</time>
      </trkpt>
      <trkpt lat="49.70915" lon="-1.94324">
        <ele>29.699219</ele>
        <time>2016-09-07T10:18:39Z</time>
      </trkpt>
      <trkpt lat="49.70924" lon="-1.94313">
        <ele>29.5</ele>
        <time>2016-09-07T10:18:43Z</time>
      </trkpt>
      <trkpt lat="49.70933" lon="-1.94302">
        <ele>29.097656</ele>
        <time>2016-09-07T10:18:46Z</time>
      </trkpt>
      <trkpt lat="49.70967" lon="-1.94258">
        <ele>27.296875</ele>
        <time>2016-09-07T10:18:56Z</time>
      </trkpt>
      <trkpt lat="49.70999" lon="-1.94228">
        <ele>26.796875</ele>
        <time>2016-09-07T10:19:04Z</time>
      </trkpt>
      <trkpt lat="49.71008" lon="-1.94212">
        <ele>27</ele>
        <time>2016-09-07T10:19:07Z</time>
      </trkpt>
      <trkpt lat="49.71012" lon="-1.94197">
        <ele>27.398438</ele>
        <time>2016-09-07T10:19:10Z</time>
      </trkpt>
      <trkpt lat="49.71016" lon="-1.94182">
        <ele>27.796875</ele>
        <time>2016-09-07T10:19:13Z</time>
      </trkpt>
      <trkpt lat="49.71021" lon="-1.9417">
        <ele>28.199219</ele>
        <time>2016-09-07T10:19:16Z</time>
      </trkpt>
      <trkpt lat="49.71028" lon="-1.94159">
        <ele>28.699219</ele>
        <time>2016-09-07T10:19:19Z</time>
      </trkpt>
      <trkpt lat="49.71042" lon="-1.94139">
        <ele>29.5</ele>
        <time>2016-09-07T10:19:25Z</time>
      </trkpt>
      <trkpt lat="49.7112" lon="-1.94027">
        <ele>36.898438</ele>
        <time>2016-09-07T10:19:58Z</time>
      </trkpt>
      <trkpt lat="49.71127" lon="-1.94019">
        <ele>37.796875</ele>
        <time>2016-09-07T10:20:01Z</time>
      </trkpt>
      <trkpt lat="49.71137" lon="-1.94009">
        <ele>38.199219</ele>
        <time>2016-09-07T10:20:05Z</time>
      </trkpt>
      <trkpt lat="49.71146" lon="-1.94005">
        <ele>37</ele>
        <time>2016-09-07T10:20:10Z</time>
      </trkpt>
      <trkpt lat="49.71156" lon="-1.93999">
        <ele>36.5</ele>
        <time>2016-09-07T10:20:22Z</time>
      </trkpt>
      <trkpt lat="49.71166" lon="-1.93992">
        <ele>35.699219</ele>
        <time>2016-09-07T10:20:25Z</time>
      </trkpt>
      <trkpt lat="49.71176" lon="-1.93984">
        <ele>35</ele>
        <time>2016-09-07T10:20:28Z</time>
      </trkpt>
      <trkpt lat="49.71186" lon="-1.93977">
        <ele>34.296875</ele>
        <time>2016-09-07T10:21:03Z</time>
      </trkpt>
      <trkpt lat="49.71197" lon="-1.93968">
        <ele>33.097656</ele>
        <time>2016-09-07T10:21:07Z</time>
      </trkpt>
      <trkpt lat="49.71209" lon="-1.93961">
        <ele>31.699219</ele>
        <time>2016-09-07T10:21:10Z</time>
      </trkpt>
      <trkpt lat="49.71243" lon="-1.93939">
        <ele>28.699219</ele>
        <time>2016-09-07T10:21:19Z</time>
      </trkpt>
      <trkpt lat="49.71256" lon="-1.93941">
        <ele>28.097656</ele>
        <time>2016-09-07T10:21:22Z</time>
      </trkpt>
      <trkpt lat="49.71265" lon="-1.93944">
        <ele>27.097656</ele>
        <time>2016-09-07T10:21:24Z</time>
      </trkpt>
      <trkpt lat="49.71273" lon="-1.93957">
        <ele>26.097656</ele>
        <time>2016-09-07T10:21:27Z</time>
      </trkpt>
      <trkpt lat="49.71273" lon="-1.93973">
        <ele>24.796875</ele>
        <time>2016-09-07T10:21:29Z</time>
      </trkpt>
      <trkpt lat="49.71273" lon="-1.93993">
        <ele>23.5</ele>
        <time>2016-09-07T10:21:31Z</time>
      </trkpt>
      <trkpt lat="49.71277" lon="-1.94011">
        <ele>22.296875</ele>
        <time>2016-09-07T10:21:33Z</time>
      </trkpt>
      <trkpt lat="49.71284" lon="-1.94031">
        <ele>21</ele>
        <time>2016-09-07T10:21:35Z</time>
      </trkpt>
      <trkpt lat="49.71288" lon="-1.94055">
        <ele>19.597656</ele>
        <time>2016-09-07T10:21:37Z</time>
      </trkpt>
      <trkpt lat="49.71299" lon="-1.94105">
        <ele>17.097656</ele>
        <time>2016-09-07T10:21:41Z</time>
      </trkpt>
      <trkpt lat="49.7132" lon="-1.94186">
        <ele>13.898438</ele>
        <time>2016-09-07T10:21:49Z</time>
      </trkpt>
      <trkpt lat="49.71323" lon="-1.94206">
        <ele>13.5</ele>
        <time>2016-09-07T10:21:52Z</time>
      </trkpt>
      <trkpt lat="49.71335" lon="-1.9427">
        <ele>11.898438</ele>
        <time>2016-09-07T10:22:00Z</time>
      </trkpt>
      <trkpt lat="49.71336" lon="-1.94289">
        <ele>11.5</ele>
        <time>2016-09-07T10:22:02Z</time>
      </trkpt>
      <trkpt lat="49.71336" lon="-1.94307">
        <ele>11.296875</ele>
        <time>2016-09-07T10:22:04Z</time>
      </trkpt>
      <trkpt lat="49.71338" lon="-1.94322">
        <ele>11.296875</ele>
        <time>2016-09-07T10:22:06Z</time>
      </trkpt>
      <trkpt lat="49.71347" lon="-1.94328">
        <ele>11.296875</ele>
        <time>2016-09-07T10:22:08Z</time>
      </trkpt>
      <trkpt lat="49.71356" lon="-1.94329">
        <ele>11.296875</ele>
        <time>2016-09-07T10:22:10Z</time>
      </trkpt>
      <trkpt lat="49.71365" lon="-1.94328">
        <ele>11.5</ele>
        <time>2016-09-07T10:22:12Z</time>
      </trkpt>
      <trkpt lat="49.71442" lon="-1.94322">
        <ele>11.199219</ele>
        <time>2016-09-07T10:22:30Z</time>
      </trkpt>
      <trkpt lat="49.71454" lon="-1.94323">
        <ele>11</ele>
        <time>2016-09-07T10:22:33Z</time>
      </trkpt>
      <trkpt lat="49.71466" lon="-1.94328">
        <ele>10.898438</ele>
        <time>2016-09-07T10:22:36Z</time>
      </trkpt>
      <trkpt lat="49.71477" lon="-1.94333">
        <ele>10.796875</ele>
        <time>2016-09-07T10:22:39Z</time>
      </trkpt>
      <trkpt lat="49.71488" lon="-1.94342">
        <ele>10.5</ele>
        <time>2016-09-07T10:22:42Z</time>
      </trkpt>
      <trkpt lat="49.71498" lon="-1.94353">
        <ele>10.296875</ele>
        <time>2016-09-07T10:22:45Z</time>
      </trkpt>
      <trkpt lat="49.71509" lon="-1.94366">
        <ele>10.199219</ele>
        <time>2016-09-07T10:22:48Z</time>
      </trkpt>
      <trkpt lat="49.71515" lon="-1.94377">
        <ele>10.199219</ele>
        <time>2016-09-07T10:22:50Z</time>
      </trkpt>
      <trkpt lat="49.71534" lon="-1.94412">
        <ele>10.199219</ele>
        <time>2016-09-07T10:22:56Z</time>
      </trkpt>
      <trkpt lat="49.71556" lon="-1.94466">
        <ele>9.796875</ele>
        <time>2016-09-07T10:23:05Z</time>
      </trkpt>
      <trkpt lat="49.71564" lon="-1.94479">
        <ele>9.796875</ele>
        <time>2016-09-07T10:23:08Z</time>
      </trkpt>
      <trkpt lat="49.71566" lon="-1.94493">
        <ele>9.699219</ele>
        <time>2016-09-07T10:23:11Z</time>
      </trkpt>
      <trkpt lat="49.71561" lon="-1.94509">
        <ele>9.5</ele>
        <time>2016-09-07T10:23:15Z</time>
      </trkpt>
      <trkpt lat="49.71561" lon="-1.94523">
        <ele>9.296875</ele>
        <time>2016-09-07T10:23:19Z</time>
      </trkpt>
      <trkpt lat="49.71566" lon="-1.94537">
        <ele>9.5</ele>
        <time>2016-09-07T10:23:24Z</time>
      </trkpt>
      <trkpt lat="49.71559" lon="-1.94526">
        <ele>9.699219</ele>
        <time>2016-09-07T10:23:36Z</time>
      </trkpt>
      <trkpt lat="49.71554" lon="-1.94514">
        <ele>10.097656</ele>
        <time>2016-09-07T10:23:40Z</time>
      </trkpt>
      <trkpt lat="49.71554" lon="-1.94499">
        <ele>11</ele>
        <time>2016-09-07T10:23:45Z</time>
      </trkpt>
      <trkpt lat="49.71555" lon="-1.94517">
        <ele>10.796875</ele>
        <time>2016-09-07T10:24:17Z</time>
      </trkpt>
      <trkpt lat="49.71561" lon="-1.94528">
        <ele>10.5</ele>
        <time>2016-09-07T10:24:20Z</time>
      </trkpt>
      <trkpt lat="49.71571" lon="-1.9453">
        <ele>9.898438</ele>
        <time>2016-09-07T10:24:25Z</time>
      </trkpt>
      <trkpt lat="49.71573" lon="-1.94544">
        <ele>9.398438</ele>
        <time>2016-09-07T10:24:29Z</time>
      </trkpt>
      <trkpt lat="49.71581" lon="-1.94552">
        <ele>9.398438</ele>
        <time>2016-09-07T10:24:37Z</time>
      </trkpt>
      <trkpt lat="49.71581" lon="-1.9457">
        <ele>9.796875</ele>
        <time>2016-09-07T10:24:41Z</time>
      </trkpt>
      <trkpt lat="49.71578" lon="-1.94586">
        <ele>10.296875</ele>
        <time>2016-09-07T10:24:44Z</time>
      </trkpt>
      <trkpt lat="49.71575" lon="-1.94601">
        <ele>10.398438</ele>
        <time>2016-09-07T10:24:47Z</time>
      </trkpt>
      <trkpt lat="49.71579" lon="-1.94616">
        <ele>10.097656</ele>
        <time>2016-09-07T10:24:51Z</time>
      </trkpt>
      <trkpt lat="49.71588" lon="-1.94621">
        <ele>9.898438</ele>
        <time>2016-09-07T10:24:54Z</time>
      </trkpt>
      <trkpt lat="49.71598" lon="-1.94627">
        <ele>10</ele>
        <time>2016-09-07T10:24:57Z</time>
      </trkpt>
      <trkpt lat="49.71593" lon="-1.94639">
        <ele>10.199219</ele>
        <time>2016-09-07T10:25:02Z</time>
      </trkpt>
      <trkpt lat="49.71582" lon="-1.94637">
        <ele>10.097656</ele>
        <time>2016-09-07T10:25:06Z</time>
      </trkpt>
      <trkpt lat="49.71575" lon="-1.94627">
        <ele>9.898438</ele>
        <time>2016-09-07T10:25:10Z</time>
      </trkpt>
      <trkpt lat="49.71575" lon="-1.94611">
        <ele>9.5</ele>
        <time>2016-09-07T10:25:13Z</time>
      </trkpt>
      <trkpt lat="49.71578" lon="-1.94593">
        <ele>9.097656</ele>
        <time>2016-09-07T10:25:16Z</time>
      </trkpt>
      <trkpt lat="49.71583" lon="-1.94554">
        <ele>9.199219</ele>
        <time>2016-09-07T10:25:22Z</time>
      </trkpt>
      <trkpt lat="49.71584" lon="-1.94539">
        <ele>9.398438</ele>
        <time>2016-09-07T10:25:37Z</time>
      </trkpt>
      <trkpt lat="49.71584" lon="-1.94506">
        <ele>9.898438</ele>
        <time>2016-09-07T10:25:45Z</time>
      </trkpt>
      <trkpt lat="49.71579" lon="-1.94494">
        <ele>10.398438</ele>
        <time>2016-09-07T10:25:51Z</time>
      </trkpt>
      <trkpt lat="49.71571" lon="-1.94489">
        <ele>11</ele>
        <time>2016-09-07T10:25:59Z</time>
      </trkpt>
      <trkpt lat="49.71564" lon="-1.94479">
        <ele>11.398438</ele>
        <time>2016-09-07T10:26:05Z</time>
      </trkpt>
      <trkpt lat="49.71556" lon="-1.94468">
        <ele>11.597656</ele>
        <time>2016-09-07T10:26:11Z</time>
      </trkpt>
      <trkpt lat="49.71551" lon="-1.94456">
        <ele>11.699219</ele>
        <time>2016-09-07T10:26:16Z</time>
      </trkpt>
      <trkpt lat="49.71543" lon="-1.94445">
        <ele>12</ele>
        <time>2016-09-07T10:26:23Z</time>
      </trkpt>
      <trkpt lat="49.71538" lon="-1.94433">
        <ele>12.199219</ele>
        <time>2016-09-07T10:26:30Z</time>
      </trkpt>
      <trkpt lat="49.71533" lon="-1.94421">
        <ele>12.296875</ele>
        <time>2016-09-07T10:26:36Z</time>
      </trkpt>
      <trkpt lat="49.7146" lon="-1.9434">
        <ele>23.699219</ele>
        <time>2016-09-07T10:27:58Z</time>
      </trkpt>
      <trkpt lat="49.71465" lon="-1.94328">
        <ele>14.398438</ele>
        <time>2016-09-07T11:09:10Z</time>
      </trkpt>
      <trkpt lat="49.71529" lon="-1.94408">
        <ele>1.699219</ele>
        <time>2016-09-07T11:09:57Z</time>
      </trkpt>
      <trkpt lat="49.71563" lon="-1.94492">
        <ele>1.398438</ele>
        <time>2016-09-07T11:10:21Z</time>
      </trkpt>
      <trkpt lat="49.71559" lon="-1.94507">
        <ele>1.699219</ele>
        <time>2016-09-07T11:10:26Z</time>
      </trkpt>
      <trkpt lat="49.71559" lon="-1.94521">
        <ele>2</ele>
        <time>2016-09-07T11:10:31Z</time>
      </trkpt>
      <trkpt lat="49.7156" lon="-1.94537">
        <ele>1.597656</ele>
        <time>2016-09-07T11:10:40Z</time>
      </trkpt>
      <trkpt lat="49.71561" lon="-1.94552">
        <ele>2.097656</ele>
        <time>2016-09-07T11:10:44Z</time>
      </trkpt>
      <trkpt lat="49.71557" lon="-1.94536">
        <ele>2.199219</ele>
        <time>2016-09-07T11:11:04Z</time>
      </trkpt>
      <trkpt lat="49.71553" lon="-1.94522">
        <ele>2.296875</ele>
        <time>2016-09-07T11:11:08Z</time>
      </trkpt>
      <trkpt lat="49.71549" lon="-1.94497">
        <ele>9.90625</ele>
        <time>2016-09-07T11:15:26Z</time>
      </trkpt>
      <trkpt lat="49.71541" lon="-1.94565">
        <ele>-46.765625</ele>
        <time>2016-09-07T11:16:19Z</time>
      </trkpt>
      <trkpt lat="49.71541" lon="-1.94563">
        <ele>-44.796875</ele>
        <time>2016-09-07T11:16:20Z</time>
      </trkpt>
      <trkpt lat="49.71546" lon="-1.9452">
        <ele>1.972656</ele>
        <time>2016-09-07T11:17:02Z</time>
      </trkpt>
      <trkpt lat="49.71549" lon="-1.94507">
        <ele>5.5</ele>
        <time>2016-09-07T11:18:11Z</time>
      </trkpt>
      <trkpt lat="49.71546" lon="-1.94493">
        <ele>5.699219</ele>
        <time>2016-09-07T11:21:29Z</time>
      </trkpt>
      <trkpt lat="49.71549" lon="-1.94479">
        <ele>5.898438</ele>
        <time>2016-09-07T11:21:44Z</time>
      </trkpt>
      <trkpt lat="49.71547" lon="-1.94465">
        <ele>6</ele>
        <time>2016-09-07T11:22:01Z</time>
      </trkpt>
      <trkpt lat="49.71541" lon="-1.94454">
        <ele>6.398438</ele>
        <time>2016-09-07T11:22:16Z</time>
      </trkpt>
      <trkpt lat="49.71537" lon="-1.9444">
        <ele>6.597656</ele>
        <time>2016-09-07T11:22:22Z</time>
      </trkpt>
      <trkpt lat="49.71535" lon="-1.94427">
        <ele>8.097656</ele>
        <time>2016-09-07T11:22:29Z</time>
      </trkpt>
      <trkpt lat="49.71531" lon="-1.94414">
        <ele>8.097656</ele>
        <time>2016-09-07T11:22:57Z</time>
      </trkpt>
      <trkpt lat="49.71524" lon="-1.94401">
        <ele>7.796875</ele>
        <time>2016-09-07T11:23:03Z</time>
      </trkpt>
      <trkpt lat="49.71513" lon="-1.94379">
        <ele>7.5</ele>
        <time>2016-09-07T11:23:11Z</time>
      </trkpt>
      <trkpt lat="49.71506" lon="-1.94369">
        <ele>7.398438</ele>
        <time>2016-09-07T11:23:15Z</time>
      </trkpt>
      <trkpt lat="49.71488" lon="-1.94348">
        <ele>7.5</ele>
        <time>2016-09-07T11:23:22Z</time>
      </trkpt>
      <trkpt lat="49.7148" lon="-1.9434">
        <ele>7.699219</ele>
        <time>2016-09-07T11:23:25Z</time>
      </trkpt>
      <trkpt lat="49.7147" lon="-1.94332">
        <ele>7.699219</ele>
        <time>2016-09-07T11:23:28Z</time>
      </trkpt>
      <trkpt lat="49.7146" lon="-1.94328">
        <ele>7.898438</ele>
        <time>2016-09-07T11:23:31Z</time>
      </trkpt>
      <trkpt lat="49.71449" lon="-1.94326">
        <ele>8.097656</ele>
        <time>2016-09-07T11:23:34Z</time>
      </trkpt>
      <trkpt lat="49.71439" lon="-1.94324">
        <ele>8.199219</ele>
        <time>2016-09-07T11:23:37Z</time>
      </trkpt>
      <trkpt lat="49.71406" lon="-1.94324">
        <ele>8.199219</ele>
        <time>2016-09-07T11:23:46Z</time>
      </trkpt>
      <trkpt lat="49.71395" lon="-1.94325">
        <ele>8.097656</ele>
        <time>2016-09-07T11:23:49Z</time>
      </trkpt>
      <trkpt lat="49.7135" lon="-1.94333">
        <ele>8</ele>
        <time>2016-09-07T11:24:01Z</time>
      </trkpt>
      <trkpt lat="49.71339" lon="-1.94332">
        <ele>8</ele>
        <time>2016-09-07T11:24:04Z</time>
      </trkpt>
      <trkpt lat="49.71333" lon="-1.9432">
        <ele>8.398438</ele>
        <time>2016-09-07T11:24:07Z</time>
      </trkpt>
      <trkpt lat="49.71333" lon="-1.94303">
        <ele>8.796875</ele>
        <time>2016-09-07T11:24:10Z</time>
      </trkpt>
      <trkpt lat="49.71332" lon="-1.94272">
        <ele>9.296875</ele>
        <time>2016-09-07T11:24:16Z</time>
      </trkpt>
      <trkpt lat="49.7133" lon="-1.94257">
        <ele>9.597656</ele>
        <time>2016-09-07T11:24:19Z</time>
      </trkpt>
      <trkpt lat="49.71327" lon="-1.94242">
        <ele>9.898438</ele>
        <time>2016-09-07T11:24:22Z</time>
      </trkpt>
      <trkpt lat="49.71319" lon="-1.94199">
        <ele>11.199219</ele>
        <time>2016-09-07T11:24:31Z</time>
      </trkpt>
      <trkpt lat="49.71315" lon="-1.94185">
        <ele>11.898438</ele>
        <time>2016-09-07T11:24:34Z</time>
      </trkpt>
      <trkpt lat="49.71288" lon="-1.94073">
        <ele>16.898438</ele>
        <time>2016-09-07T11:25:02Z</time>
      </trkpt>
      <trkpt lat="49.71285" lon="-1.94058">
        <ele>17.699219</ele>
        <time>2016-09-07T11:25:06Z</time>
      </trkpt>
      <trkpt lat="49.71283" lon="-1.94041">
        <ele>18.597656</ele>
        <time>2016-09-07T11:25:10Z</time>
      </trkpt>
      <trkpt lat="49.71279" lon="-1.94026">
        <ele>19.699219</ele>
        <time>2016-09-07T11:25:14Z</time>
      </trkpt>
      <trkpt lat="49.71274" lon="-1.94013">
        <ele>20.796875</ele>
        <time>2016-09-07T11:25:18Z</time>
      </trkpt>
      <trkpt lat="49.71271" lon="-1.93997">
        <ele>22</ele>
        <time>2016-09-07T11:25:22Z</time>
      </trkpt>
      <trkpt lat="49.71271" lon="-1.93981">
        <ele>23.199219</ele>
        <time>2016-09-07T11:25:26Z</time>
      </trkpt>
      <trkpt lat="49.71271" lon="-1.93965">
        <ele>24.296875</ele>
        <time>2016-09-07T11:25:30Z</time>
      </trkpt>
      <trkpt lat="49.71268" lon="-1.93952">
        <ele>24.5</ele>
        <time>2016-09-07T11:25:34Z</time>
      </trkpt>
      <trkpt lat="49.71259" lon="-1.93946">
        <ele>25</ele>
        <time>2016-09-07T11:25:38Z</time>
      </trkpt>
      <trkpt lat="49.71248" lon="-1.93942">
        <ele>25.199219</ele>
        <time>2016-09-07T11:25:42Z</time>
      </trkpt>
      <trkpt lat="49.71237" lon="-1.93944">
        <ele>25.199219</ele>
        <time>2016-09-07T11:25:46Z</time>
      </trkpt>
      <trkpt lat="49.71226" lon="-1.93951">
        <ele>26.097656</ele>
        <time>2016-09-07T11:25:50Z</time>
      </trkpt>
      <trkpt lat="49.71216" lon="-1.93959">
        <ele>27.296875</ele>
        <time>2016-09-07T11:25:54Z</time>
      </trkpt>
      <trkpt lat="49.71207" lon="-1.93964">
        <ele>28.296875</ele>
        <time>2016-09-07T11:25:58Z</time>
      </trkpt>
      <trkpt lat="49.71198" lon="-1.9397">
        <ele>29.296875</ele>
        <time>2016-09-07T11:26:02Z</time>
      </trkpt>
      <trkpt lat="49.71179" lon="-1.93985">
        <ele>30.597656</ele>
        <time>2016-09-07T11:26:10Z</time>
      </trkpt>
      <trkpt lat="49.71149" lon="-1.9401">
        <ele>34.699219</ele>
        <time>2016-09-07T11:26:22Z</time>
      </trkpt>
      <trkpt lat="49.71152" lon="-1.93995">
        <ele>35.699219</ele>
        <time>2016-09-07T11:26:33Z</time>
      </trkpt>
      <trkpt lat="49.7116" lon="-1.93985">
        <ele>36.699219</ele>
        <time>2016-09-07T11:26:37Z</time>
      </trkpt>
      <trkpt lat="49.71177" lon="-1.93963">
        <ele>38.597656</ele>
        <time>2016-09-07T11:26:45Z</time>
      </trkpt>
      <trkpt lat="49.71184" lon="-1.9395">
        <ele>39.796875</ele>
        <time>2016-09-07T11:26:49Z</time>
      </trkpt>
      <trkpt lat="49.71186" lon="-1.93934">
        <ele>40.898438</ele>
        <time>2016-09-07T11:26:53Z</time>
      </trkpt>
      <trkpt lat="49.71185" lon="-1.93919">
        <ele>41.796875</ele>
        <time>2016-09-07T11:26:57Z</time>
      </trkpt>
      <trkpt lat="49.71181" lon="-1.93903">
        <ele>43</ele>
        <time>2016-09-07T11:27:01Z</time>
      </trkpt>
      <trkpt lat="49.71176" lon="-1.93889">
        <ele>44.097656</ele>
        <time>2016-09-07T11:27:05Z</time>
      </trkpt>
      <trkpt lat="49.71167" lon="-1.93862">
        <ele>46.5</ele>
        <time>2016-09-07T11:27:13Z</time>
      </trkpt>
      <trkpt lat="49.71166" lon="-1.93845">
        <ele>47.699219</ele>
        <time>2016-09-07T11:27:17Z</time>
      </trkpt>
      <trkpt lat="49.71167" lon="-1.93829">
        <ele>48.796875</ele>
        <time>2016-09-07T11:27:21Z</time>
      </trkpt>
      <trkpt lat="49.7117" lon="-1.93813">
        <ele>49.898438</ele>
        <time>2016-09-07T11:27:25Z</time>
      </trkpt>
      <trkpt lat="49.71173" lon="-1.93796">
        <ele>51.097656</ele>
        <time>2016-09-07T11:27:29Z</time>
      </trkpt>
      <trkpt lat="49.71175" lon="-1.93779">
        <ele>52.097656</ele>
        <time>2016-09-07T11:27:33Z</time>
      </trkpt>
      <trkpt lat="49.71175" lon="-1.93762">
        <ele>53.097656</ele>
        <time>2016-09-07T11:27:37Z</time>
      </trkpt>
      <trkpt lat="49.71173" lon="-1.93709">
        <ele>55.796875</ele>
        <time>2016-09-07T11:27:49Z</time>
      </trkpt>
      <trkpt lat="49.71164" lon="-1.93433">
        <ele>60</ele>
        <time>2016-09-07T11:30:09Z</time>
      </trkpt>
      <trkpt lat="49.71162" lon="-1.93418">
        <ele>59.699219</ele>
        <time>2016-09-07T11:30:12Z</time>
      </trkpt>
      <trkpt lat="49.7116" lon="-1.93404">
        <ele>59.398438</ele>
        <time>2016-09-07T11:30:15Z</time>
      </trkpt>
      <trkpt lat="49.71158" lon="-1.93369">
        <ele>59.199219</ele>
        <time>2016-09-07T11:30:22Z</time>
      </trkpt>
      <trkpt lat="49.71158" lon="-1.93352">
        <ele>59.199219</ele>
        <time>2016-09-07T11:30:25Z</time>
      </trkpt>
      <trkpt lat="49.71159" lon="-1.93335">
        <ele>59.199219</ele>
        <time>2016-09-07T11:30:28Z</time>
      </trkpt>
      <trkpt lat="49.71163" lon="-1.93269">
        <ele>60</ele>
        <time>2016-09-07T11:30:40Z</time>
      </trkpt>
      <trkpt lat="49.71166" lon="-1.93251">
        <ele>60.5</ele>
        <time>2016-09-07T11:30:44Z</time>
      </trkpt>
      <trkpt lat="49.71169" lon="-1.93237">
        <ele>60.5</ele>
        <time>2016-09-07T11:30:47Z</time>
      </trkpt>
      <trkpt lat="49.71173" lon="-1.93222">
        <ele>60</ele>
        <time>2016-09-07T11:30:50Z</time>
      </trkpt>
      <trkpt lat="49.71177" lon="-1.93205">
        <ele>59.5</ele>
        <time>2016-09-07T11:30:53Z</time>
      </trkpt>
      <trkpt lat="49.71179" lon="-1.9319">
        <ele>59.097656</ele>
        <time>2016-09-07T11:30:56Z</time>
      </trkpt>
      <trkpt lat="49.71181" lon="-1.93175">
        <ele>58.5</ele>
        <time>2016-09-07T11:31:01Z</time>
      </trkpt>
      <trkpt lat="49.7119" lon="-1.93163">
        <ele>57.796875</ele>
        <time>2016-09-07T11:31:05Z</time>
      </trkpt>
      <trkpt lat="49.71199" lon="-1.93153">
        <ele>57.097656</ele>
        <time>2016-09-07T11:31:08Z</time>
      </trkpt>
      <trkpt lat="49.71205" lon="-1.93143">
        <ele>55.597656</ele>
        <time>2016-09-07T11:31:11Z</time>
      </trkpt>
      <trkpt lat="49.71205" lon="-1.93128">
        <ele>54.199219</ele>
        <time>2016-09-07T11:31:18Z</time>
      </trkpt>
      <trkpt lat="49.71201" lon="-1.93111">
        <ele>53</ele>
        <time>2016-09-07T11:31:24Z</time>
      </trkpt>
      <trkpt lat="49.71195" lon="-1.93077">
        <ele>51.699219</ele>
        <time>2016-09-07T11:31:31Z</time>
      </trkpt>
      <trkpt lat="49.71193" lon="-1.93058">
        <ele>51.097656</ele>
        <time>2016-09-07T11:31:34Z</time>
      </trkpt>
      <trkpt lat="49.71194" lon="-1.93044">
        <ele>50.398438</ele>
        <time>2016-09-07T11:31:36Z</time>
      </trkpt>
      <trkpt lat="49.71197" lon="-1.93028">
        <ele>49.699219</ele>
        <time>2016-09-07T11:31:38Z</time>
      </trkpt>
      <trkpt lat="49.71217" lon="-1.92943">
        <ele>48.597656</ele>
        <time>2016-09-07T11:31:48Z</time>
      </trkpt>
      <trkpt lat="49.71217" lon="-1.92925">
        <ele>49.398438</ele>
        <time>2016-09-07T11:31:51Z</time>
      </trkpt>
      <trkpt lat="49.71213" lon="-1.92912">
        <ele>50.296875</ele>
        <time>2016-09-07T11:31:54Z</time>
      </trkpt>
      <trkpt lat="49.71183" lon="-1.92814">
        <ele>53</ele>
        <time>2016-09-07T11:32:16Z</time>
      </trkpt>
      <trkpt lat="49.7119" lon="-1.9283">
        <ele>52.398438</ele>
        <time>2016-09-07T11:32:24Z</time>
      </trkpt>
      <trkpt lat="49.71202" lon="-1.92865">
        <ele>51.097656</ele>
        <time>2016-09-07T11:32:30Z</time>
      </trkpt>
      <trkpt lat="49.7121" lon="-1.92893">
        <ele>51.097656</ele>
        <time>2016-09-07T11:32:37Z</time>
      </trkpt>
      <trkpt lat="49.71201" lon="-1.92899">
        <ele>52</ele>
        <time>2016-09-07T11:32:42Z</time>
      </trkpt>
      <trkpt lat="49.71191" lon="-1.92898">
        <ele>51.597656</ele>
        <time>2016-09-07T11:32:49Z</time>
      </trkpt>
      <trkpt lat="49.71151" lon="-1.92894">
        <ele>52.199219</ele>
        <time>2016-09-07T11:33:14Z</time>
      </trkpt>
      <trkpt lat="49.71141" lon="-1.92897">
        <ele>52.699219</ele>
        <time>2016-09-07T11:33:17Z</time>
      </trkpt>
      <trkpt lat="49.71132" lon="-1.92902">
        <ele>54.597656</ele>
        <time>2016-09-07T11:33:20Z</time>
      </trkpt>
      <trkpt lat="49.7112" lon="-1.92902">
        <ele>57</ele>
        <time>2016-09-07T11:33:24Z</time>
      </trkpt>
      <trkpt lat="49.71111" lon="-1.92899">
        <ele>58.796875</ele>
        <time>2016-09-07T11:33:27Z</time>
      </trkpt>
      <trkpt lat="49.71101" lon="-1.9289">
        <ele>57.699219</ele>
        <time>2016-09-07T11:33:31Z</time>
      </trkpt>
      <trkpt lat="49.71093" lon="-1.92884">
        <ele>56.5</ele>
        <time>2016-09-07T11:33:34Z</time>
      </trkpt>
      <trkpt lat="49.71083" lon="-1.92881">
        <ele>56.699219</ele>
        <time>2016-09-07T11:33:37Z</time>
      </trkpt>
      <trkpt lat="49.71075" lon="-1.92874">
        <ele>58.097656</ele>
        <time>2016-09-07T11:33:40Z</time>
      </trkpt>
      <trkpt lat="49.71065" lon="-1.92864">
        <ele>60</ele>
        <time>2016-09-07T11:33:44Z</time>
      </trkpt>
      <trkpt lat="49.71057" lon="-1.9285">
        <ele>62</ele>
        <time>2016-09-07T11:33:48Z</time>
      </trkpt>
      <trkpt lat="49.71048" lon="-1.92841">
        <ele>63.5</ele>
        <time>2016-09-07T11:33:52Z</time>
      </trkpt>
      <trkpt lat="49.71039" lon="-1.92834">
        <ele>63</ele>
        <time>2016-09-07T11:33:55Z</time>
      </trkpt>
      <trkpt lat="49.71029" lon="-1.92832">
        <ele>62.699219</ele>
        <time>2016-09-07T11:33:58Z</time>
      </trkpt>
      <trkpt lat="49.70963" lon="-1.92812">
        <ele>67.296875</ele>
        <time>2016-09-07T11:34:19Z</time>
      </trkpt>
      <trkpt lat="49.70957" lon="-1.92802">
        <ele>67.796875</ele>
        <time>2016-09-07T11:34:23Z</time>
      </trkpt>
      <trkpt lat="49.70962" lon="-1.92788">
        <ele>68.398438</ele>
        <time>2016-09-07T11:34:27Z</time>
      </trkpt>
      <trkpt lat="49.71007" lon="-1.92661">
        <ele>67.097656</ele>
        <time>2016-09-07T11:34:55Z</time>
      </trkpt>
      <trkpt lat="49.71013" lon="-1.92649">
        <ele>66.5</ele>
        <time>2016-09-07T11:34:58Z</time>
      </trkpt>
      <trkpt lat="49.7102" lon="-1.92636">
        <ele>65.898438</ele>
        <time>2016-09-07T11:35:01Z</time>
      </trkpt>
      <trkpt lat="49.7106" lon="-1.92558">
        <ele>62.699219</ele>
        <time>2016-09-07T11:35:14Z</time>
      </trkpt>
      <trkpt lat="49.71066" lon="-1.92543">
        <ele>62.398438</ele>
        <time>2016-09-07T11:35:16Z</time>
      </trkpt>
      <trkpt lat="49.71081" lon="-1.92501">
        <ele>61.597656</ele>
        <time>2016-09-07T11:35:22Z</time>
      </trkpt>
      <trkpt lat="49.71084" lon="-1.92487">
        <ele>61.398438</ele>
        <time>2016-09-07T11:35:24Z</time>
      </trkpt>
      <trkpt lat="49.71102" lon="-1.92419">
        <ele>58.5</ele>
        <time>2016-09-07T11:35:34Z</time>
      </trkpt>
      <trkpt lat="49.71108" lon="-1.92401">
        <ele>57.5</ele>
        <time>2016-09-07T11:35:37Z</time>
      </trkpt>
      <trkpt lat="49.71115" lon="-1.92389">
        <ele>56.699219</ele>
        <time>2016-09-07T11:35:41Z</time>
      </trkpt>
      <trkpt lat="49.71119" lon="-1.92375">
        <ele>55.796875</ele>
        <time>2016-09-07T11:35:46Z</time>
      </trkpt>
      <trkpt lat="49.71121" lon="-1.92356">
        <ele>54.199219</ele>
        <time>2016-09-07T11:35:50Z</time>
      </trkpt>
      <trkpt lat="49.71118" lon="-1.92337">
        <ele>52.796875</ele>
        <time>2016-09-07T11:35:53Z</time>
      </trkpt>
      <trkpt lat="49.71112" lon="-1.92321">
        <ele>51.699219</ele>
        <time>2016-09-07T11:35:55Z</time>
      </trkpt>
      <trkpt lat="49.71105" lon="-1.92304">
        <ele>51.097656</ele>
        <time>2016-09-07T11:35:57Z</time>
      </trkpt>
      <trkpt lat="49.711" lon="-1.92287">
        <ele>50.898438</ele>
        <time>2016-09-07T11:35:59Z</time>
      </trkpt>
      <trkpt lat="49.71099" lon="-1.92269">
        <ele>51.097656</ele>
        <time>2016-09-07T11:36:01Z</time>
      </trkpt>
      <trkpt lat="49.71102" lon="-1.92254">
        <ele>51.898438</ele>
        <time>2016-09-07T11:36:03Z</time>
      </trkpt>
      <trkpt lat="49.71108" lon="-1.9224">
        <ele>52.796875</ele>
        <time>2016-09-07T11:36:06Z</time>
      </trkpt>
      <trkpt lat="49.71115" lon="-1.92226">
        <ele>53.398438</ele>
        <time>2016-09-07T11:36:10Z</time>
      </trkpt>
      <trkpt lat="49.71119" lon="-1.92209">
        <ele>53.296875</ele>
        <time>2016-09-07T11:36:14Z</time>
      </trkpt>
      <trkpt lat="49.71118" lon="-1.92194">
        <ele>53.597656</ele>
        <time>2016-09-07T11:36:17Z</time>
      </trkpt>
      <trkpt lat="49.71111" lon="-1.92183">
        <ele>53.796875</ele>
        <time>2016-09-07T11:36:20Z</time>
      </trkpt>
      <trkpt lat="49.71098" lon="-1.92161">
        <ele>54.398438</ele>
        <time>2016-09-07T11:36:26Z</time>
      </trkpt>
      <trkpt lat="49.71093" lon="-1.92147">
        <ele>54.296875</ele>
        <time>2016-09-07T11:36:29Z</time>
      </trkpt>
      <trkpt lat="49.7109" lon="-1.92133">
        <ele>53.796875</ele>
        <time>2016-09-07T11:36:32Z</time>
      </trkpt>
      <trkpt lat="49.71088" lon="-1.92116">
        <ele>53.699219</ele>
        <time>2016-09-07T11:36:36Z</time>
      </trkpt>
      <trkpt lat="49.71087" lon="-1.92101">
        <ele>53.199219</ele>
        <time>2016-09-07T11:36:39Z</time>
      </trkpt>
      <trkpt lat="49.71089" lon="-1.92086">
        <ele>52.597656</ele>
        <time>2016-09-07T11:36:42Z</time>
      </trkpt>
      <trkpt lat="49.71093" lon="-1.9207">
        <ele>52.097656</ele>
        <time>2016-09-07T11:36:45Z</time>
      </trkpt>
      <trkpt lat="49.71096" lon="-1.92057">
        <ele>51.5</ele>
        <time>2016-09-07T11:36:47Z</time>
      </trkpt>
      <trkpt lat="49.71099" lon="-1.92041">
        <ele>51.296875</ele>
        <time>2016-09-07T11:36:49Z</time>
      </trkpt>
      <trkpt lat="49.711" lon="-1.92024">
        <ele>51.5</ele>
        <time>2016-09-07T11:36:51Z</time>
      </trkpt>
      <trkpt lat="49.71099" lon="-1.92008">
        <ele>52</ele>
        <time>2016-09-07T11:36:53Z</time>
      </trkpt>
      <trkpt lat="49.71095" lon="-1.9199">
        <ele>52.898438</ele>
        <time>2016-09-07T11:36:56Z</time>
      </trkpt>
      <trkpt lat="49.71084" lon="-1.91944">
        <ele>54.199219</ele>
        <time>2016-09-07T11:37:05Z</time>
      </trkpt>
      <trkpt lat="49.71076" lon="-1.91916">
        <ele>55.699219</ele>
        <time>2016-09-07T11:37:11Z</time>
      </trkpt>
      <trkpt lat="49.71074" lon="-1.91899">
        <ele>56.5</ele>
        <time>2016-09-07T11:37:15Z</time>
      </trkpt>
      <trkpt lat="49.71076" lon="-1.91881">
        <ele>57.699219</ele>
        <time>2016-09-07T11:37:19Z</time>
      </trkpt>
      <trkpt lat="49.71078" lon="-1.91864">
        <ele>58.5</ele>
        <time>2016-09-07T11:37:23Z</time>
      </trkpt>
      <trkpt lat="49.71081" lon="-1.91758">
        <ele>63.898438</ele>
        <time>2016-09-07T11:37:47Z</time>
      </trkpt>
      <trkpt lat="49.71083" lon="-1.9174">
        <ele>64.398438</ele>
        <time>2016-09-07T11:37:51Z</time>
      </trkpt>
      <trkpt lat="49.71087" lon="-1.91723">
        <ele>64.5</ele>
        <time>2016-09-07T11:37:55Z</time>
      </trkpt>
      <trkpt lat="49.71111" lon="-1.91637">
        <ele>65.5</ele>
        <time>2016-09-07T11:38:13Z</time>
      </trkpt>
      <trkpt lat="49.7112" lon="-1.91609">
        <ele>65.699219</ele>
        <time>2016-09-07T11:38:19Z</time>
      </trkpt>
      <trkpt lat="49.7114" lon="-1.91553">
        <ele>65.296875</ele>
        <time>2016-09-07T11:38:31Z</time>
      </trkpt>
      <trkpt lat="49.71146" lon="-1.91539">
        <ele>65</ele>
        <time>2016-09-07T11:38:34Z</time>
      </trkpt>
      <trkpt lat="49.71173" lon="-1.91486">
        <ele>64.097656</ele>
        <time>2016-09-07T11:38:46Z</time>
      </trkpt>
      <trkpt lat="49.71176" lon="-1.91499">
        <ele>63.796875</ele>
        <time>2016-09-07T11:38:55Z</time>
      </trkpt>
      <trkpt lat="49.71181" lon="-1.91513">
        <ele>64.898438</ele>
        <time>2016-09-07T11:39:06Z</time>
      </trkpt>
      <trkpt lat="49.71171" lon="-1.91513">
        <ele>65.5</ele>
        <time>2016-09-07T11:39:25Z</time>
      </trkpt>
      <trkpt lat="49.71162" lon="-1.91518">
        <ele>65.898438</ele>
        <time>2016-09-07T11:39:29Z</time>
      </trkpt>
      <trkpt lat="49.71155" lon="-1.91531">
        <ele>66.097656</ele>
        <time>2016-09-07T11:39:33Z</time>
      </trkpt>
      <trkpt lat="49.71138" lon="-1.91569">
        <ele>66.5</ele>
        <time>2016-09-07T11:39:42Z</time>
      </trkpt>
      <trkpt lat="49.71128" lon="-1.91574">
        <ele>67.097656</ele>
        <time>2016-09-07T11:39:46Z</time>
      </trkpt>
      <trkpt lat="49.71118" lon="-1.91571">
        <ele>68.097656</ele>
        <time>2016-09-07T11:39:50Z</time>
      </trkpt>
      <trkpt lat="49.71107" lon="-1.91567">
        <ele>69</ele>
        <time>2016-09-07T11:39:54Z</time>
      </trkpt>
      <trkpt lat="49.71096" lon="-1.91561">
        <ele>70.296875</ele>
        <time>2016-09-07T11:39:58Z</time>
      </trkpt>
      <trkpt lat="49.71087" lon="-1.91553">
        <ele>71.597656</ele>
        <time>2016-09-07T11:40:02Z</time>
      </trkpt>
      <trkpt lat="49.7108" lon="-1.91541">
        <ele>72.5</ele>
        <time>2016-09-07T11:40:06Z</time>
      </trkpt>
      <trkpt lat="49.71073" lon="-1.91528">
        <ele>73.296875</ele>
        <time>2016-09-07T11:40:10Z</time>
      </trkpt>
      <trkpt lat="49.71068" lon="-1.91513">
        <ele>74.097656</ele>
        <time>2016-09-07T11:40:14Z</time>
      </trkpt>
      <trkpt lat="49.71062" lon="-1.91496">
        <ele>74.796875</ele>
        <time>2016-09-07T11:40:18Z</time>
      </trkpt>
      <trkpt lat="49.71058" lon="-1.9148">
        <ele>75.597656</ele>
        <time>2016-09-07T11:40:22Z</time>
      </trkpt>
      <trkpt lat="49.71054" lon="-1.91463">
        <ele>76.097656</ele>
        <time>2016-09-07T11:40:26Z</time>
      </trkpt>
      <trkpt lat="49.71052" lon="-1.91449">
        <ele>76.699219</ele>
        <time>2016-09-07T11:40:29Z</time>
      </trkpt>
      <trkpt lat="49.71041" lon="-1.91372">
        <ele>76.398438</ele>
        <time>2016-09-07T11:40:44Z</time>
      </trkpt>
      <trkpt lat="49.71035" lon="-1.91354">
        <ele>76.199219</ele>
        <time>2016-09-07T11:40:47Z</time>
      </trkpt>
      <trkpt lat="49.71028" lon="-1.91338">
        <ele>76.296875</ele>
        <time>2016-09-07T11:40:50Z</time>
      </trkpt>
      <trkpt lat="49.7102" lon="-1.91324">
        <ele>76.398438</ele>
        <time>2016-09-07T11:40:53Z</time>
      </trkpt>
      <trkpt lat="49.70958" lon="-1.91237">
        <ele>75.5</ele>
        <time>2016-09-07T11:41:13Z</time>
      </trkpt>
      <trkpt lat="49.7095" lon="-1.91228">
        <ele>75.199219</ele>
        <time>2016-09-07T11:41:15Z</time>
      </trkpt>
      <trkpt lat="49.70942" lon="-1.9122">
        <ele>74.796875</ele>
        <time>2016-09-07T11:41:17Z</time>
      </trkpt>
      <trkpt lat="49.70934" lon="-1.91213">
        <ele>74.597656</ele>
        <time>2016-09-07T11:41:19Z</time>
      </trkpt>
      <trkpt lat="49.70925" lon="-1.91207">
        <ele>74.296875</ele>
        <time>2016-09-07T11:41:21Z</time>
      </trkpt>
      <trkpt lat="49.70907" lon="-1.91197">
        <ele>73.898438</ele>
        <time>2016-09-07T11:41:25Z</time>
      </trkpt>
      <trkpt lat="49.70878" lon="-1.91183">
        <ele>73.296875</ele>
        <time>2016-09-07T11:41:31Z</time>
      </trkpt>
      <trkpt lat="49.70869" lon="-1.91176">
        <ele>73.097656</ele>
        <time>2016-09-07T11:41:33Z</time>
      </trkpt>
      <trkpt lat="49.70829" lon="-1.91142">
        <ele>71.296875</ele>
        <time>2016-09-07T11:41:41Z</time>
      </trkpt>
      <trkpt lat="49.7072" lon="-1.9105">
        <ele>67.898438</ele>
        <time>2016-09-07T11:42:01Z</time>
      </trkpt>
      <trkpt lat="49.70709" lon="-1.91042">
        <ele>67.5</ele>
        <time>2016-09-07T11:42:03Z</time>
      </trkpt>
      <trkpt lat="49.70697" lon="-1.91036">
        <ele>67</ele>
        <time>2016-09-07T11:42:05Z</time>
      </trkpt>
      <trkpt lat="49.70659" lon="-1.91021">
        <ele>65</ele>
        <time>2016-09-07T11:42:11Z</time>
      </trkpt>
      <trkpt lat="49.7063" lon="-1.91011">
        <ele>63.199219</ele>
        <time>2016-09-07T11:42:15Z</time>
      </trkpt>
      <trkpt lat="49.70617" lon="-1.91002">
        <ele>62.597656</ele>
        <time>2016-09-07T11:42:17Z</time>
      </trkpt>
      <trkpt lat="49.70607" lon="-1.90985">
        <ele>61.898438</ele>
        <time>2016-09-07T11:42:19Z</time>
      </trkpt>
      <trkpt lat="49.70601" lon="-1.90963">
        <ele>61.097656</ele>
        <time>2016-09-07T11:42:21Z</time>
      </trkpt>
      <trkpt lat="49.70597" lon="-1.9094">
        <ele>60.398438</ele>
        <time>2016-09-07T11:42:23Z</time>
      </trkpt>
      <trkpt lat="49.70594" lon="-1.90919">
        <ele>59.699219</ele>
        <time>2016-09-07T11:42:25Z</time>
      </trkpt>
      <trkpt lat="49.70594" lon="-1.90903">
        <ele>59.097656</ele>
        <time>2016-09-07T11:42:27Z</time>
      </trkpt>
      <trkpt lat="49.70593" lon="-1.90885">
        <ele>58.398438</ele>
        <time>2016-09-07T11:42:30Z</time>
      </trkpt>
      <trkpt lat="49.70591" lon="-1.90871">
        <ele>58.898438</ele>
        <time>2016-09-07T11:42:34Z</time>
      </trkpt>
      <trkpt lat="49.70582" lon="-1.90863">
        <ele>58.597656</ele>
        <time>2016-09-07T11:42:53Z</time>
      </trkpt>
      <trkpt lat="49.70573" lon="-1.9086">
        <ele>58</ele>
        <time>2016-09-07T11:42:56Z</time>
      </trkpt>
      <trkpt lat="49.70562" lon="-1.90853">
        <ele>57.398438</ele>
        <time>2016-09-07T11:42:59Z</time>
      </trkpt>
      <trkpt lat="49.70545" lon="-1.90842">
        <ele>56.796875</ele>
        <time>2016-09-07T11:43:03Z</time>
      </trkpt>
      <trkpt lat="49.70536" lon="-1.90839">
        <ele>57</ele>
        <time>2016-09-07T11:43:05Z</time>
      </trkpt>
      <trkpt lat="49.70527" lon="-1.90842">
        <ele>57.597656</ele>
        <time>2016-09-07T11:43:07Z</time>
      </trkpt>
      <trkpt lat="49.70515" lon="-1.90848">
        <ele>58</ele>
        <time>2016-09-07T11:43:10Z</time>
      </trkpt>
      <trkpt lat="49.70493" lon="-1.90861">
        <ele>58.898438</ele>
        <time>2016-09-07T11:43:16Z</time>
      </trkpt>
      <trkpt lat="49.70447" lon="-1.90888">
        <ele>61.699219</ele>
        <time>2016-09-07T11:43:31Z</time>
      </trkpt>
      <trkpt lat="49.70436" lon="-1.90891">
        <ele>62.796875</ele>
        <time>2016-09-07T11:43:35Z</time>
      </trkpt>
      <trkpt lat="49.70424" lon="-1.90892">
        <ele>64</ele>
        <time>2016-09-07T11:43:39Z</time>
      </trkpt>
      <trkpt lat="49.70414" lon="-1.9089">
        <ele>65.097656</ele>
        <time>2016-09-07T11:43:43Z</time>
      </trkpt>
      <trkpt lat="49.70357" lon="-1.90877">
        <ele>72.796875</ele>
        <time>2016-09-07T11:44:07Z</time>
      </trkpt>
      <trkpt lat="49.70348" lon="-1.90873">
        <ele>73.699219</ele>
        <time>2016-09-07T11:44:11Z</time>
      </trkpt>
      <trkpt lat="49.7033" lon="-1.90863">
        <ele>76</ele>
        <time>2016-09-07T11:44:19Z</time>
      </trkpt>
      <trkpt lat="49.7032" lon="-1.90861">
        <ele>77.199219</ele>
        <time>2016-09-07T11:44:23Z</time>
      </trkpt>
      <trkpt lat="49.7031" lon="-1.90859">
        <ele>78.398438</ele>
        <time>2016-09-07T11:44:27Z</time>
      </trkpt>
      <trkpt lat="49.703" lon="-1.90859">
        <ele>79.5</ele>
        <time>2016-09-07T11:44:31Z</time>
      </trkpt>
      <trkpt lat="49.70289" lon="-1.90859">
        <ele>80.597656</ele>
        <time>2016-09-07T11:44:35Z</time>
      </trkpt>
      <trkpt lat="49.70258" lon="-1.90859">
        <ele>84</ele>
        <time>2016-09-07T11:44:47Z</time>
      </trkpt>
      <trkpt lat="49.70238" lon="-1.90857">
        <ele>86.398438</ele>
        <time>2016-09-07T11:44:55Z</time>
      </trkpt>
      <trkpt lat="49.70228" lon="-1.90855">
        <ele>87.699219</ele>
        <time>2016-09-07T11:44:59Z</time>
      </trkpt>
      <trkpt lat="49.70218" lon="-1.90851">
        <ele>88.796875</ele>
        <time>2016-09-07T11:45:03Z</time>
      </trkpt>
      <trkpt lat="49.70208" lon="-1.90843">
        <ele>89.796875</ele>
        <time>2016-09-07T11:45:07Z</time>
      </trkpt>
      <trkpt lat="49.70189" lon="-1.90825">
        <ele>90.199219</ele>
        <time>2016-09-07T11:45:15Z</time>
      </trkpt>
      <trkpt lat="49.70179" lon="-1.90819">
        <ele>90.398438</ele>
        <time>2016-09-07T11:45:19Z</time>
      </trkpt>
      <trkpt lat="49.70168" lon="-1.90813">
        <ele>91.199219</ele>
        <time>2016-09-07T11:45:23Z</time>
      </trkpt>
      <trkpt lat="49.70113" lon="-1.90787">
        <ele>94.699219</ele>
        <time>2016-09-07T11:45:42Z</time>
      </trkpt>
      <trkpt lat="49.70104" lon="-1.9078">
        <ele>95.199219</ele>
        <time>2016-09-07T11:45:45Z</time>
      </trkpt>
      <trkpt lat="49.70096" lon="-1.90772">
        <ele>95.699219</ele>
        <time>2016-09-07T11:45:48Z</time>
      </trkpt>
      <trkpt lat="49.7009" lon="-1.90761">
        <ele>96.199219</ele>
        <time>2016-09-07T11:45:51Z</time>
      </trkpt>
      <trkpt lat="49.70071" lon="-1.90723">
        <ele>97.597656</ele>
        <time>2016-09-07T11:46:00Z</time>
      </trkpt>
      <trkpt lat="49.70064" lon="-1.90712">
        <ele>98.097656</ele>
        <time>2016-09-07T11:46:03Z</time>
      </trkpt>
      <trkpt lat="49.70056" lon="-1.90703">
        <ele>98.796875</ele>
        <time>2016-09-07T11:46:06Z</time>
      </trkpt>
      <trkpt lat="49.69998" lon="-1.90643">
        <ele>102</ele>
        <time>2016-09-07T11:46:27Z</time>
      </trkpt>
      <trkpt lat="49.69989" lon="-1.90636">
        <ele>101.597656</ele>
        <time>2016-09-07T11:46:30Z</time>
      </trkpt>
      <trkpt lat="49.6998" lon="-1.90635">
        <ele>102</ele>
        <time>2016-09-07T11:46:33Z</time>
      </trkpt>
      <trkpt lat="49.6997" lon="-1.90636">
        <ele>101.296875</ele>
        <time>2016-09-07T11:46:36Z</time>
      </trkpt>
      <trkpt lat="49.6991" lon="-1.90647">
        <ele>105</ele>
        <time>2016-09-07T11:46:56Z</time>
      </trkpt>
      <trkpt lat="49.69837" lon="-1.90647">
        <ele>106.199219</ele>
        <time>2016-09-07T11:47:14Z</time>
      </trkpt>
      <trkpt lat="49.69809" lon="-1.90642">
        <ele>105.5</ele>
        <time>2016-09-07T11:47:20Z</time>
      </trkpt>
      <trkpt lat="49.69761" lon="-1.90628">
        <ele>104.699219</ele>
        <time>2016-09-07T11:47:30Z</time>
      </trkpt>
      <trkpt lat="49.69742" lon="-1.90621">
        <ele>104.5</ele>
        <time>2016-09-07T11:47:34Z</time>
      </trkpt>
      <trkpt lat="49.69733" lon="-1.90616">
        <ele>104.5</ele>
        <time>2016-09-07T11:47:36Z</time>
      </trkpt>
      <trkpt lat="49.69724" lon="-1.9061">
        <ele>104.398438</ele>
        <time>2016-09-07T11:47:38Z</time>
      </trkpt>
      <trkpt lat="49.69716" lon="-1.90604">
        <ele>104.296875</ele>
        <time>2016-09-07T11:47:40Z</time>
      </trkpt>
      <trkpt lat="49.69683" lon="-1.90577">
        <ele>103.5</ele>
        <time>2016-09-07T11:47:48Z</time>
      </trkpt>
      <trkpt lat="49.69673" lon="-1.90573">
        <ele>103.097656</ele>
        <time>2016-09-07T11:47:50Z</time>
      </trkpt>
      <trkpt lat="49.6963" lon="-1.90556">
        <ele>102.199219</ele>
        <time>2016-09-07T11:47:58Z</time>
      </trkpt>
      <trkpt lat="49.6962" lon="-1.90555">
        <ele>102.398438</ele>
        <time>2016-09-07T11:48:00Z</time>
      </trkpt>
      <trkpt lat="49.69609" lon="-1.90557">
        <ele>102.597656</ele>
        <time>2016-09-07T11:48:02Z</time>
      </trkpt>
      <trkpt lat="49.696" lon="-1.90562">
        <ele>102.898438</ele>
        <time>2016-09-07T11:48:04Z</time>
      </trkpt>
      <trkpt lat="49.69538" lon="-1.90594">
        <ele>104</ele>
        <time>2016-09-07T11:48:22Z</time>
      </trkpt>
      <trkpt lat="49.69499" lon="-1.90609">
        <ele>106.898438</ele>
        <time>2016-09-07T11:48:35Z</time>
      </trkpt>
      <trkpt lat="49.69445" lon="-1.90623">
        <ele>113.796875</ele>
        <time>2016-09-07T11:48:56Z</time>
      </trkpt>
      <trkpt lat="49.69442" lon="-1.90608">
        <ele>114.796875</ele>
        <time>2016-09-07T11:49:02Z</time>
      </trkpt>
      <trkpt lat="49.69439" lon="-1.90594">
        <ele>116</ele>
        <time>2016-09-07T11:49:07Z</time>
      </trkpt>
      <trkpt lat="49.69437" lon="-1.90579">
        <ele>116.5</ele>
        <time>2016-09-07T11:49:13Z</time>
      </trkpt>
      <trkpt lat="49.69436" lon="-1.90563">
        <ele>116.898438</ele>
        <time>2016-09-07T11:49:19Z</time>
      </trkpt>
      <trkpt lat="49.69435" lon="-1.90547">
        <ele>117</ele>
        <time>2016-09-07T11:49:24Z</time>
      </trkpt>
      <trkpt lat="49.69432" lon="-1.90533">
        <ele>117</ele>
        <time>2016-09-07T11:49:27Z</time>
      </trkpt>
      <trkpt lat="49.69426" lon="-1.90503">
        <ele>116.199219</ele>
        <time>2016-09-07T11:49:33Z</time>
      </trkpt>
      <trkpt lat="49.69417" lon="-1.90468">
        <ele>115.199219</ele>
        <time>2016-09-07T11:49:39Z</time>
      </trkpt>
      <trkpt lat="49.69398" lon="-1.90397">
        <ele>112.898438</ele>
        <time>2016-09-07T11:49:49Z</time>
      </trkpt>
      <trkpt lat="49.69397" lon="-1.90381">
        <ele>112.097656</ele>
        <time>2016-09-07T11:49:52Z</time>
      </trkpt>
      <trkpt lat="49.69407" lon="-1.90372">
        <ele>112</ele>
        <time>2016-09-07T11:49:55Z</time>
      </trkpt>
      <trkpt lat="49.69419" lon="-1.90368">
        <ele>111.5</ele>
        <time>2016-09-07T11:49:58Z</time>
      </trkpt>
      <trkpt lat="49.6949" lon="-1.9035">
        <ele>110</ele>
        <time>2016-09-07T11:50:12Z</time>
      </trkpt>
      <trkpt lat="49.695" lon="-1.90349">
        <ele>110.097656</ele>
        <time>2016-09-07T11:50:14Z</time>
      </trkpt>
      <trkpt lat="49.69545" lon="-1.90345">
        <ele>110</ele>
        <time>2016-09-07T11:50:24Z</time>
      </trkpt>
      <trkpt lat="49.69557" lon="-1.90339">
        <ele>108.898438</ele>
        <time>2016-09-07T11:50:27Z</time>
      </trkpt>
      <trkpt lat="49.69562" lon="-1.90319">
        <ele>107.699219</ele>
        <time>2016-09-07T11:50:30Z</time>
      </trkpt>
      <trkpt lat="49.69561" lon="-1.903">
        <ele>105.898438</ele>
        <time>2016-09-07T11:50:32Z</time>
      </trkpt>
      <trkpt lat="49.6956" lon="-1.9025">
        <ele>103.199219</ele>
        <time>2016-09-07T11:50:36Z</time>
      </trkpt>
      <trkpt lat="49.69561" lon="-1.90236">
        <ele>102.296875</ele>
        <time>2016-09-07T11:50:37Z</time>
      </trkpt>
      <trkpt lat="49.69563" lon="-1.90221">
        <ele>101.5</ele>
        <time>2016-09-07T11:50:38Z</time>
      </trkpt>
      <trkpt lat="49.69573" lon="-1.90165">
        <ele>100.097656</ele>
        <time>2016-09-07T11:50:42Z</time>
      </trkpt>
      <trkpt lat="49.6959" lon="-1.90068">
        <ele>102.597656</ele>
        <time>2016-09-07T11:50:51Z</time>
      </trkpt>
      <trkpt lat="49.69595" lon="-1.90055">
        <ele>102.097656</ele>
        <time>2016-09-07T11:50:53Z</time>
      </trkpt>
      <trkpt lat="49.69625" lon="-1.89975">
        <ele>97.5</ele>
        <time>2016-09-07T11:51:03Z</time>
      </trkpt>
      <trkpt lat="49.69632" lon="-1.89961">
        <ele>96.5</ele>
        <time>2016-09-07T11:51:05Z</time>
      </trkpt>
      <trkpt lat="49.69641" lon="-1.89954">
        <ele>96.097656</ele>
        <time>2016-09-07T11:51:07Z</time>
      </trkpt>
      <trkpt lat="49.69649" lon="-1.89944">
        <ele>96.199219</ele>
        <time>2016-09-07T11:51:09Z</time>
      </trkpt>
      <trkpt lat="49.69652" lon="-1.89929">
        <ele>96.699219</ele>
        <time>2016-09-07T11:51:11Z</time>
      </trkpt>
      <trkpt lat="49.69653" lon="-1.89915">
        <ele>97.597656</ele>
        <time>2016-09-07T11:51:13Z</time>
      </trkpt>
      <trkpt lat="49.69653" lon="-1.89899">
        <ele>98.699219</ele>
        <time>2016-09-07T11:51:16Z</time>
      </trkpt>
      <trkpt lat="49.69652" lon="-1.89881">
        <ele>100</ele>
        <time>2016-09-07T11:51:20Z</time>
      </trkpt>
      <trkpt lat="49.69653" lon="-1.89865">
        <ele>101.296875</ele>
        <time>2016-09-07T11:51:24Z</time>
      </trkpt>
      <trkpt lat="49.69655" lon="-1.89851">
        <ele>101.5</ele>
        <time>2016-09-07T11:51:28Z</time>
      </trkpt>
      <trkpt lat="49.69658" lon="-1.89833">
        <ele>101.398438</ele>
        <time>2016-09-07T11:51:32Z</time>
      </trkpt>
      <trkpt lat="49.69662" lon="-1.89818">
        <ele>101.398438</ele>
        <time>2016-09-07T11:51:35Z</time>
      </trkpt>
      <trkpt lat="49.69667" lon="-1.89804">
        <ele>101.296875</ele>
        <time>2016-09-07T11:51:38Z</time>
      </trkpt>
      <trkpt lat="49.69672" lon="-1.89789">
        <ele>100.898438</ele>
        <time>2016-09-07T11:51:41Z</time>
      </trkpt>
      <trkpt lat="49.69717" lon="-1.89682">
        <ele>96.398438</ele>
        <time>2016-09-07T11:51:56Z</time>
      </trkpt>
      <trkpt lat="49.69722" lon="-1.89664">
        <ele>95.796875</ele>
        <time>2016-09-07T11:51:58Z</time>
      </trkpt>
      <trkpt lat="49.69724" lon="-1.89646">
        <ele>94.796875</ele>
        <time>2016-09-07T11:52:00Z</time>
      </trkpt>
      <trkpt lat="49.69725" lon="-1.89627">
        <ele>93</ele>
        <time>2016-09-07T11:52:02Z</time>
      </trkpt>
      <trkpt lat="49.69729" lon="-1.89606">
        <ele>90.5</ele>
        <time>2016-09-07T11:52:04Z</time>
      </trkpt>
      <trkpt lat="49.69737" lon="-1.89584">
        <ele>87.796875</ele>
        <time>2016-09-07T11:52:06Z</time>
      </trkpt>
      <trkpt lat="49.69746" lon="-1.8956">
        <ele>86.296875</ele>
        <time>2016-09-07T11:52:08Z</time>
      </trkpt>
      <trkpt lat="49.69749" lon="-1.89547">
        <ele>84.597656</ele>
        <time>2016-09-07T11:52:09Z</time>
      </trkpt>
      <trkpt lat="49.69751" lon="-1.89533">
        <ele>81.398438</ele>
        <time>2016-09-07T11:52:10Z</time>
      </trkpt>
      <trkpt lat="49.69753" lon="-1.89506">
        <ele>78.398438</ele>
        <time>2016-09-07T11:52:12Z</time>
      </trkpt>
      <trkpt lat="49.69754" lon="-1.89478">
        <ele>76.796875</ele>
        <time>2016-09-07T11:52:14Z</time>
      </trkpt>
      <trkpt lat="49.69753" lon="-1.89401">
        <ele>68.796875</ele>
        <time>2016-09-07T11:52:19Z</time>
      </trkpt>
      <trkpt lat="49.69752" lon="-1.89387">
        <ele>65.796875</ele>
        <time>2016-09-07T11:52:20Z</time>
      </trkpt>
      <trkpt lat="49.69747" lon="-1.89345">
        <ele>61.398438</ele>
        <time>2016-09-07T11:52:23Z</time>
      </trkpt>
      <trkpt lat="49.69741" lon="-1.89318">
        <ele>59.699219</ele>
        <time>2016-09-07T11:52:25Z</time>
      </trkpt>
      <trkpt lat="49.69737" lon="-1.89304">
        <ele>57.5</ele>
        <time>2016-09-07T11:52:26Z</time>
      </trkpt>
      <trkpt lat="49.69735" lon="-1.8929">
        <ele>55.398438</ele>
        <time>2016-09-07T11:52:27Z</time>
      </trkpt>
      <trkpt lat="49.69733" lon="-1.89274">
        <ele>53.097656</ele>
        <time>2016-09-07T11:52:28Z</time>
      </trkpt>
      <trkpt lat="49.6973" lon="-1.89241">
        <ele>50.097656</ele>
        <time>2016-09-07T11:52:30Z</time>
      </trkpt>
      <trkpt lat="49.69727" lon="-1.89224">
        <ele>48.898438</ele>
        <time>2016-09-07T11:52:31Z</time>
      </trkpt>
      <trkpt lat="49.6972" lon="-1.8919">
        <ele>47.097656</ele>
        <time>2016-09-07T11:52:33Z</time>
      </trkpt>
      <trkpt lat="49.69716" lon="-1.89173">
        <ele>46.398438</ele>
        <time>2016-09-07T11:52:34Z</time>
      </trkpt>
      <trkpt lat="49.69711" lon="-1.89156">
        <ele>46.199219</ele>
        <time>2016-09-07T11:52:35Z</time>
      </trkpt>
      <trkpt lat="49.69705" lon="-1.8914">
        <ele>46.097656</ele>
        <time>2016-09-07T11:52:36Z</time>
      </trkpt>
      <trkpt lat="49.69693" lon="-1.89111">
        <ele>46.699219</ele>
        <time>2016-09-07T11:52:38Z</time>
      </trkpt>
      <trkpt lat="49.69682" lon="-1.89086">
        <ele>48.796875</ele>
        <time>2016-09-07T11:52:40Z</time>
      </trkpt>
      <trkpt lat="49.6968" lon="-1.89068">
        <ele>50.199219</ele>
        <time>2016-09-07T11:52:42Z</time>
      </trkpt>
      <trkpt lat="49.69688" lon="-1.89054">
        <ele>51.199219</ele>
        <time>2016-09-07T11:52:45Z</time>
      </trkpt>
      <trkpt lat="49.69697" lon="-1.89044">
        <ele>51.898438</ele>
        <time>2016-09-07T11:52:48Z</time>
      </trkpt>
      <trkpt lat="49.69716" lon="-1.89023">
        <ele>53</ele>
        <time>2016-09-07T11:52:54Z</time>
      </trkpt>
      <trkpt lat="49.69724" lon="-1.8901">
        <ele>53.699219</ele>
        <time>2016-09-07T11:52:57Z</time>
      </trkpt>
      <trkpt lat="49.6973" lon="-1.88996">
        <ele>54.398438</ele>
        <time>2016-09-07T11:53:00Z</time>
      </trkpt>
      <trkpt lat="49.69735" lon="-1.88982">
        <ele>55</ele>
        <time>2016-09-07T11:53:03Z</time>
      </trkpt>
      <trkpt lat="49.69755" lon="-1.88913">
        <ele>58.699219</ele>
        <time>2016-09-07T11:53:18Z</time>
      </trkpt>
      <trkpt lat="49.69758" lon="-1.88897">
        <ele>60.296875</ele>
        <time>2016-09-07T11:53:22Z</time>
      </trkpt>
      <trkpt lat="49.69758" lon="-1.88879">
        <ele>62.199219</ele>
        <time>2016-09-07T11:53:26Z</time>
      </trkpt>
      <trkpt lat="49.69758" lon="-1.88843">
        <ele>64.097656</ele>
        <time>2016-09-07T11:53:34Z</time>
      </trkpt>
      <trkpt lat="49.69754" lon="-1.88753">
        <ele>64.597656</ele>
        <time>2016-09-07T11:53:52Z</time>
      </trkpt>
      <trkpt lat="49.69752" lon="-1.88738">
        <ele>64.398438</ele>
        <time>2016-09-07T11:53:56Z</time>
      </trkpt>
      <trkpt lat="49.69746" lon="-1.88727">
        <ele>65.699219</ele>
        <time>2016-09-07T11:54:03Z</time>
      </trkpt>
      <trkpt lat="49.69736" lon="-1.88733">
        <ele>66.699219</ele>
        <time>2016-09-07T11:54:09Z</time>
      </trkpt>
      <trkpt lat="49.69727" lon="-1.88739">
        <ele>67.796875</ele>
        <time>2016-09-07T11:54:14Z</time>
      </trkpt>
      <trkpt lat="49.69717" lon="-1.8874">
        <ele>72.398438</ele>
        <time>2016-09-07T11:54:19Z</time>
      </trkpt>
      <trkpt lat="49.69717" lon="-1.88725">
        <ele>72.097656</ele>
        <time>2016-09-07T11:56:40Z</time>
      </trkpt>
      <trkpt lat="49.69714" lon="-1.88711">
        <ele>71.898438</ele>
        <time>2016-09-07T11:56:46Z</time>
      </trkpt>
      <trkpt lat="49.6966" lon="-1.8849">
        <ele>60.097656</ele>
        <time>2016-09-07T11:57:15Z</time>
      </trkpt>
      <trkpt lat="49.69651" lon="-1.8848">
        <ele>59.296875</ele>
        <time>2016-09-07T11:57:17Z</time>
      </trkpt>
      <trkpt lat="49.6964" lon="-1.88473">
        <ele>58.699219</ele>
        <time>2016-09-07T11:57:19Z</time>
      </trkpt>
      <trkpt lat="49.6963" lon="-1.88466">
        <ele>57.699219</ele>
        <time>2016-09-07T11:57:21Z</time>
      </trkpt>
      <trkpt lat="49.69621" lon="-1.88458">
        <ele>57.5</ele>
        <time>2016-09-07T11:57:23Z</time>
      </trkpt>
      <trkpt lat="49.69613" lon="-1.88443">
        <ele>58.296875</ele>
        <time>2016-09-07T11:57:26Z</time>
      </trkpt>
      <trkpt lat="49.69611" lon="-1.88429">
        <ele>58.296875</ele>
        <time>2016-09-07T11:57:29Z</time>
      </trkpt>
      <trkpt lat="49.69618" lon="-1.88415">
        <ele>57.699219</ele>
        <time>2016-09-07T11:57:33Z</time>
      </trkpt>
      <trkpt lat="49.69625" lon="-1.884">
        <ele>57.199219</ele>
        <time>2016-09-07T11:57:36Z</time>
      </trkpt>
      <trkpt lat="49.69634" lon="-1.88393">
        <ele>56.597656</ele>
        <time>2016-09-07T11:57:38Z</time>
      </trkpt>
      <trkpt lat="49.69644" lon="-1.88395">
        <ele>56</ele>
        <time>2016-09-07T11:57:40Z</time>
      </trkpt>
      <trkpt lat="49.69655" lon="-1.88401">
        <ele>55</ele>
        <time>2016-09-07T11:57:42Z</time>
      </trkpt>
      <trkpt lat="49.69666" lon="-1.88408">
        <ele>54.5</ele>
        <time>2016-09-07T11:57:44Z</time>
      </trkpt>
      <trkpt lat="49.69678" lon="-1.88415">
        <ele>54.199219</ele>
        <time>2016-09-07T11:57:46Z</time>
      </trkpt>
      <trkpt lat="49.69745" lon="-1.88446">
        <ele>51.097656</ele>
        <time>2016-09-07T11:57:56Z</time>
      </trkpt>
      <trkpt lat="49.69761" lon="-1.88452">
        <ele>49.796875</ele>
        <time>2016-09-07T11:57:58Z</time>
      </trkpt>
      <trkpt lat="49.69778" lon="-1.88454">
        <ele>48.199219</ele>
        <time>2016-09-07T11:58:00Z</time>
      </trkpt>
      <trkpt lat="49.69816" lon="-1.88458">
        <ele>45.296875</ele>
        <time>2016-09-07T11:58:04Z</time>
      </trkpt>
      <trkpt lat="49.69847" lon="-1.88458">
        <ele>41.796875</ele>
        <time>2016-09-07T11:58:07Z</time>
      </trkpt>
      <trkpt lat="49.69857" lon="-1.88457">
        <ele>40</ele>
        <time>2016-09-07T11:58:08Z</time>
      </trkpt>
      <trkpt lat="49.69874" lon="-1.8845">
        <ele>39</ele>
        <time>2016-09-07T11:58:10Z</time>
      </trkpt>
      <trkpt lat="49.69887" lon="-1.88433">
        <ele>38.398438</ele>
        <time>2016-09-07T11:58:12Z</time>
      </trkpt>
      <trkpt lat="49.69906" lon="-1.88405">
        <ele>37.398438</ele>
        <time>2016-09-07T11:58:16Z</time>
      </trkpt>
      <trkpt lat="49.69922" lon="-1.88377">
        <ele>36</ele>
        <time>2016-09-07T11:58:20Z</time>
      </trkpt>
      <trkpt lat="49.6993" lon="-1.8836">
        <ele>35.398438</ele>
        <time>2016-09-07T11:58:22Z</time>
      </trkpt>
      <trkpt lat="49.69936" lon="-1.88341">
        <ele>34.796875</ele>
        <time>2016-09-07T11:58:24Z</time>
      </trkpt>
      <trkpt lat="49.69961" lon="-1.88265">
        <ele>33</ele>
        <time>2016-09-07T11:58:34Z</time>
      </trkpt>
      <trkpt lat="49.69966" lon="-1.88253">
        <ele>33.5</ele>
        <time>2016-09-07T11:58:36Z</time>
      </trkpt>
      <trkpt lat="49.69957" lon="-1.88258">
        <ele>40.699219</ele>
        <time>2016-09-07T11:58:55Z</time>
      </trkpt>
      <trkpt lat="49.69962" lon="-1.88246">
        <ele>40.199219</ele>
        <time>2016-09-07T12:02:43Z</time>
      </trkpt>
      <trkpt lat="49.69972" lon="-1.88241">
        <ele>39.398438</ele>
        <time>2016-09-07T12:02:47Z</time>
      </trkpt>
      <trkpt lat="49.69981" lon="-1.88232">
        <ele>38.5</ele>
        <time>2016-09-07T12:02:50Z</time>
      </trkpt>
      <trkpt lat="49.6999" lon="-1.88225">
        <ele>37.699219</ele>
        <time>2016-09-07T12:02:52Z</time>
      </trkpt>
      <trkpt lat="49.69999" lon="-1.88215">
        <ele>36.699219</ele>
        <time>2016-09-07T12:02:54Z</time>
      </trkpt>
      <trkpt lat="49.70008" lon="-1.88202">
        <ele>35.898438</ele>
        <time>2016-09-07T12:02:56Z</time>
      </trkpt>
      <trkpt lat="49.70017" lon="-1.88187">
        <ele>35.296875</ele>
        <time>2016-09-07T12:02:58Z</time>
      </trkpt>
      <trkpt lat="49.70035" lon="-1.88158">
        <ele>35.296875</ele>
        <time>2016-09-07T12:03:02Z</time>
      </trkpt>
      <trkpt lat="49.70043" lon="-1.88143">
        <ele>34.898438</ele>
        <time>2016-09-07T12:03:04Z</time>
      </trkpt>
      <trkpt lat="49.70049" lon="-1.88128">
        <ele>34</ele>
        <time>2016-09-07T12:03:06Z</time>
      </trkpt>
      <trkpt lat="49.70052" lon="-1.8811">
        <ele>33.199219</ele>
        <time>2016-09-07T12:03:08Z</time>
      </trkpt>
      <trkpt lat="49.70054" lon="-1.8809">
        <ele>32.5</ele>
        <time>2016-09-07T12:03:10Z</time>
      </trkpt>
      <trkpt lat="49.70055" lon="-1.88069">
        <ele>32.199219</ele>
        <time>2016-09-07T12:03:12Z</time>
      </trkpt>
      <trkpt lat="49.70055" lon="-1.88049">
        <ele>32.097656</ele>
        <time>2016-09-07T12:03:14Z</time>
      </trkpt>
      <trkpt lat="49.70053" lon="-1.8803">
        <ele>31.5</ele>
        <time>2016-09-07T12:03:16Z</time>
      </trkpt>
      <trkpt lat="49.70048" lon="-1.87993">
        <ele>31.699219</ele>
        <time>2016-09-07T12:03:20Z</time>
      </trkpt>
      <trkpt lat="49.70045" lon="-1.87976">
        <ele>31.398438</ele>
        <time>2016-09-07T12:03:22Z</time>
      </trkpt>
      <trkpt lat="49.70037" lon="-1.87928">
        <ele>31.296875</ele>
        <time>2016-09-07T12:03:28Z</time>
      </trkpt>
      <trkpt lat="49.70034" lon="-1.87896">
        <ele>30.199219</ele>
        <time>2016-09-07T12:03:32Z</time>
      </trkpt>
      <trkpt lat="49.70035" lon="-1.87876">
        <ele>28.796875</ele>
        <time>2016-09-07T12:03:35Z</time>
      </trkpt>
      <trkpt lat="49.70041" lon="-1.87866">
        <ele>27.796875</ele>
        <time>2016-09-07T12:03:37Z</time>
      </trkpt>
      <trkpt lat="49.70048" lon="-1.87854">
        <ele>26.398438</ele>
        <time>2016-09-07T12:03:39Z</time>
      </trkpt>
      <trkpt lat="49.70055" lon="-1.87839">
        <ele>25.597656</ele>
        <time>2016-09-07T12:03:41Z</time>
      </trkpt>
      <trkpt lat="49.70064" lon="-1.87825">
        <ele>25.296875</ele>
        <time>2016-09-07T12:03:43Z</time>
      </trkpt>
      <trkpt lat="49.70076" lon="-1.87815">
        <ele>25.597656</ele>
        <time>2016-09-07T12:03:45Z</time>
      </trkpt>
      <trkpt lat="49.70095" lon="-1.87797">
        <ele>27.398438</ele>
        <time>2016-09-07T12:03:49Z</time>
      </trkpt>
      <trkpt lat="49.70104" lon="-1.87785">
        <ele>28.796875</ele>
        <time>2016-09-07T12:03:52Z</time>
      </trkpt>
      <trkpt lat="49.70109" lon="-1.87773">
        <ele>29.699219</ele>
        <time>2016-09-07T12:03:55Z</time>
      </trkpt>
      <trkpt lat="49.70111" lon="-1.87758">
        <ele>30</ele>
        <time>2016-09-07T12:03:58Z</time>
      </trkpt>
      <trkpt lat="49.70112" lon="-1.87744">
        <ele>30.097656</ele>
        <time>2016-09-07T12:04:01Z</time>
      </trkpt>
      <trkpt lat="49.70112" lon="-1.87728">
        <ele>29.199219</ele>
        <time>2016-09-07T12:04:04Z</time>
      </trkpt>
      <trkpt lat="49.7011" lon="-1.87694">
        <ele>27.796875</ele>
        <time>2016-09-07T12:04:09Z</time>
      </trkpt>
      <trkpt lat="49.70111" lon="-1.87678">
        <ele>26.898438</ele>
        <time>2016-09-07T12:04:11Z</time>
      </trkpt>
      <trkpt lat="49.70114" lon="-1.8766">
        <ele>26.5</ele>
        <time>2016-09-07T12:04:13Z</time>
      </trkpt>
      <trkpt lat="49.70119" lon="-1.87626">
        <ele>25.398438</ele>
        <time>2016-09-07T12:04:17Z</time>
      </trkpt>
      <trkpt lat="49.70123" lon="-1.87613">
        <ele>23.796875</ele>
        <time>2016-09-07T12:04:20Z</time>
      </trkpt>
      <trkpt lat="49.70131" lon="-1.87604">
        <ele>22.5</ele>
        <time>2016-09-07T12:04:25Z</time>
      </trkpt>
      <trkpt lat="49.70133" lon="-1.8759">
        <ele>23.199219</ele>
        <time>2016-09-07T12:04:30Z</time>
      </trkpt>
      <trkpt lat="49.70126" lon="-1.87575">
        <ele>23.398438</ele>
        <time>2016-09-07T12:04:34Z</time>
      </trkpt>
      <trkpt lat="49.70121" lon="-1.87562">
        <ele>23.597656</ele>
        <time>2016-09-07T12:04:37Z</time>
      </trkpt>
      <trkpt lat="49.70116" lon="-1.87547">
        <ele>23.796875</ele>
        <time>2016-09-07T12:04:40Z</time>
      </trkpt>
      <trkpt lat="49.70109" lon="-1.87518">
        <ele>25</ele>
        <time>2016-09-07T12:04:46Z</time>
      </trkpt>
      <trkpt lat="49.70102" lon="-1.87487">
        <ele>26</ele>
        <time>2016-09-07T12:04:52Z</time>
      </trkpt>
      <trkpt lat="49.70097" lon="-1.87472">
        <ele>26.199219</ele>
        <time>2016-09-07T12:04:55Z</time>
      </trkpt>
      <trkpt lat="49.70051" lon="-1.87342">
        <ele>27.898438</ele>
        <time>2016-09-07T12:05:22Z</time>
      </trkpt>
      <trkpt lat="49.70044" lon="-1.87329">
        <ele>27.699219</ele>
        <time>2016-09-07T12:05:25Z</time>
      </trkpt>
      <trkpt lat="49.70037" lon="-1.87317">
        <ele>27.5</ele>
        <time>2016-09-07T12:05:28Z</time>
      </trkpt>
      <trkpt lat="49.69976" lon="-1.87208">
        <ele>29.398438</ele>
        <time>2016-09-07T12:05:52Z</time>
      </trkpt>
      <trkpt lat="49.69971" lon="-1.87196">
        <ele>29.5</ele>
        <time>2016-09-07T12:05:54Z</time>
      </trkpt>
      <trkpt lat="49.69946" lon="-1.87129">
        <ele>28.097656</ele>
        <time>2016-09-07T12:06:04Z</time>
      </trkpt>
      <trkpt lat="49.69939" lon="-1.87115">
        <ele>27.597656</ele>
        <time>2016-09-07T12:06:06Z</time>
      </trkpt>
      <trkpt lat="49.6993" lon="-1.87103">
        <ele>27.097656</ele>
        <time>2016-09-07T12:06:08Z</time>
      </trkpt>
      <trkpt lat="49.69919" lon="-1.87094">
        <ele>25.796875</ele>
        <time>2016-09-07T12:06:10Z</time>
      </trkpt>
      <trkpt lat="49.69909" lon="-1.87086">
        <ele>25.199219</ele>
        <time>2016-09-07T12:06:12Z</time>
      </trkpt>
      <trkpt lat="49.699" lon="-1.8707">
        <ele>24.898438</ele>
        <time>2016-09-07T12:06:14Z</time>
      </trkpt>
      <trkpt lat="49.69892" lon="-1.87053">
        <ele>24.796875</ele>
        <time>2016-09-07T12:06:16Z</time>
      </trkpt>
      <trkpt lat="49.69886" lon="-1.87036">
        <ele>24.796875</ele>
        <time>2016-09-07T12:06:18Z</time>
      </trkpt>
      <trkpt lat="49.69877" lon="-1.87009">
        <ele>25.097656</ele>
        <time>2016-09-07T12:06:24Z</time>
      </trkpt>
      <trkpt lat="49.69885" lon="-1.87004">
        <ele>24.199219</ele>
        <time>2016-09-07T12:06:40Z</time>
      </trkpt>
      <trkpt lat="49.69894" lon="-1.87002">
        <ele>22.898438</ele>
        <time>2016-09-07T12:06:45Z</time>
      </trkpt>
      <trkpt lat="49.69906" lon="-1.87">
        <ele>22.199219</ele>
        <time>2016-09-07T12:06:54Z</time>
      </trkpt>
      <trkpt lat="49.69918" lon="-1.87005">
        <ele>22</ele>
        <time>2016-09-07T12:06:57Z</time>
      </trkpt>
      <trkpt lat="49.69946" lon="-1.87021">
        <ele>22.398438</ele>
        <time>2016-09-07T12:07:03Z</time>
      </trkpt>
      <trkpt lat="49.69957" lon="-1.87023">
        <ele>23.097656</ele>
        <time>2016-09-07T12:07:05Z</time>
      </trkpt>
      <trkpt lat="49.69988" lon="-1.87031">
        <ele>26.5</ele>
        <time>2016-09-07T12:07:11Z</time>
      </trkpt>
      <trkpt lat="49.7" lon="-1.8704">
        <ele>26.199219</ele>
        <time>2016-09-07T12:07:14Z</time>
      </trkpt>
      <trkpt lat="49.70068" lon="-1.8709">
        <ele>20.796875</ele>
        <time>2016-09-07T12:07:29Z</time>
      </trkpt>
      <trkpt lat="49.70078" lon="-1.87101">
        <ele>20.597656</ele>
        <time>2016-09-07T12:07:31Z</time>
      </trkpt>
      <trkpt lat="49.70096" lon="-1.87123">
        <ele>20.199219</ele>
        <time>2016-09-07T12:07:35Z</time>
      </trkpt>
      <trkpt lat="49.70104" lon="-1.87134">
        <ele>19.898438</ele>
        <time>2016-09-07T12:07:37Z</time>
      </trkpt>
      <trkpt lat="49.70112" lon="-1.87146">
        <ele>19.898438</ele>
        <time>2016-09-07T12:07:39Z</time>
      </trkpt>
      <trkpt lat="49.70149" lon="-1.87209">
        <ele>21.296875</ele>
        <time>2016-09-07T12:07:51Z</time>
      </trkpt>
      <trkpt lat="49.70158" lon="-1.8722">
        <ele>20.398438</ele>
        <time>2016-09-07T12:07:54Z</time>
      </trkpt>
      <trkpt lat="49.70174" lon="-1.87239">
        <ele>22</ele>
        <time>2016-09-07T12:08:00Z</time>
      </trkpt>
      <trkpt lat="49.70195" lon="-1.87259">
        <ele>22</ele>
        <time>2016-09-07T12:08:06Z</time>
      </trkpt>
      <trkpt lat="49.70213" lon="-1.87275">
        <ele>20.398438</ele>
        <time>2016-09-07T12:08:10Z</time>
      </trkpt>
      <trkpt lat="49.70222" lon="-1.87288">
        <ele>20.699219</ele>
        <time>2016-09-07T12:08:12Z</time>
      </trkpt>
      <trkpt lat="49.70255" lon="-1.87331">
        <ele>18.796875</ele>
        <time>2016-09-07T12:08:20Z</time>
      </trkpt>
      <trkpt lat="49.70264" lon="-1.8734">
        <ele>18.097656</ele>
        <time>2016-09-07T12:08:22Z</time>
      </trkpt>
      <trkpt lat="49.70305" lon="-1.87375">
        <ele>13.296875</ele>
        <time>2016-09-07T12:08:30Z</time>
      </trkpt>
      <trkpt lat="49.70316" lon="-1.87382">
        <ele>12.296875</ele>
        <time>2016-09-07T12:08:33Z</time>
      </trkpt>
      <trkpt lat="49.70329" lon="-1.87384">
        <ele>11</ele>
        <time>2016-09-07T12:08:36Z</time>
      </trkpt>
      <trkpt lat="49.70339" lon="-1.8738">
        <ele>9.296875</ele>
        <time>2016-09-07T12:08:39Z</time>
      </trkpt>
      <trkpt lat="49.70347" lon="-1.87371">
        <ele>10.597656</ele>
        <time>2016-09-07T12:08:43Z</time>
      </trkpt>
      <trkpt lat="49.70352" lon="-1.87356">
        <ele>12.097656</ele>
        <time>2016-09-07T12:08:48Z</time>
      </trkpt>
      <trkpt lat="49.70355" lon="-1.87343">
        <ele>13.398438</ele>
        <time>2016-09-07T12:08:52Z</time>
      </trkpt>
      <trkpt lat="49.70372" lon="-1.8727">
        <ele>20.796875</ele>
        <time>2016-09-07T12:09:13Z</time>
      </trkpt>
      <trkpt lat="49.70378" lon="-1.87258">
        <ele>22.296875</ele>
        <time>2016-09-07T12:09:17Z</time>
      </trkpt>
      <trkpt lat="49.70384" lon="-1.87247">
        <ele>24.398438</ele>
        <time>2016-09-07T12:09:21Z</time>
      </trkpt>
      <trkpt lat="49.7039" lon="-1.87232">
        <ele>26.199219</ele>
        <time>2016-09-07T12:09:26Z</time>
      </trkpt>
      <trkpt lat="49.70393" lon="-1.87217">
        <ele>27.597656</ele>
        <time>2016-09-07T12:09:31Z</time>
      </trkpt>
      <trkpt lat="49.70406" lon="-1.87154">
        <ele>33.898438</ele>
        <time>2016-09-07T12:09:51Z</time>
      </trkpt>
      <trkpt lat="49.7041" lon="-1.87139">
        <ele>35.398438</ele>
        <time>2016-09-07T12:09:56Z</time>
      </trkpt>
      <trkpt lat="49.70415" lon="-1.87125">
        <ele>36.597656</ele>
        <time>2016-09-07T12:10:01Z</time>
      </trkpt>
      <trkpt lat="49.70422" lon="-1.87113">
        <ele>38</ele>
        <time>2016-09-07T12:10:06Z</time>
      </trkpt>
      <trkpt lat="49.70429" lon="-1.871">
        <ele>40</ele>
        <time>2016-09-07T12:10:11Z</time>
      </trkpt>
      <trkpt lat="49.7043" lon="-1.87085">
        <ele>41.898438</ele>
        <time>2016-09-07T12:10:16Z</time>
      </trkpt>
      <trkpt lat="49.7042" lon="-1.8708">
        <ele>43.796875</ele>
        <time>2016-09-07T12:10:21Z</time>
      </trkpt>
      <trkpt lat="49.70411" lon="-1.87075">
        <ele>42.796875</ele>
        <time>2016-09-07T12:10:26Z</time>
      </trkpt>
      <trkpt lat="49.70417" lon="-1.87086">
        <ele>46.796875</ele>
        <time>2016-09-07T12:11:06Z</time>
      </trkpt>
      <trkpt lat="49.70413" lon="-1.87074">
        <ele>47.796875</ele>
        <time>2016-09-07T12:19:24Z</time>
      </trkpt>
      <trkpt lat="49.70411" lon="-1.87059">
        <ele>48.398438</ele>
        <time>2016-09-07T12:19:29Z</time>
      </trkpt>
      <trkpt lat="49.70412" lon="-1.87043">
        <ele>49.5</ele>
        <time>2016-09-07T12:19:34Z</time>
      </trkpt>
      <trkpt lat="49.70412" lon="-1.87027">
        <ele>50.199219</ele>
        <time>2016-09-07T12:19:39Z</time>
      </trkpt>
      <trkpt lat="49.70411" lon="-1.87013">
        <ele>51</ele>
        <time>2016-09-07T12:19:44Z</time>
      </trkpt>
      <trkpt lat="49.70408" lon="-1.86996">
        <ele>51.796875</ele>
        <time>2016-09-07T12:19:48Z</time>
      </trkpt>
      <trkpt lat="49.70405" lon="-1.8698">
        <ele>52.097656</ele>
        <time>2016-09-07T12:19:52Z</time>
      </trkpt>
      <trkpt lat="49.70401" lon="-1.86965">
        <ele>52.5</ele>
        <time>2016-09-07T12:19:56Z</time>
      </trkpt>
      <trkpt lat="49.70393" lon="-1.86938">
        <ele>54</ele>
        <time>2016-09-07T12:20:04Z</time>
      </trkpt>
      <trkpt lat="49.70392" lon="-1.86923">
        <ele>54.796875</ele>
        <time>2016-09-07T12:20:08Z</time>
      </trkpt>
      <trkpt lat="49.7039" lon="-1.86907">
        <ele>55.296875</ele>
        <time>2016-09-07T12:20:12Z</time>
      </trkpt>
      <trkpt lat="49.70387" lon="-1.86892">
        <ele>55.796875</ele>
        <time>2016-09-07T12:20:16Z</time>
      </trkpt>
      <trkpt lat="49.70381" lon="-1.86863">
        <ele>56.398438</ele>
        <time>2016-09-07T12:20:24Z</time>
      </trkpt>
      <trkpt lat="49.7036" lon="-1.86786">
        <ele>56.796875</ele>
        <time>2016-09-07T12:20:44Z</time>
      </trkpt>
      <trkpt lat="49.70355" lon="-1.86773">
        <ele>56.699219</ele>
        <time>2016-09-07T12:20:47Z</time>
      </trkpt>
      <trkpt lat="49.7035" lon="-1.86758">
        <ele>56.597656</ele>
        <time>2016-09-07T12:20:50Z</time>
      </trkpt>
      <trkpt lat="49.70345" lon="-1.86743">
        <ele>56.699219</ele>
        <time>2016-09-07T12:20:53Z</time>
      </trkpt>
      <trkpt lat="49.70341" lon="-1.86726">
        <ele>56.898438</ele>
        <time>2016-09-07T12:20:56Z</time>
      </trkpt>
      <trkpt lat="49.70335" lon="-1.86692">
        <ele>57.097656</ele>
        <time>2016-09-07T12:21:02Z</time>
      </trkpt>
      <trkpt lat="49.70332" lon="-1.86675">
        <ele>57.296875</ele>
        <time>2016-09-07T12:21:05Z</time>
      </trkpt>
      <trkpt lat="49.70331" lon="-1.86658">
        <ele>57.398438</ele>
        <time>2016-09-07T12:21:08Z</time>
      </trkpt>
      <trkpt lat="49.70329" lon="-1.86641">
        <ele>57.597656</ele>
        <time>2016-09-07T12:21:11Z</time>
      </trkpt>
      <trkpt lat="49.70321" lon="-1.86541">
        <ele>56.597656</ele>
        <time>2016-09-07T12:21:26Z</time>
      </trkpt>
      <trkpt lat="49.70317" lon="-1.86528">
        <ele>56.699219</ele>
        <time>2016-09-07T12:21:28Z</time>
      </trkpt>
      <trkpt lat="49.70313" lon="-1.86515">
        <ele>56.597656</ele>
        <time>2016-09-07T12:21:30Z</time>
      </trkpt>
      <trkpt lat="49.70306" lon="-1.86497">
        <ele>56.597656</ele>
        <time>2016-09-07T12:21:33Z</time>
      </trkpt>
      <trkpt lat="49.70294" lon="-1.86469">
        <ele>56.5</ele>
        <time>2016-09-07T12:21:38Z</time>
      </trkpt>
      <trkpt lat="49.70288" lon="-1.86458">
        <ele>56.398438</ele>
        <time>2016-09-07T12:21:40Z</time>
      </trkpt>
      <trkpt lat="49.70282" lon="-1.86447">
        <ele>56.097656</ele>
        <time>2016-09-07T12:21:42Z</time>
      </trkpt>
      <trkpt lat="49.70275" lon="-1.86437">
        <ele>55.597656</ele>
        <time>2016-09-07T12:21:44Z</time>
      </trkpt>
      <trkpt lat="49.70268" lon="-1.86427">
        <ele>55.199219</ele>
        <time>2016-09-07T12:21:46Z</time>
      </trkpt>
      <trkpt lat="49.70251" lon="-1.86407">
        <ele>53.699219</ele>
        <time>2016-09-07T12:21:50Z</time>
      </trkpt>
      <trkpt lat="49.70242" lon="-1.86395">
        <ele>53.296875</ele>
        <time>2016-09-07T12:21:52Z</time>
      </trkpt>
      <trkpt lat="49.70234" lon="-1.86381">
        <ele>53.199219</ele>
        <time>2016-09-07T12:21:54Z</time>
      </trkpt>
      <trkpt lat="49.70228" lon="-1.86365">
        <ele>53.097656</ele>
        <time>2016-09-07T12:21:56Z</time>
      </trkpt>
      <trkpt lat="49.70223" lon="-1.86347">
        <ele>52.796875</ele>
        <time>2016-09-07T12:21:58Z</time>
      </trkpt>
      <trkpt lat="49.70219" lon="-1.86331">
        <ele>52.796875</ele>
        <time>2016-09-07T12:22:00Z</time>
      </trkpt>
      <trkpt lat="49.70202" lon="-1.86251">
        <ele>51.398438</ele>
        <time>2016-09-07T12:22:11Z</time>
      </trkpt>
      <trkpt lat="49.70201" lon="-1.86235">
        <ele>52.597656</ele>
        <time>2016-09-07T12:22:17Z</time>
      </trkpt>
      <trkpt lat="49.70212" lon="-1.8623">
        <ele>53.796875</ele>
        <time>2016-09-07T12:22:23Z</time>
      </trkpt>
      <trkpt lat="49.70222" lon="-1.86227">
        <ele>55</ele>
        <time>2016-09-07T12:22:27Z</time>
      </trkpt>
      <trkpt lat="49.70283" lon="-1.86208">
        <ele>63.398438</ele>
        <time>2016-09-07T12:22:51Z</time>
      </trkpt>
      <trkpt lat="49.70291" lon="-1.86202">
        <ele>65.898438</ele>
        <time>2016-09-07T12:22:55Z</time>
      </trkpt>
      <trkpt lat="49.70299" lon="-1.86196">
        <ele>66.597656</ele>
        <time>2016-09-07T12:22:59Z</time>
      </trkpt>
      <trkpt lat="49.7031" lon="-1.86192">
        <ele>66.5</ele>
        <time>2016-09-07T12:23:03Z</time>
      </trkpt>
      <trkpt lat="49.70337" lon="-1.86177">
        <ele>66.097656</ele>
        <time>2016-09-07T12:23:12Z</time>
      </trkpt>
      <trkpt lat="49.70346" lon="-1.86176">
        <ele>65.398438</ele>
        <time>2016-09-07T12:23:15Z</time>
      </trkpt>
      <trkpt lat="49.70357" lon="-1.86177">
        <ele>65.097656</ele>
        <time>2016-09-07T12:23:21Z</time>
      </trkpt>
      <trkpt lat="49.70367" lon="-1.86176">
        <ele>65</ele>
        <time>2016-09-07T12:23:25Z</time>
      </trkpt>
      <trkpt lat="49.70375" lon="-1.86168">
        <ele>68.296875</ele>
        <time>2016-09-07T12:23:29Z</time>
      </trkpt>
      <trkpt lat="49.70384" lon="-1.86167">
        <ele>68.097656</ele>
        <time>2016-09-07T12:23:56Z</time>
      </trkpt>
      <trkpt lat="49.70396" lon="-1.86165">
        <ele>68.597656</ele>
        <time>2016-09-07T12:24:00Z</time>
      </trkpt>
      <trkpt lat="49.70405" lon="-1.86161">
        <ele>68.796875</ele>
        <time>2016-09-07T12:24:03Z</time>
      </trkpt>
      <trkpt lat="49.70415" lon="-1.86155">
        <ele>68.796875</ele>
        <time>2016-09-07T12:24:06Z</time>
      </trkpt>
      <trkpt lat="49.70424" lon="-1.86145">
        <ele>68.796875</ele>
        <time>2016-09-07T12:24:09Z</time>
      </trkpt>
      <trkpt lat="49.70431" lon="-1.86134">
        <ele>68.796875</ele>
        <time>2016-09-07T12:24:12Z</time>
      </trkpt>
      <trkpt lat="49.70437" lon="-1.86122">
        <ele>68.296875</ele>
        <time>2016-09-07T12:24:16Z</time>
      </trkpt>
      <trkpt lat="49.70448" lon="-1.86097">
        <ele>68.296875</ele>
        <time>2016-09-07T12:24:23Z</time>
      </trkpt>
      <trkpt lat="49.70453" lon="-1.86084">
        <ele>68.296875</ele>
        <time>2016-09-07T12:24:26Z</time>
      </trkpt>
      <trkpt lat="49.70457" lon="-1.8607">
        <ele>68.296875</ele>
        <time>2016-09-07T12:24:29Z</time>
      </trkpt>
      <trkpt lat="49.70458" lon="-1.86054">
        <ele>68.296875</ele>
        <time>2016-09-07T12:24:32Z</time>
      </trkpt>
      <trkpt lat="49.70458" lon="-1.86038">
        <ele>68.398438</ele>
        <time>2016-09-07T12:24:35Z</time>
      </trkpt>
      <trkpt lat="49.70461" lon="-1.86023">
        <ele>68.5</ele>
        <time>2016-09-07T12:24:38Z</time>
      </trkpt>
      <trkpt lat="49.70461" lon="-1.86008">
        <ele>68.796875</ele>
        <time>2016-09-07T12:24:41Z</time>
      </trkpt>
      <trkpt lat="49.7046" lon="-1.85993">
        <ele>69.296875</ele>
        <time>2016-09-07T12:24:44Z</time>
      </trkpt>
      <trkpt lat="49.70453" lon="-1.85978">
        <ele>70.398438</ele>
        <time>2016-09-07T12:24:48Z</time>
      </trkpt>
      <trkpt lat="49.70448" lon="-1.85963">
        <ele>71.597656</ele>
        <time>2016-09-07T12:24:52Z</time>
      </trkpt>
      <trkpt lat="49.70446" lon="-1.85947">
        <ele>72</ele>
        <time>2016-09-07T12:24:56Z</time>
      </trkpt>
      <trkpt lat="49.70445" lon="-1.85929">
        <ele>72.097656</ele>
        <time>2016-09-07T12:25:00Z</time>
      </trkpt>
      <trkpt lat="49.70439" lon="-1.8584">
        <ele>75.296875</ele>
        <time>2016-09-07T12:25:21Z</time>
      </trkpt>
      <trkpt lat="49.70437" lon="-1.85825">
        <ele>76.5</ele>
        <time>2016-09-07T12:25:25Z</time>
      </trkpt>
      <trkpt lat="49.70431" lon="-1.85795">
        <ele>78.296875</ele>
        <time>2016-09-07T12:25:33Z</time>
      </trkpt>
      <trkpt lat="49.70423" lon="-1.85785">
        <ele>78.097656</ele>
        <time>2016-09-07T12:25:37Z</time>
      </trkpt>
      <trkpt lat="49.70413" lon="-1.85784">
        <ele>77.699219</ele>
        <time>2016-09-07T12:25:40Z</time>
      </trkpt>
      <trkpt lat="49.70401" lon="-1.85784">
        <ele>76.898438</ele>
        <time>2016-09-07T12:25:43Z</time>
      </trkpt>
      <trkpt lat="49.70334" lon="-1.85786">
        <ele>75.398438</ele>
        <time>2016-09-07T12:25:56Z</time>
      </trkpt>
      <trkpt lat="49.70324" lon="-1.85784">
        <ele>75.5</ele>
        <time>2016-09-07T12:25:58Z</time>
      </trkpt>
      <trkpt lat="49.70315" lon="-1.8578">
        <ele>75.5</ele>
        <time>2016-09-07T12:26:00Z</time>
      </trkpt>
      <trkpt lat="49.70252" lon="-1.8575">
        <ele>72.296875</ele>
        <time>2016-09-07T12:26:14Z</time>
      </trkpt>
      <trkpt lat="49.70244" lon="-1.85744">
        <ele>72.898438</ele>
        <time>2016-09-07T12:26:30Z</time>
      </trkpt>
      <trkpt lat="49.70245" lon="-1.85727">
        <ele>73.597656</ele>
        <time>2016-09-07T12:26:36Z</time>
      </trkpt>
      <trkpt lat="49.70248" lon="-1.85713">
        <ele>74.296875</ele>
        <time>2016-09-07T12:26:40Z</time>
      </trkpt>
      <trkpt lat="49.70294" lon="-1.85462">
        <ele>67.898438</ele>
        <time>2016-09-07T12:27:21Z</time>
      </trkpt>
      <trkpt lat="49.70306" lon="-1.85415">
        <ele>66.097656</ele>
        <time>2016-09-07T12:27:25Z</time>
      </trkpt>
      <trkpt lat="49.70314" lon="-1.85397">
        <ele>65.199219</ele>
        <time>2016-09-07T12:27:27Z</time>
      </trkpt>
      <trkpt lat="49.70326" lon="-1.85388">
        <ele>64.199219</ele>
        <time>2016-09-07T12:27:29Z</time>
      </trkpt>
      <trkpt lat="49.7034" lon="-1.85385">
        <ele>63.398438</ele>
        <time>2016-09-07T12:27:31Z</time>
      </trkpt>
      <trkpt lat="49.70371" lon="-1.85377">
        <ele>61.398438</ele>
        <time>2016-09-07T12:27:35Z</time>
      </trkpt>
      <trkpt lat="49.70386" lon="-1.85366">
        <ele>59.597656</ele>
        <time>2016-09-07T12:27:37Z</time>
      </trkpt>
      <trkpt lat="49.70399" lon="-1.85351">
        <ele>56.898438</ele>
        <time>2016-09-07T12:27:39Z</time>
      </trkpt>
      <trkpt lat="49.70407" lon="-1.85333">
        <ele>55.097656</ele>
        <time>2016-09-07T12:27:41Z</time>
      </trkpt>
      <trkpt lat="49.70412" lon="-1.8531">
        <ele>53.796875</ele>
        <time>2016-09-07T12:27:43Z</time>
      </trkpt>
      <trkpt lat="49.70419" lon="-1.85289">
        <ele>52</ele>
        <time>2016-09-07T12:27:45Z</time>
      </trkpt>
      <trkpt lat="49.70421" lon="-1.85269">
        <ele>49.699219</ele>
        <time>2016-09-07T12:27:47Z</time>
      </trkpt>
      <trkpt lat="49.70418" lon="-1.85251">
        <ele>48.199219</ele>
        <time>2016-09-07T12:27:49Z</time>
      </trkpt>
      <trkpt lat="49.70416" lon="-1.85235">
        <ele>46.097656</ele>
        <time>2016-09-07T12:27:51Z</time>
      </trkpt>
      <trkpt lat="49.70406" lon="-1.85223">
        <ele>45.296875</ele>
        <time>2016-09-07T12:27:54Z</time>
      </trkpt>
      <trkpt lat="49.70397" lon="-1.85216">
        <ele>44.199219</ele>
        <time>2016-09-07T12:27:56Z</time>
      </trkpt>
      <trkpt lat="49.70388" lon="-1.85202">
        <ele>42.898438</ele>
        <time>2016-09-07T12:27:58Z</time>
      </trkpt>
      <trkpt lat="49.70361" lon="-1.85144">
        <ele>39.898438</ele>
        <time>2016-09-07T12:28:04Z</time>
      </trkpt>
      <trkpt lat="49.7032" lon="-1.8505">
        <ele>35.097656</ele>
        <time>2016-09-07T12:28:12Z</time>
      </trkpt>
      <trkpt lat="49.70315" lon="-1.85037">
        <ele>34.199219</ele>
        <time>2016-09-07T12:28:13Z</time>
      </trkpt>
      <trkpt lat="49.70286" lon="-1.8494">
        <ele>29.199219</ele>
        <time>2016-09-07T12:28:20Z</time>
      </trkpt>
      <trkpt lat="49.70282" lon="-1.84914">
        <ele>28.199219</ele>
        <time>2016-09-07T12:28:22Z</time>
      </trkpt>
      <trkpt lat="49.7028" lon="-1.8489">
        <ele>27</ele>
        <time>2016-09-07T12:28:24Z</time>
      </trkpt>
      <trkpt lat="49.7028" lon="-1.84866">
        <ele>25.898438</ele>
        <time>2016-09-07T12:28:26Z</time>
      </trkpt>
      <trkpt lat="49.7028" lon="-1.84839">
        <ele>25</ele>
        <time>2016-09-07T12:28:28Z</time>
      </trkpt>
      <trkpt lat="49.70278" lon="-1.84812">
        <ele>24.199219</ele>
        <time>2016-09-07T12:28:30Z</time>
      </trkpt>
      <trkpt lat="49.70279" lon="-1.84786">
        <ele>23.296875</ele>
        <time>2016-09-07T12:28:32Z</time>
      </trkpt>
      <trkpt lat="49.70281" lon="-1.84759">
        <ele>22.398438</ele>
        <time>2016-09-07T12:28:34Z</time>
      </trkpt>
      <trkpt lat="49.70291" lon="-1.84681">
        <ele>19.597656</ele>
        <time>2016-09-07T12:28:40Z</time>
      </trkpt>
      <trkpt lat="49.70299" lon="-1.84629">
        <ele>17.699219</ele>
        <time>2016-09-07T12:28:44Z</time>
      </trkpt>
      <trkpt lat="49.70305" lon="-1.84603">
        <ele>16.398438</ele>
        <time>2016-09-07T12:28:46Z</time>
      </trkpt>
      <trkpt lat="49.70312" lon="-1.84578">
        <ele>15.597656</ele>
        <time>2016-09-07T12:28:48Z</time>
      </trkpt>
      <trkpt lat="49.70321" lon="-1.84556">
        <ele>15.097656</ele>
        <time>2016-09-07T12:28:50Z</time>
      </trkpt>
      <trkpt lat="49.70331" lon="-1.84538">
        <ele>13.296875</ele>
        <time>2016-09-07T12:28:52Z</time>
      </trkpt>
      <trkpt lat="49.7033" lon="-1.8452">
        <ele>12.5</ele>
        <time>2016-09-07T12:28:55Z</time>
      </trkpt>
      <trkpt lat="49.70325" lon="-1.84508">
        <ele>12.296875</ele>
        <time>2016-09-07T12:28:57Z</time>
      </trkpt>
      <trkpt lat="49.70312" lon="-1.84479">
        <ele>11.199219</ele>
        <time>2016-09-07T12:29:01Z</time>
      </trkpt>
      <trkpt lat="49.70307" lon="-1.84462">
        <ele>10.796875</ele>
        <time>2016-09-07T12:29:03Z</time>
      </trkpt>
      <trkpt lat="49.70304" lon="-1.84446">
        <ele>10</ele>
        <time>2016-09-07T12:29:05Z</time>
      </trkpt>
      <trkpt lat="49.70307" lon="-1.8443">
        <ele>8.898438</ele>
        <time>2016-09-07T12:29:07Z</time>
      </trkpt>
      <trkpt lat="49.70314" lon="-1.84417">
        <ele>7.296875</ele>
        <time>2016-09-07T12:29:09Z</time>
      </trkpt>
      <trkpt lat="49.70325" lon="-1.84393">
        <ele>3.796875</ele>
        <time>2016-09-07T12:29:14Z</time>
      </trkpt>
      <trkpt lat="49.70332" lon="-1.84384">
        <ele>3.597656</ele>
        <time>2016-09-07T12:29:18Z</time>
      </trkpt>
      <trkpt lat="49.70341" lon="-1.84379">
        <ele>4.097656</ele>
        <time>2016-09-07T12:29:21Z</time>
      </trkpt>
      <trkpt lat="49.7036" lon="-1.84368">
        <ele>4.699219</ele>
        <time>2016-09-07T12:29:27Z</time>
      </trkpt>
      <trkpt lat="49.70371" lon="-1.84365">
        <ele>5.898438</ele>
        <time>2016-09-07T12:29:31Z</time>
      </trkpt>
      <trkpt lat="49.70361" lon="-1.8437">
        <ele>7</ele>
        <time>2016-09-07T12:29:37Z</time>
      </trkpt>
      <trkpt lat="49.70352" lon="-1.84374">
        <ele>8</ele>
        <time>2016-09-07T12:29:41Z</time>
      </trkpt>
      <trkpt lat="49.70342" lon="-1.8438">
        <ele>9.398438</ele>
        <time>2016-09-07T12:29:45Z</time>
      </trkpt>
      <trkpt lat="49.70332" lon="-1.84381">
        <ele>9.898438</ele>
        <time>2016-09-07T12:29:49Z</time>
      </trkpt>
      <trkpt lat="49.70324" lon="-1.84367">
        <ele>10</ele>
        <time>2016-09-07T12:29:53Z</time>
      </trkpt>
      <trkpt lat="49.70303" lon="-1.84332">
        <ele>10.5</ele>
        <time>2016-09-07T12:30:02Z</time>
      </trkpt>
      <trkpt lat="49.70299" lon="-1.84317">
        <ele>10.5</ele>
        <time>2016-09-07T12:30:05Z</time>
      </trkpt>
      <trkpt lat="49.70302" lon="-1.84302">
        <ele>10.5</ele>
        <time>2016-09-07T12:30:08Z</time>
      </trkpt>
      <trkpt lat="49.703" lon="-1.84287">
        <ele>10.597656</ele>
        <time>2016-09-07T12:30:11Z</time>
      </trkpt>
      <trkpt lat="49.70295" lon="-1.84273">
        <ele>10.699219</ele>
        <time>2016-09-07T12:30:14Z</time>
      </trkpt>
      <trkpt lat="49.70292" lon="-1.84259">
        <ele>10.097656</ele>
        <time>2016-09-07T12:30:18Z</time>
      </trkpt>
      <trkpt lat="49.70296" lon="-1.84243">
        <ele>9.5</ele>
        <time>2016-09-07T12:30:22Z</time>
      </trkpt>
      <trkpt lat="49.70301" lon="-1.84228">
        <ele>9.097656</ele>
        <time>2016-09-07T12:30:25Z</time>
      </trkpt>
      <trkpt lat="49.70315" lon="-1.84182">
        <ele>8.398438</ele>
        <time>2016-09-07T12:30:32Z</time>
      </trkpt>
      <trkpt lat="49.70346" lon="-1.84078">
        <ele>7.097656</ele>
        <time>2016-09-07T12:30:46Z</time>
      </trkpt>
      <trkpt lat="49.70352" lon="-1.84066">
        <ele>6.796875</ele>
        <time>2016-09-07T12:30:48Z</time>
      </trkpt>
      <trkpt lat="49.70366" lon="-1.84042">
        <ele>6.5</ele>
        <time>2016-09-07T12:30:52Z</time>
      </trkpt>
      <trkpt lat="49.70394" lon="-1.83995">
        <ele>5.597656</ele>
        <time>2016-09-07T12:31:00Z</time>
      </trkpt>
      <trkpt lat="49.704" lon="-1.83981">
        <ele>5.5</ele>
        <time>2016-09-07T12:31:02Z</time>
      </trkpt>
      <trkpt lat="49.70405" lon="-1.83967">
        <ele>5.398438</ele>
        <time>2016-09-07T12:31:04Z</time>
      </trkpt>
      <trkpt lat="49.70427" lon="-1.83902">
        <ele>5.398438</ele>
        <time>2016-09-07T12:31:14Z</time>
      </trkpt>
      <trkpt lat="49.70442" lon="-1.83851">
        <ele>5.097656</ele>
        <time>2016-09-07T12:31:22Z</time>
      </trkpt>
      <trkpt lat="49.70447" lon="-1.83839">
        <ele>4.796875</ele>
        <time>2016-09-07T12:31:24Z</time>
      </trkpt>
      <trkpt lat="49.70469" lon="-1.83793">
        <ele>2</ele>
        <time>2016-09-07T12:31:33Z</time>
      </trkpt>
      <trkpt lat="49.70512" lon="-1.83695">
        <ele>1.898438</ele>
        <time>2016-09-07T12:31:52Z</time>
      </trkpt>
      <trkpt lat="49.70537" lon="-1.83652">
        <ele>2.796875</ele>
        <time>2016-09-07T12:32:01Z</time>
      </trkpt>
      <trkpt lat="49.70541" lon="-1.8364">
        <ele>2.699219</ele>
        <time>2016-09-07T12:32:04Z</time>
      </trkpt>
      <trkpt lat="49.70537" lon="-1.83656">
        <ele>2.699219</ele>
        <time>2016-09-07T12:34:55Z</time>
      </trkpt>
      <trkpt lat="49.7053" lon="-1.83669">
        <ele>2.5</ele>
        <time>2016-09-07T12:34:58Z</time>
      </trkpt>
      <trkpt lat="49.70511" lon="-1.83705">
        <ele>3.398438</ele>
        <time>2016-09-07T12:35:07Z</time>
      </trkpt>
      <trkpt lat="49.70469" lon="-1.83802">
        <ele>5.296875</ele>
        <time>2016-09-07T12:35:29Z</time>
      </trkpt>
      <trkpt lat="49.70458" lon="-1.83796">
        <ele>5.296875</ele>
        <time>2016-09-07T12:35:35Z</time>
      </trkpt>
      <trkpt lat="49.70447" lon="-1.83794">
        <ele>5.296875</ele>
        <time>2016-09-07T12:35:39Z</time>
      </trkpt>
      <trkpt lat="49.70321" lon="-1.83767">
        <ele>12.296875</ele>
        <time>2016-09-07T12:36:21Z</time>
      </trkpt>
      <trkpt lat="49.70258" lon="-1.83752">
        <ele>19.398438</ele>
        <time>2016-09-07T12:36:45Z</time>
      </trkpt>
      <trkpt lat="49.7025" lon="-1.83745">
        <ele>20.097656</ele>
        <time>2016-09-07T12:36:49Z</time>
      </trkpt>
      <trkpt lat="49.70244" lon="-1.83733">
        <ele>20.597656</ele>
        <time>2016-09-07T12:36:53Z</time>
      </trkpt>
      <trkpt lat="49.70236" lon="-1.83723">
        <ele>20.796875</ele>
        <time>2016-09-07T12:36:57Z</time>
      </trkpt>
      <trkpt lat="49.70227" lon="-1.83717">
        <ele>22.597656</ele>
        <time>2016-09-07T12:37:01Z</time>
      </trkpt>
      <trkpt lat="49.70217" lon="-1.83712">
        <ele>24.398438</ele>
        <time>2016-09-07T12:37:06Z</time>
      </trkpt>
      <trkpt lat="49.7021" lon="-1.83701">
        <ele>25.199219</ele>
        <time>2016-09-07T12:37:11Z</time>
      </trkpt>
      <trkpt lat="49.70205" lon="-1.83687">
        <ele>26.5</ele>
        <time>2016-09-07T12:37:16Z</time>
      </trkpt>
      <trkpt lat="49.70193" lon="-1.8366">
        <ele>28.796875</ele>
        <time>2016-09-07T12:37:26Z</time>
      </trkpt>
      <trkpt lat="49.70187" lon="-1.83647">
        <ele>31</ele>
        <time>2016-09-07T12:37:32Z</time>
      </trkpt>
      <trkpt lat="49.70167" lon="-1.83614">
        <ele>34.796875</ele>
        <time>2016-09-07T12:37:50Z</time>
      </trkpt>
      <trkpt lat="49.70162" lon="-1.836">
        <ele>36.5</ele>
        <time>2016-09-07T12:37:55Z</time>
      </trkpt>
      <trkpt lat="49.70151" lon="-1.83574">
        <ele>39.796875</ele>
        <time>2016-09-07T12:38:05Z</time>
      </trkpt>
      <trkpt lat="49.70147" lon="-1.8356">
        <ele>40.199219</ele>
        <time>2016-09-07T12:38:10Z</time>
      </trkpt>
      <trkpt lat="49.70145" lon="-1.83542">
        <ele>37.898438</ele>
        <time>2016-09-07T12:38:15Z</time>
      </trkpt>
      <trkpt lat="49.70147" lon="-1.83525">
        <ele>35.097656</ele>
        <time>2016-09-07T12:38:19Z</time>
      </trkpt>
      <trkpt lat="49.7015" lon="-1.83509">
        <ele>31.199219</ele>
        <time>2016-09-07T12:38:23Z</time>
      </trkpt>
      <trkpt lat="49.70153" lon="-1.83496">
        <ele>30.796875</ele>
        <time>2016-09-07T12:38:29Z</time>
      </trkpt>
      <trkpt lat="49.70155" lon="-1.8348">
        <ele>30.398438</ele>
        <time>2016-09-07T12:38:35Z</time>
      </trkpt>
      <trkpt lat="49.70158" lon="-1.83461">
        <ele>28.296875</ele>
        <time>2016-09-07T12:38:39Z</time>
      </trkpt>
      <trkpt lat="49.70167" lon="-1.83393">
        <ele>26.199219</ele>
        <time>2016-09-07T12:38:53Z</time>
      </trkpt>
      <trkpt lat="49.70168" lon="-1.83374">
        <ele>27.296875</ele>
        <time>2016-09-07T12:38:57Z</time>
      </trkpt>
      <trkpt lat="49.70169" lon="-1.83329">
        <ele>27.597656</ele>
        <time>2016-09-07T12:39:08Z</time>
      </trkpt>
      <trkpt lat="49.70172" lon="-1.83282">
        <ele>39.5</ele>
        <time>2016-09-07T12:39:49Z</time>
      </trkpt>
      <trkpt lat="49.70171" lon="-1.83296">
        <ele>39.699219</ele>
        <time>2016-09-07T12:48:12Z</time>
      </trkpt>
      <trkpt lat="49.7017" lon="-1.83328">
        <ele>38.796875</ele>
        <time>2016-09-07T12:48:33Z</time>
      </trkpt>
      <trkpt lat="49.70168" lon="-1.83394">
        <ele>36.5</ele>
        <time>2016-09-07T12:48:48Z</time>
      </trkpt>
      <trkpt lat="49.70161" lon="-1.83444">
        <ele>36.699219</ele>
        <time>2016-09-07T12:49:01Z</time>
      </trkpt>
      <trkpt lat="49.70153" lon="-1.83492">
        <ele>38.597656</ele>
        <time>2016-09-07T12:49:13Z</time>
      </trkpt>
      <trkpt lat="49.70149" lon="-1.83508">
        <ele>39.699219</ele>
        <time>2016-09-07T12:49:18Z</time>
      </trkpt>
      <trkpt lat="49.70146" lon="-1.83522">
        <ele>41.398438</ele>
        <time>2016-09-07T12:49:22Z</time>
      </trkpt>
      <trkpt lat="49.70143" lon="-1.83537">
        <ele>41.597656</ele>
        <time>2016-09-07T12:49:27Z</time>
      </trkpt>
      <trkpt lat="49.70146" lon="-1.83551">
        <ele>40.199219</ele>
        <time>2016-09-07T12:49:31Z</time>
      </trkpt>
      <trkpt lat="49.70152" lon="-1.83567">
        <ele>38.597656</ele>
        <time>2016-09-07T12:49:34Z</time>
      </trkpt>
      <trkpt lat="49.70168" lon="-1.83607">
        <ele>33.5</ele>
        <time>2016-09-07T12:49:40Z</time>
      </trkpt>
      <trkpt lat="49.70174" lon="-1.83618">
        <ele>30.296875</ele>
        <time>2016-09-07T12:49:42Z</time>
      </trkpt>
      <trkpt lat="49.70183" lon="-1.83632">
        <ele>28.5</ele>
        <time>2016-09-07T12:49:45Z</time>
      </trkpt>
      <trkpt lat="49.7019" lon="-1.83644">
        <ele>27.097656</ele>
        <time>2016-09-07T12:49:47Z</time>
      </trkpt>
      <trkpt lat="49.70195" lon="-1.83656">
        <ele>25.699219</ele>
        <time>2016-09-07T12:49:49Z</time>
      </trkpt>
      <trkpt lat="49.70201" lon="-1.83674">
        <ele>24.296875</ele>
        <time>2016-09-07T12:49:52Z</time>
      </trkpt>
      <trkpt lat="49.70208" lon="-1.83687">
        <ele>23.296875</ele>
        <time>2016-09-07T12:49:55Z</time>
      </trkpt>
      <trkpt lat="49.7021" lon="-1.83703">
        <ele>28</ele>
        <time>2016-09-07T12:49:59Z</time>
      </trkpt>
      <trkpt lat="49.70211" lon="-1.83717">
        <ele>29.5</ele>
        <time>2016-09-07T12:50:31Z</time>
      </trkpt>
      <trkpt lat="49.70208" lon="-1.83733">
        <ele>30.699219</ele>
        <time>2016-09-07T12:50:37Z</time>
      </trkpt>
      <trkpt lat="49.70199" lon="-1.83779">
        <ele>33.199219</ele>
        <time>2016-09-07T12:50:49Z</time>
      </trkpt>
      <trkpt lat="49.70195" lon="-1.83792">
        <ele>34.097656</ele>
        <time>2016-09-07T12:50:53Z</time>
      </trkpt>
      <trkpt lat="49.70185" lon="-1.83817">
        <ele>35.699219</ele>
        <time>2016-09-07T12:51:01Z</time>
      </trkpt>
      <trkpt lat="49.70157" lon="-1.83879">
        <ele>37.199219</ele>
        <time>2016-09-07T12:51:21Z</time>
      </trkpt>
      <trkpt lat="49.70152" lon="-1.83893">
        <ele>37.796875</ele>
        <time>2016-09-07T12:51:25Z</time>
      </trkpt>
      <trkpt lat="49.70118" lon="-1.84003">
        <ele>47.296875</ele>
        <time>2016-09-07T12:51:59Z</time>
      </trkpt>
      <trkpt lat="49.70105" lon="-1.84049">
        <ele>52.398438</ele>
        <time>2016-09-07T12:52:14Z</time>
      </trkpt>
      <trkpt lat="49.701" lon="-1.84064">
        <ele>54</ele>
        <time>2016-09-07T12:52:19Z</time>
      </trkpt>
      <trkpt lat="49.70093" lon="-1.84075">
        <ele>50.796875</ele>
        <time>2016-09-07T12:52:24Z</time>
      </trkpt>
      <trkpt lat="49.70095" lon="-1.8409">
        <ele>49.296875</ele>
        <time>2016-09-07T12:53:35Z</time>
      </trkpt>
      <trkpt lat="49.70104" lon="-1.84094">
        <ele>47.097656</ele>
        <time>2016-09-07T12:53:37Z</time>
      </trkpt>
      <trkpt lat="49.70117" lon="-1.84101">
        <ele>44.398438</ele>
        <time>2016-09-07T12:53:39Z</time>
      </trkpt>
      <trkpt lat="49.70132" lon="-1.84112">
        <ele>41.699219</ele>
        <time>2016-09-07T12:53:41Z</time>
      </trkpt>
      <trkpt lat="49.70146" lon="-1.84126">
        <ele>39.097656</ele>
        <time>2016-09-07T12:53:43Z</time>
      </trkpt>
      <trkpt lat="49.7016" lon="-1.8414">
        <ele>36.597656</ele>
        <time>2016-09-07T12:53:45Z</time>
      </trkpt>
      <trkpt lat="49.70172" lon="-1.84154">
        <ele>34.296875</ele>
        <time>2016-09-07T12:53:47Z</time>
      </trkpt>
      <trkpt lat="49.70182" lon="-1.84169">
        <ele>32</ele>
        <time>2016-09-07T12:53:49Z</time>
      </trkpt>
      <trkpt lat="49.7019" lon="-1.8419">
        <ele>29.597656</ele>
        <time>2016-09-07T12:53:51Z</time>
      </trkpt>
      <trkpt lat="49.70197" lon="-1.84215">
        <ele>27.699219</ele>
        <time>2016-09-07T12:53:53Z</time>
      </trkpt>
      <trkpt lat="49.70201" lon="-1.84239">
        <ele>26</ele>
        <time>2016-09-07T12:53:55Z</time>
      </trkpt>
      <trkpt lat="49.70203" lon="-1.8426">
        <ele>24.296875</ele>
        <time>2016-09-07T12:53:57Z</time>
      </trkpt>
      <trkpt lat="49.70206" lon="-1.84323">
        <ele>19.199219</ele>
        <time>2016-09-07T12:54:05Z</time>
      </trkpt>
      <trkpt lat="49.70206" lon="-1.84337">
        <ele>19.597656</ele>
        <time>2016-09-07T12:54:08Z</time>
      </trkpt>
      <trkpt lat="49.70204" lon="-1.84351">
        <ele>20</ele>
        <time>2016-09-07T12:54:18Z</time>
      </trkpt>
      <trkpt lat="49.70196" lon="-1.84357">
        <ele>21.5</ele>
        <time>2016-09-07T12:54:22Z</time>
      </trkpt>
      <trkpt lat="49.70187" lon="-1.84359">
        <ele>21.5</ele>
        <time>2016-09-07T12:54:51Z</time>
      </trkpt>
      <trkpt lat="49.70165" lon="-1.84364">
        <ele>21.597656</ele>
        <time>2016-09-07T12:55:00Z</time>
      </trkpt>
      <trkpt lat="49.70155" lon="-1.84364">
        <ele>21.398438</ele>
        <time>2016-09-07T12:55:04Z</time>
      </trkpt>
      <trkpt lat="49.70132" lon="-1.84362">
        <ele>22.296875</ele>
        <time>2016-09-07T12:55:12Z</time>
      </trkpt>
      <trkpt lat="49.70086" lon="-1.84354">
        <ele>26.199219</ele>
        <time>2016-09-07T12:55:28Z</time>
      </trkpt>
      <trkpt lat="49.70075" lon="-1.84354">
        <ele>27.296875</ele>
        <time>2016-09-07T12:55:32Z</time>
      </trkpt>
      <trkpt lat="49.69971" lon="-1.84358">
        <ele>30.296875</ele>
        <time>2016-09-07T12:56:13Z</time>
      </trkpt>
      <trkpt lat="49.69961" lon="-1.8436">
        <ele>27.796875</ele>
        <time>2016-09-07T12:56:17Z</time>
      </trkpt>
      <trkpt lat="49.6983" lon="-1.84403">
        <ele>37.296875</ele>
        <time>2016-09-07T12:57:02Z</time>
      </trkpt>
      <trkpt lat="49.6982" lon="-1.84408">
        <ele>39.796875</ele>
        <time>2016-09-07T12:57:06Z</time>
      </trkpt>
      <trkpt lat="49.69812" lon="-1.84417">
        <ele>39</ele>
        <time>2016-09-07T12:57:25Z</time>
      </trkpt>
      <trkpt lat="49.698" lon="-1.84425">
        <ele>38.699219</ele>
        <time>2016-09-07T12:57:29Z</time>
      </trkpt>
      <trkpt lat="49.69781" lon="-1.84436">
        <ele>39.296875</ele>
        <time>2016-09-07T12:57:35Z</time>
      </trkpt>
      <trkpt lat="49.69772" lon="-1.84439">
        <ele>40</ele>
        <time>2016-09-07T12:57:38Z</time>
      </trkpt>
      <trkpt lat="49.69674" lon="-1.84471">
        <ele>49.5</ele>
        <time>2016-09-07T12:58:10Z</time>
      </trkpt>
      <trkpt lat="49.69653" lon="-1.84475">
        <ele>49</ele>
        <time>2016-09-07T12:58:17Z</time>
      </trkpt>
      <trkpt lat="49.69632" lon="-1.84476">
        <ele>48.597656</ele>
        <time>2016-09-07T12:58:24Z</time>
      </trkpt>
      <trkpt lat="49.69621" lon="-1.84475">
        <ele>47.898438</ele>
        <time>2016-09-07T12:58:28Z</time>
      </trkpt>
      <trkpt lat="49.69612" lon="-1.84469">
        <ele>47.796875</ele>
        <time>2016-09-07T12:58:32Z</time>
      </trkpt>
      <trkpt lat="49.69605" lon="-1.84458">
        <ele>47.199219</ele>
        <time>2016-09-07T12:58:36Z</time>
      </trkpt>
      <trkpt lat="49.69596" lon="-1.84448">
        <ele>46</ele>
        <time>2016-09-07T12:58:40Z</time>
      </trkpt>
      <trkpt lat="49.69586" lon="-1.84446">
        <ele>44.199219</ele>
        <time>2016-09-07T12:58:44Z</time>
      </trkpt>
      <trkpt lat="49.69577" lon="-1.84445">
        <ele>43.296875</ele>
        <time>2016-09-07T12:58:48Z</time>
      </trkpt>
      <trkpt lat="49.69556" lon="-1.84449">
        <ele>41.898438</ele>
        <time>2016-09-07T12:58:55Z</time>
      </trkpt>
      <trkpt lat="49.69545" lon="-1.84448">
        <ele>41.699219</ele>
        <time>2016-09-07T12:58:59Z</time>
      </trkpt>
      <trkpt lat="49.69447" lon="-1.84443">
        <ele>47.597656</ele>
        <time>2016-09-07T12:59:26Z</time>
      </trkpt>
      <trkpt lat="49.69437" lon="-1.8445">
        <ele>49.199219</ele>
        <time>2016-09-07T12:59:29Z</time>
      </trkpt>
      <trkpt lat="49.6943" lon="-1.84459">
        <ele>49.898438</ele>
        <time>2016-09-07T12:59:32Z</time>
      </trkpt>
      <trkpt lat="49.69405" lon="-1.84487">
        <ele>50.5</ele>
        <time>2016-09-07T12:59:42Z</time>
      </trkpt>
      <trkpt lat="49.69396" lon="-1.84496">
        <ele>51</ele>
        <time>2016-09-07T12:59:45Z</time>
      </trkpt>
      <trkpt lat="49.69389" lon="-1.84507">
        <ele>53.199219</ele>
        <time>2016-09-07T12:59:49Z</time>
      </trkpt>
      <trkpt lat="49.69357" lon="-1.8455">
        <ele>59</ele>
        <time>2016-09-07T13:00:04Z</time>
      </trkpt>
      <trkpt lat="49.69349" lon="-1.84564">
        <ele>59.597656</ele>
        <time>2016-09-07T13:00:07Z</time>
      </trkpt>
      <trkpt lat="49.69343" lon="-1.84577">
        <ele>59.398438</ele>
        <time>2016-09-07T13:00:10Z</time>
      </trkpt>
      <trkpt lat="49.69332" lon="-1.84605">
        <ele>58.699219</ele>
        <time>2016-09-07T13:00:16Z</time>
      </trkpt>
      <trkpt lat="49.69327" lon="-1.84619">
        <ele>58.199219</ele>
        <time>2016-09-07T13:00:20Z</time>
      </trkpt>
      <trkpt lat="49.69321" lon="-1.84633">
        <ele>57.5</ele>
        <time>2016-09-07T13:00:24Z</time>
      </trkpt>
      <trkpt lat="49.69314" lon="-1.84647">
        <ele>57.796875</ele>
        <time>2016-09-07T13:00:28Z</time>
      </trkpt>
      <trkpt lat="49.69306" lon="-1.84659">
        <ele>58.296875</ele>
        <time>2016-09-07T13:00:32Z</time>
      </trkpt>
      <trkpt lat="49.69297" lon="-1.84669">
        <ele>61</ele>
        <time>2016-09-07T13:00:36Z</time>
      </trkpt>
      <trkpt lat="49.69288" lon="-1.84678">
        <ele>63</ele>
        <time>2016-09-07T13:00:40Z</time>
      </trkpt>
      <trkpt lat="49.69279" lon="-1.84684">
        <ele>63.597656</ele>
        <time>2016-09-07T13:00:43Z</time>
      </trkpt>
      <trkpt lat="49.69268" lon="-1.84688">
        <ele>63.199219</ele>
        <time>2016-09-07T13:00:47Z</time>
      </trkpt>
      <trkpt lat="49.69239" lon="-1.84704">
        <ele>65.398438</ele>
        <time>2016-09-07T13:01:00Z</time>
      </trkpt>
      <trkpt lat="49.69229" lon="-1.84708">
        <ele>65.5</ele>
        <time>2016-09-07T13:01:13Z</time>
      </trkpt>
      <trkpt lat="49.69218" lon="-1.84714">
        <ele>66</ele>
        <time>2016-09-07T13:01:18Z</time>
      </trkpt>
      <trkpt lat="49.69172" lon="-1.84736">
        <ele>65.898438</ele>
        <time>2016-09-07T13:01:37Z</time>
      </trkpt>
      <trkpt lat="49.69103" lon="-1.84766">
        <ele>71.332031</ele>
        <time>2016-09-07T13:02:12Z</time>
      </trkpt>
      <trkpt lat="49.69095" lon="-1.84771">
        <ele>75</ele>
        <time>2016-09-07T13:02:23Z</time>
      </trkpt>
      <trkpt lat="49.69085" lon="-1.84772">
        <ele>73.699219</ele>
        <time>2016-09-07T13:02:35Z</time>
      </trkpt>
      <trkpt lat="49.69075" lon="-1.84769">
        <ele>71.199219</ele>
        <time>2016-09-07T13:03:31Z</time>
      </trkpt>
      <trkpt lat="49.69067" lon="-1.84763">
        <ele>70.199219</ele>
        <time>2016-09-07T13:03:36Z</time>
      </trkpt>
      <trkpt lat="49.69076" lon="-1.84767">
        <ele>71.097656</ele>
        <time>2016-09-07T13:03:50Z</time>
      </trkpt>
      <trkpt lat="49.69083" lon="-1.84776">
        <ele>72.597656</ele>
        <time>2016-09-07T13:03:56Z</time>
      </trkpt>
      <trkpt lat="49.6908" lon="-1.84791">
        <ele>74.5</ele>
        <time>2016-09-07T13:04:03Z</time>
      </trkpt>
      <trkpt lat="49.69077" lon="-1.84805">
        <ele>76.398438</ele>
        <time>2016-09-07T13:04:09Z</time>
      </trkpt>
      <trkpt lat="49.69076" lon="-1.8482">
        <ele>78.898438</ele>
        <time>2016-09-07T13:04:17Z</time>
      </trkpt>
      <trkpt lat="49.69072" lon="-1.84833">
        <ele>82</ele>
        <time>2016-09-07T13:04:24Z</time>
      </trkpt>
      <trkpt lat="49.69064" lon="-1.84878">
        <ele>87.199219</ele>
        <time>2016-09-07T13:04:42Z</time>
      </trkpt>
      <trkpt lat="49.69061" lon="-1.84891">
        <ele>88.199219</ele>
        <time>2016-09-07T13:04:47Z</time>
      </trkpt>
      <trkpt lat="49.69057" lon="-1.84906">
        <ele>88.199219</ele>
        <time>2016-09-07T13:04:53Z</time>
      </trkpt>
      <trkpt lat="49.69052" lon="-1.8492">
        <ele>87.699219</ele>
        <time>2016-09-07T13:04:59Z</time>
      </trkpt>
      <trkpt lat="49.69043" lon="-1.84946">
        <ele>90</ele>
        <time>2016-09-07T13:05:09Z</time>
      </trkpt>
      <trkpt lat="49.6904" lon="-1.84961">
        <ele>91.199219</ele>
        <time>2016-09-07T13:05:15Z</time>
      </trkpt>
      <trkpt lat="49.69037" lon="-1.84975">
        <ele>92.296875</ele>
        <time>2016-09-07T13:05:20Z</time>
      </trkpt>
      <trkpt lat="49.69035" lon="-1.84991">
        <ele>93.398438</ele>
        <time>2016-09-07T13:05:25Z</time>
      </trkpt>
      <trkpt lat="49.69031" lon="-1.8502">
        <ele>95.699219</ele>
        <time>2016-09-07T13:05:35Z</time>
      </trkpt>
      <trkpt lat="49.6903" lon="-1.85034">
        <ele>97.097656</ele>
        <time>2016-09-07T13:05:40Z</time>
      </trkpt>
      <trkpt lat="49.6903" lon="-1.85049">
        <ele>98.5</ele>
        <time>2016-09-07T13:05:45Z</time>
      </trkpt>
      <trkpt lat="49.69029" lon="-1.85077">
        <ele>101</ele>
        <time>2016-09-07T13:07:05Z</time>
      </trkpt>
      <trkpt lat="49.69024" lon="-1.8509">
        <ele>101.898438</ele>
        <time>2016-09-07T13:07:11Z</time>
      </trkpt>
      <trkpt lat="49.69021" lon="-1.85103">
        <ele>102.597656</ele>
        <time>2016-09-07T13:07:16Z</time>
      </trkpt>
      <trkpt lat="49.69009" lon="-1.8515">
        <ele>103.5</ele>
        <time>2016-09-07T13:07:29Z</time>
      </trkpt>
      <trkpt lat="49.69004" lon="-1.85162">
        <ele>102.898438</ele>
        <time>2016-09-07T13:07:33Z</time>
      </trkpt>
      <trkpt lat="49.68996" lon="-1.85174">
        <ele>102.398438</ele>
        <time>2016-09-07T13:07:38Z</time>
      </trkpt>
      <trkpt lat="49.68987" lon="-1.85176">
        <ele>101.699219</ele>
        <time>2016-09-07T13:07:42Z</time>
      </trkpt>
      <trkpt lat="49.68975" lon="-1.8517">
        <ele>101.5</ele>
        <time>2016-09-07T13:07:46Z</time>
      </trkpt>
      <trkpt lat="49.68847" lon="-1.85112">
        <ele>101.699219</ele>
        <time>2016-09-07T13:08:17Z</time>
      </trkpt>
      <trkpt lat="49.68774" lon="-1.85093">
        <ele>104.398438</ele>
        <time>2016-09-07T13:08:35Z</time>
      </trkpt>
      <trkpt lat="49.68734" lon="-1.85085">
        <ele>104.796875</ele>
        <time>2016-09-07T13:08:47Z</time>
      </trkpt>
      <trkpt lat="49.68722" lon="-1.85081">
        <ele>104.5</ele>
        <time>2016-09-07T13:08:50Z</time>
      </trkpt>
      <trkpt lat="49.6871" lon="-1.85075">
        <ele>104.097656</ele>
        <time>2016-09-07T13:08:53Z</time>
      </trkpt>
      <trkpt lat="49.68701" lon="-1.8507">
        <ele>103.699219</ele>
        <time>2016-09-07T13:08:55Z</time>
      </trkpt>
      <trkpt lat="49.68691" lon="-1.85066">
        <ele>103.097656</ele>
        <time>2016-09-07T13:08:57Z</time>
      </trkpt>
      <trkpt lat="49.6868" lon="-1.85065">
        <ele>102.5</ele>
        <time>2016-09-07T13:08:59Z</time>
      </trkpt>
      <trkpt lat="49.68668" lon="-1.85067">
        <ele>101.898438</ele>
        <time>2016-09-07T13:09:01Z</time>
      </trkpt>
      <trkpt lat="49.68643" lon="-1.85074">
        <ele>100.199219</ele>
        <time>2016-09-07T13:09:05Z</time>
      </trkpt>
      <trkpt lat="49.68617" lon="-1.85082">
        <ele>97.796875</ele>
        <time>2016-09-07T13:09:09Z</time>
      </trkpt>
      <trkpt lat="49.68602" lon="-1.85089">
        <ele>96</ele>
        <time>2016-09-07T13:09:11Z</time>
      </trkpt>
      <trkpt lat="49.68587" lon="-1.85096">
        <ele>94.199219</ele>
        <time>2016-09-07T13:09:13Z</time>
      </trkpt>
      <trkpt lat="49.68571" lon="-1.85093">
        <ele>94.097656</ele>
        <time>2016-09-07T13:09:15Z</time>
      </trkpt>
      <trkpt lat="49.68557" lon="-1.85079">
        <ele>94.199219</ele>
        <time>2016-09-07T13:09:17Z</time>
      </trkpt>
      <trkpt lat="49.68543" lon="-1.85065">
        <ele>94.097656</ele>
        <time>2016-09-07T13:09:19Z</time>
      </trkpt>
      <trkpt lat="49.68528" lon="-1.85059">
        <ele>94.296875</ele>
        <time>2016-09-07T13:09:21Z</time>
      </trkpt>
      <trkpt lat="49.68513" lon="-1.85058">
        <ele>94.5</ele>
        <time>2016-09-07T13:09:23Z</time>
      </trkpt>
      <trkpt lat="49.6849" lon="-1.85059">
        <ele>95.296875</ele>
        <time>2016-09-07T13:09:27Z</time>
      </trkpt>
      <trkpt lat="49.6845" lon="-1.85062">
        <ele>97.199219</ele>
        <time>2016-09-07T13:09:38Z</time>
      </trkpt>
      <trkpt lat="49.6844" lon="-1.85055">
        <ele>97.796875</ele>
        <time>2016-09-07T13:09:42Z</time>
      </trkpt>
      <trkpt lat="49.68432" lon="-1.85043">
        <ele>98.398438</ele>
        <time>2016-09-07T13:09:47Z</time>
      </trkpt>
      <trkpt lat="49.68425" lon="-1.85032">
        <ele>98.898438</ele>
        <time>2016-09-07T13:09:51Z</time>
      </trkpt>
      <trkpt lat="49.68416" lon="-1.85022">
        <ele>99.898438</ele>
        <time>2016-09-07T13:09:55Z</time>
      </trkpt>
      <trkpt lat="49.68382" lon="-1.84986">
        <ele>104.097656</ele>
        <time>2016-09-07T13:10:11Z</time>
      </trkpt>
      <trkpt lat="49.68366" lon="-1.84967">
        <ele>104.296875</ele>
        <time>2016-09-07T13:10:19Z</time>
      </trkpt>
      <trkpt lat="49.68359" lon="-1.84955">
        <ele>105.296875</ele>
        <time>2016-09-07T13:10:23Z</time>
      </trkpt>
      <trkpt lat="49.68337" lon="-1.8492">
        <ele>110.898438</ele>
        <time>2016-09-07T13:10:35Z</time>
      </trkpt>
      <trkpt lat="49.68319" lon="-1.849">
        <ele>115.699219</ele>
        <time>2016-09-07T13:10:43Z</time>
      </trkpt>
      <trkpt lat="49.68309" lon="-1.84891">
        <ele>117.898438</ele>
        <time>2016-09-07T13:10:47Z</time>
      </trkpt>
      <trkpt lat="49.68299" lon="-1.84882">
        <ele>118.796875</ele>
        <time>2016-09-07T13:10:51Z</time>
      </trkpt>
      <trkpt lat="49.68289" lon="-1.84874">
        <ele>118.597656</ele>
        <time>2016-09-07T13:10:55Z</time>
      </trkpt>
      <trkpt lat="49.68267" lon="-1.8486">
        <ele>117.699219</ele>
        <time>2016-09-07T13:11:03Z</time>
      </trkpt>
      <trkpt lat="49.68238" lon="-1.84842">
        <ele>119.398438</ele>
        <time>2016-09-07T13:11:15Z</time>
      </trkpt>
      <trkpt lat="49.68226" lon="-1.84838">
        <ele>120.5</ele>
        <time>2016-09-07T13:11:19Z</time>
      </trkpt>
      <trkpt lat="49.68193" lon="-1.84826">
        <ele>120.699219</ele>
        <time>2016-09-07T13:11:32Z</time>
      </trkpt>
      <trkpt lat="49.68184" lon="-1.8482">
        <ele>121.898438</ele>
        <time>2016-09-07T13:11:36Z</time>
      </trkpt>
      <trkpt lat="49.68165" lon="-1.84804">
        <ele>124.796875</ele>
        <time>2016-09-07T13:11:44Z</time>
      </trkpt>
      <trkpt lat="49.68155" lon="-1.84799">
        <ele>126</ele>
        <time>2016-09-07T13:11:48Z</time>
      </trkpt>
      <trkpt lat="49.68144" lon="-1.84798">
        <ele>127.097656</ele>
        <time>2016-09-07T13:11:52Z</time>
      </trkpt>
      <trkpt lat="49.68135" lon="-1.84802">
        <ele>127.796875</ele>
        <time>2016-09-07T13:11:56Z</time>
      </trkpt>
      <trkpt lat="49.68077" lon="-1.84822">
        <ele>132.5</ele>
        <time>2016-09-07T13:12:20Z</time>
      </trkpt>
      <trkpt lat="49.68057" lon="-1.84834">
        <ele>133.898438</ele>
        <time>2016-09-07T13:12:30Z</time>
      </trkpt>
      <trkpt lat="49.6804" lon="-1.84848">
        <ele>137.597656</ele>
        <time>2016-09-07T13:12:41Z</time>
      </trkpt>
      <trkpt lat="49.6803" lon="-1.84856">
        <ele>140.199219</ele>
        <time>2016-09-07T13:12:46Z</time>
      </trkpt>
      <trkpt lat="49.68021" lon="-1.84862">
        <ele>141.5</ele>
        <time>2016-09-07T13:13:06Z</time>
      </trkpt>
      <trkpt lat="49.68012" lon="-1.84864">
        <ele>142.5</ele>
        <time>2016-09-07T13:13:12Z</time>
      </trkpt>
      <trkpt lat="49.68001" lon="-1.84869">
        <ele>143.199219</ele>
        <time>2016-09-07T13:13:18Z</time>
      </trkpt>
      <trkpt lat="49.67991" lon="-1.8487">
        <ele>144.597656</ele>
        <time>2016-09-07T13:13:23Z</time>
      </trkpt>
      <trkpt lat="49.67981" lon="-1.84866">
        <ele>146.199219</ele>
        <time>2016-09-07T13:13:28Z</time>
      </trkpt>
      <trkpt lat="49.67974" lon="-1.84859">
        <ele>147.699219</ele>
        <time>2016-09-07T13:13:32Z</time>
      </trkpt>
      <trkpt lat="49.67967" lon="-1.8485">
        <ele>148.796875</ele>
        <time>2016-09-07T13:13:36Z</time>
      </trkpt>
      <trkpt lat="49.67912" lon="-1.84778">
        <ele>149.296875</ele>
        <time>2016-09-07T13:13:59Z</time>
      </trkpt>
      <trkpt lat="49.67892" lon="-1.8476">
        <ele>149</ele>
        <time>2016-09-07T13:14:04Z</time>
      </trkpt>
      <trkpt lat="49.67856" lon="-1.8473">
        <ele>148.097656</ele>
        <time>2016-09-07T13:14:12Z</time>
      </trkpt>
      <trkpt lat="49.67785" lon="-1.84673">
        <ele>144.898438</ele>
        <time>2016-09-07T13:14:26Z</time>
      </trkpt>
      <trkpt lat="49.67763" lon="-1.8465">
        <ele>143.097656</ele>
        <time>2016-09-07T13:14:30Z</time>
      </trkpt>
      <trkpt lat="49.67649" lon="-1.84527">
        <ele>138.796875</ele>
        <time>2016-09-07T13:14:46Z</time>
      </trkpt>
      <trkpt lat="49.67585" lon="-1.84473">
        <ele>142.796875</ele>
        <time>2016-09-07T13:15:05Z</time>
      </trkpt>
      <trkpt lat="49.67566" lon="-1.84459">
        <ele>142.796875</ele>
        <time>2016-09-07T13:15:12Z</time>
      </trkpt>
      <trkpt lat="49.67432" lon="-1.84367">
        <ele>155.5</ele>
        <time>2016-09-07T13:16:01Z</time>
      </trkpt>
      <trkpt lat="49.67423" lon="-1.84363">
        <ele>156.199219</ele>
        <time>2016-09-07T13:16:04Z</time>
      </trkpt>
      <trkpt lat="49.67411" lon="-1.84358">
        <ele>156.5</ele>
        <time>2016-09-07T13:16:08Z</time>
      </trkpt>
      <trkpt lat="49.67353" lon="-1.84334">
        <ele>155.296875</ele>
        <time>2016-09-07T13:16:26Z</time>
      </trkpt>
      <trkpt lat="49.67342" lon="-1.84328">
        <ele>155.5</ele>
        <time>2016-09-07T13:16:29Z</time>
      </trkpt>
      <trkpt lat="49.67319" lon="-1.84312">
        <ele>155.296875</ele>
        <time>2016-09-07T13:16:35Z</time>
      </trkpt>
      <trkpt lat="49.67117" lon="-1.84163">
        <ele>136.796875</ele>
        <time>2016-09-07T13:17:07Z</time>
      </trkpt>
      <trkpt lat="49.671" lon="-1.84145">
        <ele>136.199219</ele>
        <time>2016-09-07T13:17:09Z</time>
      </trkpt>
      <trkpt lat="49.67077" lon="-1.8412">
        <ele>137.296875</ele>
        <time>2016-09-07T13:17:12Z</time>
      </trkpt>
      <trkpt lat="49.67063" lon="-1.8411">
        <ele>138.398438</ele>
        <time>2016-09-07T13:17:14Z</time>
      </trkpt>
      <trkpt lat="49.67012" lon="-1.84076">
        <ele>144.199219</ele>
        <time>2016-09-07T13:17:29Z</time>
      </trkpt>
      <trkpt lat="49.67003" lon="-1.84067">
        <ele>145.5</ele>
        <time>2016-09-07T13:17:33Z</time>
      </trkpt>
      <trkpt lat="49.66894" lon="-1.83962">
        <ele>155.097656</ele>
        <time>2016-09-07T13:18:15Z</time>
      </trkpt>
      <trkpt lat="49.66885" lon="-1.83955">
        <ele>155.597656</ele>
        <time>2016-09-07T13:18:18Z</time>
      </trkpt>
      <trkpt lat="49.66876" lon="-1.83949">
        <ele>156.097656</ele>
        <time>2016-09-07T13:18:21Z</time>
      </trkpt>
      <trkpt lat="49.66699" lon="-1.83831">
        <ele>161.199219</ele>
        <time>2016-09-07T13:19:18Z</time>
      </trkpt>
      <trkpt lat="49.66632" lon="-1.83772">
        <ele>159.796875</ele>
        <time>2016-09-07T13:19:35Z</time>
      </trkpt>
      <trkpt lat="49.66512" lon="-1.8364">
        <ele>166.296875</ele>
        <time>2016-09-07T13:20:11Z</time>
      </trkpt>
      <trkpt lat="49.66405" lon="-1.83519">
        <ele>173.796875</ele>
        <time>2016-09-07T13:20:58Z</time>
      </trkpt>
      <trkpt lat="49.66396" lon="-1.8353">
        <ele>173.597656</ele>
        <time>2016-09-07T13:21:06Z</time>
      </trkpt>
      <trkpt lat="49.66392" lon="-1.83543">
        <ele>173.199219</ele>
        <time>2016-09-07T13:21:09Z</time>
      </trkpt>
      <trkpt lat="49.66327" lon="-1.83718">
        <ele>171.898438</ele>
        <time>2016-09-07T13:21:39Z</time>
      </trkpt>
      <trkpt lat="49.66325" lon="-1.83735">
        <ele>172.296875</ele>
        <time>2016-09-07T13:21:42Z</time>
      </trkpt>
      <trkpt lat="49.66324" lon="-1.83751">
        <ele>172.398438</ele>
        <time>2016-09-07T13:21:45Z</time>
      </trkpt>
      <trkpt lat="49.66329" lon="-1.83764">
        <ele>172.199219</ele>
        <time>2016-09-07T13:21:48Z</time>
      </trkpt>
      <trkpt lat="49.66335" lon="-1.83777">
        <ele>172.355469</ele>
        <time>2016-09-07T13:21:51Z</time>
      </trkpt>
      <trkpt lat="49.66333" lon="-1.83791">
        <ele>172.472656</ele>
        <time>2016-09-07T13:22:30Z</time>
      </trkpt>
    </trkseg>
  </trk>
</gpx>